<?xml version="1.0" encoding="UTF-8" standalone="no" ?>
<gpx xmlns="http://www.topografix.com/GPX/1/1" xmlns:xsi="http://www.w3.org/2001/XMLSchema-instance" xsi:schemaLocation="http://www.topografix.com/GPX/1/1 http://www.topografix.com/GPX/1/1/gpx.xsd" version="1.1" creator="VisuGPX - https://www.visugpx.com">
  <metadata>
    <name>2014-01-17 Vtt St Peray-Toulaud-Gournier</name>
    <desc><![CDATA[Très belle sortie avec 2 drailles magnifiques]]></desc>
  </metadata>
  <trk>
    <name><![CDATA[2014-01-18-07-46-09 on GPSies.com]]></name>
    <trkseg>
      <trkpt lat="44.94774" lon="4.85017">
        <ele>134.33</ele>
        <time>2014-01-18T07:46:11Z</time>
      </trkpt>
      <trkpt lat="44.94767" lon="4.85014">
        <ele>133.294</ele>
        <time>2014-01-18T07:46:15Z</time>
      </trkpt>
      <trkpt lat="44.94752" lon="4.85009">
        <ele>134.246</ele>
        <time>2014-01-18T07:46:21Z</time>
      </trkpt>
      <trkpt lat="44.94748" lon="4.85008">
        <ele>133.812</ele>
        <time>2014-01-18T07:46:24Z</time>
      </trkpt>
      <trkpt lat="44.94735" lon="4.85037">
        <ele>134.71</ele>
        <time>2014-01-18T07:46:29Z</time>
      </trkpt>
      <trkpt lat="44.94721" lon="4.85057">
        <ele>135.036</ele>
        <time>2014-01-18T07:46:35Z</time>
      </trkpt>
      <trkpt lat="44.94719" lon="4.8506">
        <ele>135.253</ele>
        <time>2014-01-18T07:46:37Z</time>
      </trkpt>
      <trkpt lat="44.94706" lon="4.85057">
        <ele>135.289</ele>
        <time>2014-01-18T07:46:43Z</time>
      </trkpt>
      <trkpt lat="44.94705" lon="4.85055">
        <ele>133.701</ele>
        <time>2014-01-18T07:46:44Z</time>
      </trkpt>
      <trkpt lat="44.94694" lon="4.85025">
        <ele>134.971</ele>
        <time>2014-01-18T07:46:54Z</time>
      </trkpt>
      <trkpt lat="44.94682" lon="4.84989">
        <ele>134.843</ele>
        <time>2014-01-18T07:47:03Z</time>
      </trkpt>
      <trkpt lat="44.94673" lon="4.84961">
        <ele>134.928</ele>
        <time>2014-01-18T07:47:10Z</time>
      </trkpt>
      <trkpt lat="44.94664" lon="4.84926">
        <ele>135.156</ele>
        <time>2014-01-18T07:47:18Z</time>
      </trkpt>
      <trkpt lat="44.94651" lon="4.84892">
        <ele>135.493</ele>
        <time>2014-01-18T07:47:27Z</time>
      </trkpt>
      <trkpt lat="44.94641" lon="4.8486">
        <ele>135.507</ele>
        <time>2014-01-18T07:47:35Z</time>
      </trkpt>
      <trkpt lat="44.94629" lon="4.84825">
        <ele>136.091</ele>
        <time>2014-01-18T07:47:44Z</time>
      </trkpt>
      <trkpt lat="44.94619" lon="4.84794">
        <ele>136.696</ele>
        <time>2014-01-18T07:47:52Z</time>
      </trkpt>
      <trkpt lat="44.94613" lon="4.84773">
        <ele>137.579</ele>
        <time>2014-01-18T07:47:58Z</time>
      </trkpt>
      <trkpt lat="44.94607" lon="4.84756">
        <ele>137.939</ele>
        <time>2014-01-18T07:48:03Z</time>
      </trkpt>
      <trkpt lat="44.946" lon="4.8473">
        <ele>138.084</ele>
        <time>2014-01-18T07:48:08Z</time>
      </trkpt>
      <trkpt lat="44.94594" lon="4.84714">
        <ele>138.214</ele>
        <time>2014-01-18T07:48:13Z</time>
      </trkpt>
      <trkpt lat="44.9458" lon="4.84714">
        <ele>138.917</ele>
        <time>2014-01-18T07:48:18Z</time>
      </trkpt>
      <trkpt lat="44.94563" lon="4.84733">
        <ele>139.462</ele>
        <time>2014-01-18T07:48:25Z</time>
      </trkpt>
      <trkpt lat="44.94558" lon="4.84739">
        <ele>138.518</ele>
        <time>2014-01-18T07:48:27Z</time>
      </trkpt>
      <trkpt lat="44.9454" lon="4.8473">
        <ele>137.871</ele>
        <time>2014-01-18T07:48:32Z</time>
      </trkpt>
      <trkpt lat="44.94537" lon="4.84725">
        <ele>137.78</ele>
        <time>2014-01-18T07:48:33Z</time>
      </trkpt>
      <trkpt lat="44.94514" lon="4.84678">
        <ele>137.485</ele>
        <time>2014-01-18T07:48:42Z</time>
      </trkpt>
      <trkpt lat="44.94495" lon="4.84648">
        <ele>137.769</ele>
        <time>2014-01-18T07:48:50Z</time>
      </trkpt>
      <trkpt lat="44.94488" lon="4.84638">
        <ele>136.864</ele>
        <time>2014-01-18T07:48:54Z</time>
      </trkpt>
      <trkpt lat="44.94492" lon="4.84624">
        <ele>136.645</ele>
        <time>2014-01-18T07:48:55Z</time>
      </trkpt>
      <trkpt lat="44.94489" lon="4.84593">
        <ele>135.848</ele>
        <time>2014-01-18T07:48:59Z</time>
      </trkpt>
      <trkpt lat="44.9448" lon="4.84573">
        <ele>135.982</ele>
        <time>2014-01-18T07:49:02Z</time>
      </trkpt>
      <trkpt lat="44.94466" lon="4.84546">
        <ele>136.138</ele>
        <time>2014-01-18T07:49:07Z</time>
      </trkpt>
      <trkpt lat="44.9445" lon="4.84513">
        <ele>136.493</ele>
        <time>2014-01-18T07:49:13Z</time>
      </trkpt>
      <trkpt lat="44.94423" lon="4.8448">
        <ele>137.234</ele>
        <time>2014-01-18T07:49:21Z</time>
      </trkpt>
      <trkpt lat="44.9441" lon="4.84467">
        <ele>137.412</ele>
        <time>2014-01-18T07:49:26Z</time>
      </trkpt>
      <trkpt lat="44.94408" lon="4.84465">
        <ele>137.544</ele>
        <time>2014-01-18T07:49:27Z</time>
      </trkpt>
      <trkpt lat="44.94396" lon="4.84451">
        <ele>137.528</ele>
        <time>2014-01-18T07:49:32Z</time>
      </trkpt>
      <trkpt lat="44.94376" lon="4.84434">
        <ele>138.763</ele>
        <time>2014-01-18T07:49:39Z</time>
      </trkpt>
      <trkpt lat="44.9437" lon="4.84431">
        <ele>138.882</ele>
        <time>2014-01-18T07:49:44Z</time>
      </trkpt>
      <trkpt lat="44.94353" lon="4.84386">
        <ele>138.884</ele>
        <time>2014-01-18T07:49:50Z</time>
      </trkpt>
      <trkpt lat="44.94341" lon="4.84357">
        <ele>137.177</ele>
        <time>2014-01-18T07:49:56Z</time>
      </trkpt>
      <trkpt lat="44.94326" lon="4.84361">
        <ele>137.014</ele>
        <time>2014-01-18T07:49:57Z</time>
      </trkpt>
      <trkpt lat="44.94299" lon="4.8433">
        <ele>136.742</ele>
        <time>2014-01-18T07:50:03Z</time>
      </trkpt>
      <trkpt lat="44.94267" lon="4.84295">
        <ele>137.206</ele>
        <time>2014-01-18T07:50:12Z</time>
      </trkpt>
      <trkpt lat="44.94253" lon="4.8428">
        <ele>137.191</ele>
        <time>2014-01-18T07:50:16Z</time>
      </trkpt>
      <trkpt lat="44.9424" lon="4.84267">
        <ele>137.71</ele>
        <time>2014-01-18T07:50:20Z</time>
      </trkpt>
      <trkpt lat="44.94224" lon="4.84229">
        <ele>137.807</ele>
        <time>2014-01-18T07:50:26Z</time>
      </trkpt>
      <trkpt lat="44.94199" lon="4.84204">
        <ele>137.984</ele>
        <time>2014-01-18T07:50:34Z</time>
      </trkpt>
      <trkpt lat="44.94182" lon="4.84197">
        <ele>138.239</ele>
        <time>2014-01-18T07:50:39Z</time>
      </trkpt>
      <trkpt lat="44.94163" lon="4.84188">
        <ele>138.517</ele>
        <time>2014-01-18T07:50:45Z</time>
      </trkpt>
      <trkpt lat="44.94152" lon="4.84179">
        <ele>137.582</ele>
        <time>2014-01-18T07:50:48Z</time>
      </trkpt>
      <trkpt lat="44.9414" lon="4.84169">
        <ele>138.189</ele>
        <time>2014-01-18T07:50:51Z</time>
      </trkpt>
      <trkpt lat="44.94125" lon="4.84143">
        <ele>138.009</ele>
        <time>2014-01-18T07:50:56Z</time>
      </trkpt>
      <trkpt lat="44.94122" lon="4.84139">
        <ele>137.924</ele>
        <time>2014-01-18T07:50:57Z</time>
      </trkpt>
      <trkpt lat="44.94102" lon="4.84113">
        <ele>138.162</ele>
        <time>2014-01-18T07:51:03Z</time>
      </trkpt>
      <trkpt lat="44.94079" lon="4.84101">
        <ele>138.36</ele>
        <time>2014-01-18T07:51:10Z</time>
      </trkpt>
      <trkpt lat="44.94062" lon="4.84094">
        <ele>138.652</ele>
        <time>2014-01-18T07:51:15Z</time>
      </trkpt>
      <trkpt lat="44.94047" lon="4.84088">
        <ele>138.897</ele>
        <time>2014-01-18T07:51:19Z</time>
      </trkpt>
      <trkpt lat="44.94015" lon="4.84075">
        <ele>139.375</ele>
        <time>2014-01-18T07:51:27Z</time>
      </trkpt>
      <trkpt lat="44.93983" lon="4.84062">
        <ele>139.349</ele>
        <time>2014-01-18T07:51:35Z</time>
      </trkpt>
      <trkpt lat="44.93971" lon="4.8406">
        <ele>139.412</ele>
        <time>2014-01-18T07:51:38Z</time>
      </trkpt>
      <trkpt lat="44.93958" lon="4.84062">
        <ele>139.877</ele>
        <time>2014-01-18T07:51:42Z</time>
      </trkpt>
      <trkpt lat="44.93951" lon="4.84064">
        <ele>138.681</ele>
        <time>2014-01-18T07:51:47Z</time>
      </trkpt>
      <trkpt lat="44.93951" lon="4.83961">
        <ele>138.601</ele>
        <time>2014-01-18T07:51:52Z</time>
      </trkpt>
      <trkpt lat="44.93869" lon="4.84048">
        <ele>139.056</ele>
        <time>2014-01-18T07:51:59Z</time>
      </trkpt>
      <trkpt lat="44.93862" lon="4.84042">
        <ele>138.343</ele>
        <time>2014-01-18T07:52:01Z</time>
      </trkpt>
      <trkpt lat="44.93832" lon="4.84015">
        <ele>139.877</ele>
        <time>2014-01-18T07:52:09Z</time>
      </trkpt>
      <trkpt lat="44.93815" lon="4.83998">
        <ele>140.071</ele>
        <time>2014-01-18T07:52:15Z</time>
      </trkpt>
      <trkpt lat="44.93801" lon="4.83982">
        <ele>140.593</ele>
        <time>2014-01-18T07:52:19Z</time>
      </trkpt>
      <trkpt lat="44.93786" lon="4.83961">
        <ele>140.669</ele>
        <time>2014-01-18T07:52:23Z</time>
      </trkpt>
      <trkpt lat="44.93759" lon="4.83934">
        <ele>140.629</ele>
        <time>2014-01-18T07:52:33Z</time>
      </trkpt>
      <trkpt lat="44.93739" lon="4.83913">
        <ele>141.694</ele>
        <time>2014-01-18T07:52:40Z</time>
      </trkpt>
      <trkpt lat="44.93713" lon="4.83894">
        <ele>142.745</ele>
        <time>2014-01-18T07:52:49Z</time>
      </trkpt>
      <trkpt lat="44.93687" lon="4.83893">
        <ele>143.839</ele>
        <time>2014-01-18T07:52:58Z</time>
      </trkpt>
      <trkpt lat="44.93656" lon="4.8386">
        <ele>144.517</ele>
        <time>2014-01-18T07:53:06Z</time>
      </trkpt>
      <trkpt lat="44.93627" lon="4.83846">
        <ele>144.86</ele>
        <time>2014-01-18T07:53:14Z</time>
      </trkpt>
      <trkpt lat="44.93599" lon="4.83831">
        <ele>144.055</ele>
        <time>2014-01-18T07:53:22Z</time>
      </trkpt>
      <trkpt lat="44.93575" lon="4.83828">
        <ele>144.113</ele>
        <time>2014-01-18T07:53:28Z</time>
      </trkpt>
      <trkpt lat="44.9354" lon="4.83823">
        <ele>144.191</ele>
        <time>2014-01-18T07:53:37Z</time>
      </trkpt>
      <trkpt lat="44.93512" lon="4.83825">
        <ele>144.267</ele>
        <time>2014-01-18T07:53:44Z</time>
      </trkpt>
      <trkpt lat="44.93489" lon="4.83836">
        <ele>144.794</ele>
        <time>2014-01-18T07:53:50Z</time>
      </trkpt>
      <trkpt lat="44.93447" lon="4.83819">
        <ele>144.749</ele>
        <time>2014-01-18T07:54:00Z</time>
      </trkpt>
      <trkpt lat="44.93419" lon="4.83782">
        <ele>145.915</ele>
        <time>2014-01-18T07:54:09Z</time>
      </trkpt>
      <trkpt lat="44.93409" lon="4.83761">
        <ele>146.61</ele>
        <time>2014-01-18T07:54:15Z</time>
      </trkpt>
      <trkpt lat="44.934" lon="4.83736">
        <ele>145.777</ele>
        <time>2014-01-18T07:54:20Z</time>
      </trkpt>
      <trkpt lat="44.9339" lon="4.83668">
        <ele>146.471</ele>
        <time>2014-01-18T07:54:28Z</time>
      </trkpt>
      <trkpt lat="44.93386" lon="4.83664">
        <ele>146.051</ele>
        <time>2014-01-18T07:54:29Z</time>
      </trkpt>
      <trkpt lat="44.93374" lon="4.83647">
        <ele>145.804</ele>
        <time>2014-01-18T07:54:34Z</time>
      </trkpt>
      <trkpt lat="44.93368" lon="4.83639">
        <ele>144.22</ele>
        <time>2014-01-18T07:54:37Z</time>
      </trkpt>
      <trkpt lat="44.93348" lon="4.83604">
        <ele>143.252</ele>
        <time>2014-01-18T07:54:42Z</time>
      </trkpt>
      <trkpt lat="44.93304" lon="4.83663">
        <ele>144.031</ele>
        <time>2014-01-18T07:54:45Z</time>
      </trkpt>
      <trkpt lat="44.93301" lon="4.83673">
        <ele>143.495</ele>
        <time>2014-01-18T07:54:47Z</time>
      </trkpt>
      <trkpt lat="44.93295" lon="4.83708">
        <ele>145.044</ele>
        <time>2014-01-18T07:54:54Z</time>
      </trkpt>
      <trkpt lat="44.9328" lon="4.83738">
        <ele>145.35</ele>
        <time>2014-01-18T07:54:58Z</time>
      </trkpt>
      <trkpt lat="44.93267" lon="4.8373">
        <ele>146.508</ele>
        <time>2014-01-18T07:55:04Z</time>
      </trkpt>
      <trkpt lat="44.93249" lon="4.83717">
        <ele>146.477</ele>
        <time>2014-01-18T07:55:10Z</time>
      </trkpt>
      <trkpt lat="44.93248" lon="4.83715">
        <ele>146.488</ele>
        <time>2014-01-18T07:55:11Z</time>
      </trkpt>
      <trkpt lat="44.93249" lon="4.83705">
        <ele>146.745</ele>
        <time>2014-01-18T07:55:16Z</time>
      </trkpt>
      <trkpt lat="44.93245" lon="4.83702">
        <ele>146.931</ele>
        <time>2014-01-18T07:55:18Z</time>
      </trkpt>
      <trkpt lat="44.93226" lon="4.83684">
        <ele>147.32</ele>
        <time>2014-01-18T07:55:24Z</time>
      </trkpt>
      <trkpt lat="44.93215" lon="4.83686">
        <ele>147.096</ele>
        <time>2014-01-18T07:55:27Z</time>
      </trkpt>
      <trkpt lat="44.93187" lon="4.83678">
        <ele>147.134</ele>
        <time>2014-01-18T07:55:35Z</time>
      </trkpt>
      <trkpt lat="44.93161" lon="4.83668">
        <ele>146.786</ele>
        <time>2014-01-18T07:55:42Z</time>
      </trkpt>
      <trkpt lat="44.9313" lon="4.83646">
        <ele>146.798</ele>
        <time>2014-01-18T07:55:50Z</time>
      </trkpt>
      <trkpt lat="44.93097" lon="4.83628">
        <ele>147.311</ele>
        <time>2014-01-18T07:55:59Z</time>
      </trkpt>
      <trkpt lat="44.93069" lon="4.83615">
        <ele>148.229</ele>
        <time>2014-01-18T07:56:07Z</time>
      </trkpt>
      <trkpt lat="44.93038" lon="4.83598">
        <ele>148.967</ele>
        <time>2014-01-18T07:56:16Z</time>
      </trkpt>
      <trkpt lat="44.93019" lon="4.83584">
        <ele>149.675</ele>
        <time>2014-01-18T07:56:23Z</time>
      </trkpt>
      <trkpt lat="44.92994" lon="4.83562">
        <ele>149.935</ele>
        <time>2014-01-18T07:56:32Z</time>
      </trkpt>
      <trkpt lat="44.92973" lon="4.83544">
        <ele>150.669</ele>
        <time>2014-01-18T07:56:40Z</time>
      </trkpt>
      <trkpt lat="44.92948" lon="4.83522">
        <ele>151.501</ele>
        <time>2014-01-18T07:56:49Z</time>
      </trkpt>
      <trkpt lat="44.92912" lon="4.83493">
        <ele>151.905</ele>
        <time>2014-01-18T07:57:00Z</time>
      </trkpt>
      <trkpt lat="44.92885" lon="4.83467">
        <ele>152.839</ele>
        <time>2014-01-18T07:57:08Z</time>
      </trkpt>
      <trkpt lat="44.92858" lon="4.83441">
        <ele>152.609</ele>
        <time>2014-01-18T07:57:17Z</time>
      </trkpt>
      <trkpt lat="44.92834" lon="4.83416">
        <ele>153.27</ele>
        <time>2014-01-18T07:57:25Z</time>
      </trkpt>
      <trkpt lat="44.92814" lon="4.83397">
        <ele>152.999</ele>
        <time>2014-01-18T07:57:32Z</time>
      </trkpt>
      <trkpt lat="44.92786" lon="4.83374">
        <ele>152.598</ele>
        <time>2014-01-18T07:57:41Z</time>
      </trkpt>
      <trkpt lat="44.92754" lon="4.83356">
        <ele>153.737</ele>
        <time>2014-01-18T07:57:50Z</time>
      </trkpt>
      <trkpt lat="44.92713" lon="4.83342">
        <ele>153.156</ele>
        <time>2014-01-18T07:58:00Z</time>
      </trkpt>
      <trkpt lat="44.92709" lon="4.8334">
        <ele>153.081</ele>
        <time>2014-01-18T07:58:01Z</time>
      </trkpt>
      <trkpt lat="44.92676" lon="4.83319">
        <ele>152.854</ele>
        <time>2014-01-18T07:58:09Z</time>
      </trkpt>
      <trkpt lat="44.9265" lon="4.83292">
        <ele>152.027</ele>
        <time>2014-01-18T07:58:16Z</time>
      </trkpt>
      <trkpt lat="44.92628" lon="4.83268">
        <ele>153.011</ele>
        <time>2014-01-18T07:58:22Z</time>
      </trkpt>
      <trkpt lat="44.92599" lon="4.83238">
        <ele>154.116</ele>
        <time>2014-01-18T07:58:31Z</time>
      </trkpt>
      <trkpt lat="44.92596" lon="4.83235">
        <ele>153.564</ele>
        <time>2014-01-18T07:58:32Z</time>
      </trkpt>
      <trkpt lat="44.9259" lon="4.83228">
        <ele>154.725</ele>
        <time>2014-01-18T07:58:34Z</time>
      </trkpt>
      <trkpt lat="44.92584" lon="4.83218">
        <ele>154.871</ele>
        <time>2014-01-18T07:58:38Z</time>
      </trkpt>
      <trkpt lat="44.92548" lon="4.83177">
        <ele>157.139</ele>
        <time>2014-01-18T07:58:47Z</time>
      </trkpt>
      <trkpt lat="44.92524" lon="4.83164">
        <ele>158.239</ele>
        <time>2014-01-18T07:58:55Z</time>
      </trkpt>
      <trkpt lat="44.92501" lon="4.83155">
        <ele>159.742</ele>
        <time>2014-01-18T07:59:02Z</time>
      </trkpt>
      <trkpt lat="44.9247" lon="4.83153">
        <ele>162.037</ele>
        <time>2014-01-18T07:59:11Z</time>
      </trkpt>
      <trkpt lat="44.92444" lon="4.83151">
        <ele>162.987</ele>
        <time>2014-01-18T07:59:19Z</time>
      </trkpt>
      <trkpt lat="44.92415" lon="4.83149">
        <ele>164.164</ele>
        <time>2014-01-18T07:59:28Z</time>
      </trkpt>
      <trkpt lat="44.92381" lon="4.83146">
        <ele>163.636</ele>
        <time>2014-01-18T07:59:36Z</time>
      </trkpt>
      <trkpt lat="44.9234" lon="4.83133">
        <ele>164.343</ele>
        <time>2014-01-18T07:59:45Z</time>
      </trkpt>
      <trkpt lat="44.92313" lon="4.83123">
        <ele>164.745</ele>
        <time>2014-01-18T07:59:52Z</time>
      </trkpt>
      <trkpt lat="44.92273" lon="4.83111">
        <ele>165.506</ele>
        <time>2014-01-18T08:00:02Z</time>
      </trkpt>
      <trkpt lat="44.9224" lon="4.83104">
        <ele>165.922</ele>
        <time>2014-01-18T08:00:10Z</time>
      </trkpt>
      <trkpt lat="44.92201" lon="4.83097">
        <ele>167.389</ele>
        <time>2014-01-18T08:00:19Z</time>
      </trkpt>
      <trkpt lat="44.92174" lon="4.8309">
        <ele>168.226</ele>
        <time>2014-01-18T08:00:26Z</time>
      </trkpt>
      <trkpt lat="44.92141" lon="4.83084">
        <ele>168.485</ele>
        <time>2014-01-18T08:00:35Z</time>
      </trkpt>
      <trkpt lat="44.92102" lon="4.83083">
        <ele>169.022</ele>
        <time>2014-01-18T08:00:45Z</time>
      </trkpt>
      <trkpt lat="44.92071" lon="4.8308">
        <ele>170.12</ele>
        <time>2014-01-18T08:00:53Z</time>
      </trkpt>
      <trkpt lat="44.92041" lon="4.83068">
        <ele>170.642</ele>
        <time>2014-01-18T08:01:01Z</time>
      </trkpt>
      <trkpt lat="44.92018" lon="4.83057">
        <ele>171.602</ele>
        <time>2014-01-18T08:01:08Z</time>
      </trkpt>
      <trkpt lat="44.91983" lon="4.83041">
        <ele>173.82</ele>
        <time>2014-01-18T08:01:18Z</time>
      </trkpt>
      <trkpt lat="44.91958" lon="4.83032">
        <ele>174.561</ele>
        <time>2014-01-18T08:01:25Z</time>
      </trkpt>
      <trkpt lat="44.9193" lon="4.83023">
        <ele>175.363</ele>
        <time>2014-01-18T08:01:33Z</time>
      </trkpt>
      <trkpt lat="44.91901" lon="4.83016">
        <ele>174.582</ele>
        <time>2014-01-18T08:01:41Z</time>
      </trkpt>
      <trkpt lat="44.91871" lon="4.83009">
        <ele>174.915</ele>
        <time>2014-01-18T08:01:49Z</time>
      </trkpt>
      <trkpt lat="44.91832" lon="4.83001">
        <ele>174.138</ele>
        <time>2014-01-18T08:01:59Z</time>
      </trkpt>
      <trkpt lat="44.91816" lon="4.82997">
        <ele>173.183</ele>
        <time>2014-01-18T08:02:03Z</time>
      </trkpt>
      <trkpt lat="44.91808" lon="4.82976">
        <ele>171.98</ele>
        <time>2014-01-18T08:02:08Z</time>
      </trkpt>
      <trkpt lat="44.91813" lon="4.82947">
        <ele>169.264</ele>
        <time>2014-01-18T08:02:12Z</time>
      </trkpt>
      <trkpt lat="44.91824" lon="4.82932">
        <ele>168.715</ele>
        <time>2014-01-18T08:02:15Z</time>
      </trkpt>
      <trkpt lat="44.91843" lon="4.82926">
        <ele>168.073</ele>
        <time>2014-01-18T08:02:19Z</time>
      </trkpt>
      <trkpt lat="44.91864" lon="4.82914">
        <ele>167.1</ele>
        <time>2014-01-18T08:02:24Z</time>
      </trkpt>
      <trkpt lat="44.9187" lon="4.82888">
        <ele>166.636</ele>
        <time>2014-01-18T08:02:28Z</time>
      </trkpt>
      <trkpt lat="44.9187" lon="4.82874">
        <ele>165.811</ele>
        <time>2014-01-18T08:02:30Z</time>
      </trkpt>
      <trkpt lat="44.91855" lon="4.82827">
        <ele>165.438</ele>
        <time>2014-01-18T08:02:37Z</time>
      </trkpt>
      <trkpt lat="44.91849" lon="4.82815">
        <ele>164.954</ele>
        <time>2014-01-18T08:02:39Z</time>
      </trkpt>
      <trkpt lat="44.9182" lon="4.82786">
        <ele>164.56</ele>
        <time>2014-01-18T08:02:46Z</time>
      </trkpt>
      <trkpt lat="44.9179" lon="4.82771">
        <ele>164.202</ele>
        <time>2014-01-18T08:02:53Z</time>
      </trkpt>
      <trkpt lat="44.91772" lon="4.82759">
        <ele>164.262</ele>
        <time>2014-01-18T08:02:58Z</time>
      </trkpt>
      <trkpt lat="44.91754" lon="4.82735">
        <ele>164.045</ele>
        <time>2014-01-18T08:03:04Z</time>
      </trkpt>
      <trkpt lat="44.9174" lon="4.82707">
        <ele>164.169</ele>
        <time>2014-01-18T08:03:10Z</time>
      </trkpt>
      <trkpt lat="44.91723" lon="4.82677">
        <ele>164.74</ele>
        <time>2014-01-18T08:03:17Z</time>
      </trkpt>
      <trkpt lat="44.91697" lon="4.82656">
        <ele>164.483</ele>
        <time>2014-01-18T08:03:25Z</time>
      </trkpt>
      <trkpt lat="44.91667" lon="4.82632">
        <ele>165.181</ele>
        <time>2014-01-18T08:03:34Z</time>
      </trkpt>
      <trkpt lat="44.91648" lon="4.82598">
        <ele>165.027</ele>
        <time>2014-01-18T08:03:42Z</time>
      </trkpt>
      <trkpt lat="44.91626" lon="4.82561">
        <ele>166.374</ele>
        <time>2014-01-18T08:03:51Z</time>
      </trkpt>
      <trkpt lat="44.91608" lon="4.82559">
        <ele>167.373</ele>
        <time>2014-01-18T08:03:56Z</time>
      </trkpt>
      <trkpt lat="44.91581" lon="4.82564">
        <ele>167.353</ele>
        <time>2014-01-18T08:04:03Z</time>
      </trkpt>
      <trkpt lat="44.91561" lon="4.82554">
        <ele>166.758</ele>
        <time>2014-01-18T08:04:09Z</time>
      </trkpt>
      <trkpt lat="44.91533" lon="4.82536">
        <ele>167.368</ele>
        <time>2014-01-18T08:04:17Z</time>
      </trkpt>
      <trkpt lat="44.91503" lon="4.82515">
        <ele>166.861</ele>
        <time>2014-01-18T08:04:26Z</time>
      </trkpt>
      <trkpt lat="44.91482" lon="4.82493">
        <ele>167.426</ele>
        <time>2014-01-18T08:04:33Z</time>
      </trkpt>
      <trkpt lat="44.91458" lon="4.82459">
        <ele>168.432</ele>
        <time>2014-01-18T08:04:42Z</time>
      </trkpt>
      <trkpt lat="44.91436" lon="4.82429">
        <ele>168.81</ele>
        <time>2014-01-18T08:04:50Z</time>
      </trkpt>
      <trkpt lat="44.91412" lon="4.824">
        <ele>168.916</ele>
        <time>2014-01-18T08:04:58Z</time>
      </trkpt>
      <trkpt lat="44.91391" lon="4.82386">
        <ele>167.534</ele>
        <time>2014-01-18T08:05:03Z</time>
      </trkpt>
      <trkpt lat="44.91358" lon="4.82377">
        <ele>168.453</ele>
        <time>2014-01-18T08:05:11Z</time>
      </trkpt>
      <trkpt lat="44.91339" lon="4.82367">
        <ele>169.43</ele>
        <time>2014-01-18T08:05:17Z</time>
      </trkpt>
      <trkpt lat="44.9132" lon="4.82346">
        <ele>170.784</ele>
        <time>2014-01-18T08:05:24Z</time>
      </trkpt>
      <trkpt lat="44.91305" lon="4.82322">
        <ele>172.042</ele>
        <time>2014-01-18T08:05:31Z</time>
      </trkpt>
      <trkpt lat="44.91296" lon="4.82294">
        <ele>172.352</ele>
        <time>2014-01-18T08:05:38Z</time>
      </trkpt>
      <trkpt lat="44.91286" lon="4.82261">
        <ele>171.656</ele>
        <time>2014-01-18T08:05:46Z</time>
      </trkpt>
      <trkpt lat="44.91285" lon="4.82251">
        <ele>171.803</ele>
        <time>2014-01-18T08:05:49Z</time>
      </trkpt>
      <trkpt lat="44.91283" lon="4.82248">
        <ele>171.01</ele>
        <time>2014-01-18T08:05:55Z</time>
      </trkpt>
      <trkpt lat="44.91276" lon="4.82239">
        <ele>170.728</ele>
        <time>2014-01-18T08:09:17Z</time>
      </trkpt>
      <trkpt lat="44.91246" lon="4.8223">
        <ele>170.064</ele>
        <time>2014-01-18T08:09:26Z</time>
      </trkpt>
      <trkpt lat="44.91216" lon="4.82223">
        <ele>169.493</ele>
        <time>2014-01-18T08:09:34Z</time>
      </trkpt>
      <trkpt lat="44.91198" lon="4.82223">
        <ele>169.954</ele>
        <time>2014-01-18T08:09:39Z</time>
      </trkpt>
      <trkpt lat="44.91192" lon="4.82199">
        <ele>170.278</ele>
        <time>2014-01-18T08:09:43Z</time>
      </trkpt>
      <trkpt lat="44.91192" lon="4.82158">
        <ele>171.097</ele>
        <time>2014-01-18T08:09:51Z</time>
      </trkpt>
      <trkpt lat="44.91201" lon="4.82134">
        <ele>170.689</ele>
        <time>2014-01-18T08:09:56Z</time>
      </trkpt>
      <trkpt lat="44.91216" lon="4.82113">
        <ele>171.802</ele>
        <time>2014-01-18T08:10:02Z</time>
      </trkpt>
      <trkpt lat="44.91221" lon="4.82075">
        <ele>172.018</ele>
        <time>2014-01-18T08:10:09Z</time>
      </trkpt>
      <trkpt lat="44.9123" lon="4.82046">
        <ele>172.903</ele>
        <time>2014-01-18T08:10:15Z</time>
      </trkpt>
      <trkpt lat="44.91225" lon="4.82023">
        <ele>173.694</ele>
        <time>2014-01-18T08:10:20Z</time>
      </trkpt>
      <trkpt lat="44.91207" lon="4.81989">
        <ele>172.444</ele>
        <time>2014-01-18T08:10:27Z</time>
      </trkpt>
      <trkpt lat="44.91191" lon="4.8196">
        <ele>172.888</ele>
        <time>2014-01-18T08:10:33Z</time>
      </trkpt>
      <trkpt lat="44.91187" lon="4.81947">
        <ele>173.233</ele>
        <time>2014-01-18T08:10:36Z</time>
      </trkpt>
      <trkpt lat="44.91195" lon="4.8192">
        <ele>175.546</ele>
        <time>2014-01-18T08:10:43Z</time>
      </trkpt>
      <trkpt lat="44.91196" lon="4.81917">
        <ele>175.81</ele>
        <time>2014-01-18T08:10:44Z</time>
      </trkpt>
      <trkpt lat="44.91202" lon="4.81892">
        <ele>177.221</ele>
        <time>2014-01-18T08:10:50Z</time>
      </trkpt>
      <trkpt lat="44.91207" lon="4.81847">
        <ele>178.178</ele>
        <time>2014-01-18T08:11:01Z</time>
      </trkpt>
      <trkpt lat="44.91211" lon="4.818">
        <ele>177.993</ele>
        <time>2014-01-18T08:11:10Z</time>
      </trkpt>
      <trkpt lat="44.91214" lon="4.81759">
        <ele>179.083</ele>
        <time>2014-01-18T08:11:19Z</time>
      </trkpt>
      <trkpt lat="44.91215" lon="4.81728">
        <ele>179.738</ele>
        <time>2014-01-18T08:11:26Z</time>
      </trkpt>
      <trkpt lat="44.91221" lon="4.81696">
        <ele>179.571</ele>
        <time>2014-01-18T08:11:32Z</time>
      </trkpt>
      <trkpt lat="44.91231" lon="4.81674">
        <ele>180.301</ele>
        <time>2014-01-18T08:11:37Z</time>
      </trkpt>
      <trkpt lat="44.91253" lon="4.81671">
        <ele>181.247</ele>
        <time>2014-01-18T08:11:43Z</time>
      </trkpt>
      <trkpt lat="44.9127" lon="4.81666">
        <ele>183.233</ele>
        <time>2014-01-18T08:11:49Z</time>
      </trkpt>
      <trkpt lat="44.91284" lon="4.81647">
        <ele>183.432</ele>
        <time>2014-01-18T08:11:55Z</time>
      </trkpt>
      <trkpt lat="44.91307" lon="4.81621">
        <ele>185.512</ele>
        <time>2014-01-18T08:12:04Z</time>
      </trkpt>
      <trkpt lat="44.91318" lon="4.81606">
        <ele>186.476</ele>
        <time>2014-01-18T08:12:09Z</time>
      </trkpt>
      <trkpt lat="44.91323" lon="4.8159">
        <ele>186.911</ele>
        <time>2014-01-18T08:12:14Z</time>
      </trkpt>
      <trkpt lat="44.91317" lon="4.81562">
        <ele>187.962</ele>
        <time>2014-01-18T08:12:20Z</time>
      </trkpt>
      <trkpt lat="44.91322" lon="4.81534">
        <ele>189.87</ele>
        <time>2014-01-18T08:12:27Z</time>
      </trkpt>
      <trkpt lat="44.91325" lon="4.81504">
        <ele>191.311</ele>
        <time>2014-01-18T08:12:35Z</time>
      </trkpt>
      <trkpt lat="44.91316" lon="4.81476">
        <ele>193.191</ele>
        <time>2014-01-18T08:12:42Z</time>
      </trkpt>
      <trkpt lat="44.913" lon="4.8144">
        <ele>193.612</ele>
        <time>2014-01-18T08:12:52Z</time>
      </trkpt>
      <trkpt lat="44.91287" lon="4.81414">
        <ele>194.032</ele>
        <time>2014-01-18T08:13:00Z</time>
      </trkpt>
      <trkpt lat="44.91275" lon="4.81387">
        <ele>194.887</ele>
        <time>2014-01-18T08:13:09Z</time>
      </trkpt>
      <trkpt lat="44.91267" lon="4.81365">
        <ele>197.703</ele>
        <time>2014-01-18T08:13:16Z</time>
      </trkpt>
      <trkpt lat="44.91259" lon="4.8134">
        <ele>199.105</ele>
        <time>2014-01-18T08:13:24Z</time>
      </trkpt>
      <trkpt lat="44.91255" lon="4.81317">
        <ele>200.518</ele>
        <time>2014-01-18T08:13:32Z</time>
      </trkpt>
      <trkpt lat="44.91248" lon="4.81308">
        <ele>200.281</ele>
        <time>2014-01-18T08:13:37Z</time>
      </trkpt>
      <trkpt lat="44.91233" lon="4.81312">
        <ele>201.591</ele>
        <time>2014-01-18T08:13:44Z</time>
      </trkpt>
      <trkpt lat="44.91218" lon="4.81311">
        <ele>202.644</ele>
        <time>2014-01-18T08:13:50Z</time>
      </trkpt>
      <trkpt lat="44.91205" lon="4.81306">
        <ele>204.196</ele>
        <time>2014-01-18T08:13:57Z</time>
      </trkpt>
      <trkpt lat="44.91198" lon="4.81305">
        <ele>204.016</ele>
        <time>2014-01-18T08:14:02Z</time>
      </trkpt>
      <trkpt lat="44.91192" lon="4.81303">
        <ele>202.878</ele>
        <time>2014-01-18T08:14:04Z</time>
      </trkpt>
      <trkpt lat="44.91167" lon="4.81303">
        <ele>199.056</ele>
        <time>2014-01-18T08:14:08Z</time>
      </trkpt>
      <trkpt lat="44.91147" lon="4.81315">
        <ele>196.536</ele>
        <time>2014-01-18T08:14:11Z</time>
      </trkpt>
      <trkpt lat="44.91132" lon="4.81313">
        <ele>194.212</ele>
        <time>2014-01-18T08:14:13Z</time>
      </trkpt>
      <trkpt lat="44.91098" lon="4.813">
        <ele>191.107</ele>
        <time>2014-01-18T08:14:17Z</time>
      </trkpt>
      <trkpt lat="44.91062" lon="4.813">
        <ele>188.562</ele>
        <time>2014-01-18T08:14:21Z</time>
      </trkpt>
      <trkpt lat="44.91057" lon="4.81308">
        <ele>188.859</ele>
        <time>2014-01-18T08:14:22Z</time>
      </trkpt>
      <trkpt lat="44.91041" lon="4.81331">
        <ele>187.956</ele>
        <time>2014-01-18T08:14:25Z</time>
      </trkpt>
      <trkpt lat="44.91024" lon="4.81352">
        <ele>188.267</ele>
        <time>2014-01-18T08:14:29Z</time>
      </trkpt>
      <trkpt lat="44.91007" lon="4.81362">
        <ele>189.306</ele>
        <time>2014-01-18T08:14:36Z</time>
      </trkpt>
      <trkpt lat="44.9099" lon="4.81371">
        <ele>190.595</ele>
        <time>2014-01-18T08:14:43Z</time>
      </trkpt>
      <trkpt lat="44.90975" lon="4.81373">
        <ele>191.611</ele>
        <time>2014-01-18T08:14:49Z</time>
      </trkpt>
      <trkpt lat="44.90961" lon="4.81367">
        <ele>192.694</ele>
        <time>2014-01-18T08:14:56Z</time>
      </trkpt>
      <trkpt lat="44.90956" lon="4.8136">
        <ele>192.911</ele>
        <time>2014-01-18T08:15:02Z</time>
      </trkpt>
      <trkpt lat="44.90952" lon="4.81337">
        <ele>193.241</ele>
        <time>2014-01-18T08:15:08Z</time>
      </trkpt>
      <trkpt lat="44.90948" lon="4.81323">
        <ele>193.402</ele>
        <time>2014-01-18T08:15:15Z</time>
      </trkpt>
      <trkpt lat="44.90941" lon="4.81302">
        <ele>193.564</ele>
        <time>2014-01-18T08:15:23Z</time>
      </trkpt>
      <trkpt lat="44.90931" lon="4.81281">
        <ele>193.804</ele>
        <time>2014-01-18T08:15:29Z</time>
      </trkpt>
      <trkpt lat="44.90925" lon="4.81258">
        <ele>195.579</ele>
        <time>2014-01-18T08:15:36Z</time>
      </trkpt>
      <trkpt lat="44.90926" lon="4.81238">
        <ele>195.98</ele>
        <time>2014-01-18T08:15:43Z</time>
      </trkpt>
      <trkpt lat="44.90926" lon="4.81233">
        <ele>196.194</ele>
        <time>2014-01-18T08:15:46Z</time>
      </trkpt>
      <trkpt lat="44.90925" lon="4.81231">
        <ele>196.639</ele>
        <time>2014-01-18T08:15:53Z</time>
      </trkpt>
      <trkpt lat="44.90922" lon="4.81219">
        <ele>196.433</ele>
        <time>2014-01-18T08:15:58Z</time>
      </trkpt>
      <trkpt lat="44.90908" lon="4.81207">
        <ele>193.908</ele>
        <time>2014-01-18T08:16:02Z</time>
      </trkpt>
      <trkpt lat="44.90896" lon="4.81201">
        <ele>191.671</ele>
        <time>2014-01-18T08:16:04Z</time>
      </trkpt>
      <trkpt lat="44.9087" lon="4.81201">
        <ele>188.733</ele>
        <time>2014-01-18T08:16:08Z</time>
      </trkpt>
      <trkpt lat="44.90863" lon="4.81207">
        <ele>188.054</ele>
        <time>2014-01-18T08:16:09Z</time>
      </trkpt>
      <trkpt lat="44.90836" lon="4.81231">
        <ele>183.578</ele>
        <time>2014-01-18T08:16:13Z</time>
      </trkpt>
      <trkpt lat="44.90814" lon="4.8127">
        <ele>179.843</ele>
        <time>2014-01-18T08:16:17Z</time>
      </trkpt>
      <trkpt lat="44.90802" lon="4.81309">
        <ele>178.393</ele>
        <time>2014-01-18T08:16:21Z</time>
      </trkpt>
      <trkpt lat="44.908" lon="4.81316">
        <ele>178.733</ele>
        <time>2014-01-18T08:16:22Z</time>
      </trkpt>
      <trkpt lat="44.90794" lon="4.8132">
        <ele>178.122</ele>
        <time>2014-01-18T08:16:26Z</time>
      </trkpt>
      <trkpt lat="44.90785" lon="4.81302">
        <ele>178.007</ele>
        <time>2014-01-18T08:16:32Z</time>
      </trkpt>
      <trkpt lat="44.90777" lon="4.81285">
        <ele>178.312</ele>
        <time>2014-01-18T08:16:37Z</time>
      </trkpt>
      <trkpt lat="44.90746" lon="4.81276">
        <ele>177.93</ele>
        <time>2014-01-18T08:16:44Z</time>
      </trkpt>
      <trkpt lat="44.90731" lon="4.81275">
        <ele>177.836</ele>
        <time>2014-01-18T08:16:49Z</time>
      </trkpt>
      <trkpt lat="44.90711" lon="4.81266">
        <ele>177.962</ele>
        <time>2014-01-18T08:16:55Z</time>
      </trkpt>
      <trkpt lat="44.90688" lon="4.8126">
        <ele>178.4</ele>
        <time>2014-01-18T08:17:02Z</time>
      </trkpt>
      <trkpt lat="44.9066" lon="4.81253">
        <ele>178.916</ele>
        <time>2014-01-18T08:17:11Z</time>
      </trkpt>
      <trkpt lat="44.90637" lon="4.81255">
        <ele>179.325</ele>
        <time>2014-01-18T08:17:18Z</time>
      </trkpt>
      <trkpt lat="44.90618" lon="4.81257">
        <ele>179.741</ele>
        <time>2014-01-18T08:17:24Z</time>
      </trkpt>
      <trkpt lat="44.90598" lon="4.81255">
        <ele>180.054</ele>
        <time>2014-01-18T08:17:31Z</time>
      </trkpt>
      <trkpt lat="44.90572" lon="4.81261">
        <ele>180.188</ele>
        <time>2014-01-18T08:17:39Z</time>
      </trkpt>
      <trkpt lat="44.90545" lon="4.8127">
        <ele>180.826</ele>
        <time>2014-01-18T08:17:48Z</time>
      </trkpt>
      <trkpt lat="44.90524" lon="4.81278">
        <ele>180.859</ele>
        <time>2014-01-18T08:17:55Z</time>
      </trkpt>
      <trkpt lat="44.90502" lon="4.81286">
        <ele>181.646</ele>
        <time>2014-01-18T08:18:02Z</time>
      </trkpt>
      <trkpt lat="44.9048" lon="4.81287">
        <ele>181.836</ele>
        <time>2014-01-18T08:18:09Z</time>
      </trkpt>
      <trkpt lat="44.90464" lon="4.81282">
        <ele>181.481</ele>
        <time>2014-01-18T08:18:15Z</time>
      </trkpt>
      <trkpt lat="44.90447" lon="4.8127">
        <ele>181.758</ele>
        <time>2014-01-18T08:18:21Z</time>
      </trkpt>
      <trkpt lat="44.90425" lon="4.81247">
        <ele>183.001</ele>
        <time>2014-01-18T08:18:30Z</time>
      </trkpt>
      <trkpt lat="44.90419" lon="4.81242">
        <ele>182.315</ele>
        <time>2014-01-18T08:18:34Z</time>
      </trkpt>
      <trkpt lat="44.90413" lon="4.81235">
        <ele>182.593</ele>
        <time>2014-01-18T08:18:41Z</time>
      </trkpt>
      <trkpt lat="44.90407" lon="4.81229">
        <ele>182.662</ele>
        <time>2014-01-18T08:18:47Z</time>
      </trkpt>
      <trkpt lat="44.90402" lon="4.81225">
        <ele>182.784</ele>
        <time>2014-01-18T08:18:54Z</time>
      </trkpt>
      <trkpt lat="44.90401" lon="4.81223">
        <ele>181.621</ele>
        <time>2014-01-18T08:19:14Z</time>
      </trkpt>
      <trkpt lat="44.90408" lon="4.81231">
        <ele>182.721</ele>
        <time>2014-01-18T08:19:19Z</time>
      </trkpt>
      <trkpt lat="44.9041" lon="4.81233">
        <ele>182.674</ele>
        <time>2014-01-18T08:19:20Z</time>
      </trkpt>
      <trkpt lat="44.90389" lon="4.81184">
        <ele>182.161</ele>
        <time>2014-01-18T08:19:24Z</time>
      </trkpt>
      <trkpt lat="44.90409" lon="4.81241">
        <ele>182.904</ele>
        <time>2014-01-18T08:19:43Z</time>
      </trkpt>
      <trkpt lat="44.90411" lon="4.81242">
        <ele>182.253</ele>
        <time>2014-01-18T08:19:58Z</time>
      </trkpt>
      <trkpt lat="44.90421" lon="4.81244">
        <ele>182.222</ele>
        <time>2014-01-18T08:20:05Z</time>
      </trkpt>
      <trkpt lat="44.90435" lon="4.81258">
        <ele>182.239</ele>
        <time>2014-01-18T08:20:11Z</time>
      </trkpt>
      <trkpt lat="44.90451" lon="4.81273">
        <ele>181.936</ele>
        <time>2014-01-18T08:20:17Z</time>
      </trkpt>
      <trkpt lat="44.90465" lon="4.81283">
        <ele>181.791</ele>
        <time>2014-01-18T08:20:22Z</time>
      </trkpt>
      <trkpt lat="44.90477" lon="4.81286">
        <ele>181.434</ele>
        <time>2014-01-18T08:20:26Z</time>
      </trkpt>
      <trkpt lat="44.90495" lon="4.81287">
        <ele>181.024</ele>
        <time>2014-01-18T08:20:32Z</time>
      </trkpt>
      <trkpt lat="44.90515" lon="4.81282">
        <ele>180.738</ele>
        <time>2014-01-18T08:20:38Z</time>
      </trkpt>
      <trkpt lat="44.90541" lon="4.81272">
        <ele>180.192</ele>
        <time>2014-01-18T08:20:45Z</time>
      </trkpt>
      <trkpt lat="44.90572" lon="4.81261">
        <ele>179.982</ele>
        <time>2014-01-18T08:20:53Z</time>
      </trkpt>
      <trkpt lat="44.90589" lon="4.81255">
        <ele>179.987</ele>
        <time>2014-01-18T08:20:57Z</time>
      </trkpt>
      <trkpt lat="44.90614" lon="4.81257">
        <ele>179.801</ele>
        <time>2014-01-18T08:21:03Z</time>
      </trkpt>
      <trkpt lat="44.90619" lon="4.81257">
        <ele>179.465</ele>
        <time>2014-01-18T08:21:04Z</time>
      </trkpt>
      <trkpt lat="44.90646" lon="4.81253">
        <ele>179.894</ele>
        <time>2014-01-18T08:21:10Z</time>
      </trkpt>
      <trkpt lat="44.90678" lon="4.81257">
        <ele>179.359</ele>
        <time>2014-01-18T08:21:18Z</time>
      </trkpt>
      <trkpt lat="44.90703" lon="4.81263">
        <ele>178.787</ele>
        <time>2014-01-18T08:21:24Z</time>
      </trkpt>
      <trkpt lat="44.90711" lon="4.81266">
        <ele>178.238</ele>
        <time>2014-01-18T08:21:26Z</time>
      </trkpt>
      <trkpt lat="44.90735" lon="4.81276">
        <ele>178.257</ele>
        <time>2014-01-18T08:21:32Z</time>
      </trkpt>
      <trkpt lat="44.90754" lon="4.81278">
        <ele>178.408</ele>
        <time>2014-01-18T08:21:37Z</time>
      </trkpt>
      <trkpt lat="44.90767" lon="4.81289">
        <ele>178.412</ele>
        <time>2014-01-18T08:21:42Z</time>
      </trkpt>
      <trkpt lat="44.90779" lon="4.81302">
        <ele>178.641</ele>
        <time>2014-01-18T08:21:47Z</time>
      </trkpt>
      <trkpt lat="44.90788" lon="4.81311">
        <ele>178.38</ele>
        <time>2014-01-18T08:21:53Z</time>
      </trkpt>
      <trkpt lat="44.90807" lon="4.81345">
        <ele>177.816</ele>
        <time>2014-01-18T08:22:00Z</time>
      </trkpt>
      <trkpt lat="44.90811" lon="4.81363">
        <ele>179.253</ele>
        <time>2014-01-18T08:22:04Z</time>
      </trkpt>
      <trkpt lat="44.90806" lon="4.81383">
        <ele>178.602</ele>
        <time>2014-01-18T08:22:10Z</time>
      </trkpt>
      <trkpt lat="44.90787" lon="4.81421">
        <ele>177.705</ele>
        <time>2014-01-18T08:22:17Z</time>
      </trkpt>
      <trkpt lat="44.90762" lon="4.8146">
        <ele>178.586</ele>
        <time>2014-01-18T08:22:25Z</time>
      </trkpt>
      <trkpt lat="44.90735" lon="4.81501">
        <ele>179.697</ele>
        <time>2014-01-18T08:22:35Z</time>
      </trkpt>
      <trkpt lat="44.90728" lon="4.81511">
        <ele>180.795</ele>
        <time>2014-01-18T08:22:38Z</time>
      </trkpt>
      <trkpt lat="44.90726" lon="4.81539">
        <ele>180.506</ele>
        <time>2014-01-18T08:22:40Z</time>
      </trkpt>
      <trkpt lat="44.90742" lon="4.81571">
        <ele>180.356</ele>
        <time>2014-01-18T08:22:47Z</time>
      </trkpt>
      <trkpt lat="44.90743" lon="4.81589">
        <ele>180.621</ele>
        <time>2014-01-18T08:22:52Z</time>
      </trkpt>
      <trkpt lat="44.90743" lon="4.81609">
        <ele>182.529</ele>
        <time>2014-01-18T08:22:57Z</time>
      </trkpt>
      <trkpt lat="44.90738" lon="4.81623">
        <ele>184.034</ele>
        <time>2014-01-18T08:23:01Z</time>
      </trkpt>
      <trkpt lat="44.90722" lon="4.81627">
        <ele>185.585</ele>
        <time>2014-01-18T08:23:08Z</time>
      </trkpt>
      <trkpt lat="44.907" lon="4.81633">
        <ele>186.108</ele>
        <time>2014-01-18T08:23:17Z</time>
      </trkpt>
      <trkpt lat="44.90676" lon="4.81639">
        <ele>187.718</ele>
        <time>2014-01-18T08:23:27Z</time>
      </trkpt>
      <trkpt lat="44.90654" lon="4.81645">
        <ele>189.369</ele>
        <time>2014-01-18T08:23:36Z</time>
      </trkpt>
      <trkpt lat="44.90633" lon="4.8165">
        <ele>189.82</ele>
        <time>2014-01-18T08:23:45Z</time>
      </trkpt>
      <trkpt lat="44.9062" lon="4.8167">
        <ele>190.669</ele>
        <time>2014-01-18T08:23:53Z</time>
      </trkpt>
      <trkpt lat="44.90608" lon="4.81697">
        <ele>191.773</ele>
        <time>2014-01-18T08:24:01Z</time>
      </trkpt>
      <trkpt lat="44.90598" lon="4.81721">
        <ele>193.829</ele>
        <time>2014-01-18T08:24:09Z</time>
      </trkpt>
      <trkpt lat="44.90576" lon="4.81746">
        <ele>194.92</ele>
        <time>2014-01-18T08:24:20Z</time>
      </trkpt>
      <trkpt lat="44.90566" lon="4.81757">
        <ele>196.84</ele>
        <time>2014-01-18T08:24:26Z</time>
      </trkpt>
      <trkpt lat="44.90565" lon="4.81756">
        <ele>197.089</ele>
        <time>2014-01-18T08:24:27Z</time>
      </trkpt>
      <trkpt lat="44.90552" lon="4.81749">
        <ele>198.401</ele>
        <time>2014-01-18T08:24:33Z</time>
      </trkpt>
      <trkpt lat="44.9055" lon="4.81748">
        <ele>198.612</ele>
        <time>2014-01-18T08:24:34Z</time>
      </trkpt>
      <trkpt lat="44.90534" lon="4.81743">
        <ele>198.446</ele>
        <time>2014-01-18T08:24:41Z</time>
      </trkpt>
      <trkpt lat="44.90516" lon="4.81737">
        <ele>199.899</ele>
        <time>2014-01-18T08:24:49Z</time>
      </trkpt>
      <trkpt lat="44.90493" lon="4.81729">
        <ele>202.41</ele>
        <time>2014-01-18T08:24:59Z</time>
      </trkpt>
      <trkpt lat="44.90472" lon="4.81722">
        <ele>203.353</ele>
        <time>2014-01-18T08:25:08Z</time>
      </trkpt>
      <trkpt lat="44.90455" lon="4.81717">
        <ele>205.331</ele>
        <time>2014-01-18T08:25:15Z</time>
      </trkpt>
      <trkpt lat="44.90439" lon="4.81714">
        <ele>206.841</ele>
        <time>2014-01-18T08:25:22Z</time>
      </trkpt>
      <trkpt lat="44.90423" lon="4.81712">
        <ele>207.632</ele>
        <time>2014-01-18T08:25:29Z</time>
      </trkpt>
      <trkpt lat="44.90401" lon="4.81708">
        <ele>208.635</ele>
        <time>2014-01-18T08:25:39Z</time>
      </trkpt>
      <trkpt lat="44.90383" lon="4.81708">
        <ele>210.149</ele>
        <time>2014-01-18T08:25:47Z</time>
      </trkpt>
      <trkpt lat="44.90363" lon="4.81721">
        <ele>208.889</ele>
        <time>2014-01-18T08:25:55Z</time>
      </trkpt>
      <trkpt lat="44.90339" lon="4.81732">
        <ele>208.222</ele>
        <time>2014-01-18T08:26:03Z</time>
      </trkpt>
      <trkpt lat="44.90307" lon="4.81749">
        <ele>208.073</ele>
        <time>2014-01-18T08:26:13Z</time>
      </trkpt>
      <trkpt lat="44.90271" lon="4.81759">
        <ele>208.298</ele>
        <time>2014-01-18T08:26:24Z</time>
      </trkpt>
      <trkpt lat="44.90251" lon="4.81755">
        <ele>208.597</ele>
        <time>2014-01-18T08:26:31Z</time>
      </trkpt>
      <trkpt lat="44.90224" lon="4.81735">
        <ele>210.293</ele>
        <time>2014-01-18T08:26:41Z</time>
      </trkpt>
      <trkpt lat="44.90216" lon="4.81732">
        <ele>211.465</ele>
        <time>2014-01-18T08:26:45Z</time>
      </trkpt>
      <trkpt lat="44.9021" lon="4.81727">
        <ele>211.956</ele>
        <time>2014-01-18T08:26:50Z</time>
      </trkpt>
      <trkpt lat="44.90194" lon="4.81703">
        <ele>212.601</ele>
        <time>2014-01-18T08:27:01Z</time>
      </trkpt>
      <trkpt lat="44.90181" lon="4.81684">
        <ele>213.795</ele>
        <time>2014-01-18T08:27:09Z</time>
      </trkpt>
      <trkpt lat="44.90174" lon="4.81677">
        <ele>215.492</ele>
        <time>2014-01-18T08:27:12Z</time>
      </trkpt>
      <trkpt lat="44.90154" lon="4.81673">
        <ele>217.178</ele>
        <time>2014-01-18T08:27:21Z</time>
      </trkpt>
      <trkpt lat="44.90136" lon="4.81669">
        <ele>218.465</ele>
        <time>2014-01-18T08:27:29Z</time>
      </trkpt>
      <trkpt lat="44.90114" lon="4.81662">
        <ele>220.122</ele>
        <time>2014-01-18T08:27:39Z</time>
      </trkpt>
      <trkpt lat="44.90099" lon="4.81654">
        <ele>221.801</ele>
        <time>2014-01-18T08:27:47Z</time>
      </trkpt>
      <trkpt lat="44.90095" lon="4.81652">
        <ele>222.85</ele>
        <time>2014-01-18T08:27:49Z</time>
      </trkpt>
      <trkpt lat="44.9008" lon="4.81643">
        <ele>223.822</ele>
        <time>2014-01-18T08:27:57Z</time>
      </trkpt>
      <trkpt lat="44.90069" lon="4.81625">
        <ele>225.021</ele>
        <time>2014-01-18T08:28:05Z</time>
      </trkpt>
      <trkpt lat="44.9006" lon="4.81607">
        <ele>225.69</ele>
        <time>2014-01-18T08:28:12Z</time>
      </trkpt>
      <trkpt lat="44.90045" lon="4.81596">
        <ele>226.337</ele>
        <time>2014-01-18T08:28:19Z</time>
      </trkpt>
      <trkpt lat="44.90036" lon="4.81598">
        <ele>227.075</ele>
        <time>2014-01-18T08:28:23Z</time>
      </trkpt>
      <trkpt lat="44.9002" lon="4.816">
        <ele>227.577</ele>
        <time>2014-01-18T08:28:31Z</time>
      </trkpt>
      <trkpt lat="44.90001" lon="4.81601">
        <ele>229.412</ele>
        <time>2014-01-18T08:28:40Z</time>
      </trkpt>
      <trkpt lat="44.89986" lon="4.81602">
        <ele>230.4</ele>
        <time>2014-01-18T08:28:48Z</time>
      </trkpt>
      <trkpt lat="44.89971" lon="4.81603">
        <ele>231.238</ele>
        <time>2014-01-18T08:28:55Z</time>
      </trkpt>
      <trkpt lat="44.89952" lon="4.81611">
        <ele>232.387</ele>
        <time>2014-01-18T08:29:05Z</time>
      </trkpt>
      <trkpt lat="44.8994" lon="4.81618">
        <ele>234.218</ele>
        <time>2014-01-18T08:29:12Z</time>
      </trkpt>
      <trkpt lat="44.89934" lon="4.81622">
        <ele>235.196</ele>
        <time>2014-01-18T08:29:19Z</time>
      </trkpt>
      <trkpt lat="44.89921" lon="4.81618">
        <ele>235.861</ele>
        <time>2014-01-18T08:29:25Z</time>
      </trkpt>
      <trkpt lat="44.89912" lon="4.81614">
        <ele>237.247</ele>
        <time>2014-01-18T08:29:32Z</time>
      </trkpt>
      <trkpt lat="44.89899" lon="4.81607">
        <ele>238.722</ele>
        <time>2014-01-18T08:29:40Z</time>
      </trkpt>
      <trkpt lat="44.89883" lon="4.81598">
        <ele>240.372</ele>
        <time>2014-01-18T08:29:49Z</time>
      </trkpt>
      <trkpt lat="44.8987" lon="4.81592">
        <ele>241.721</ele>
        <time>2014-01-18T08:29:57Z</time>
      </trkpt>
      <trkpt lat="44.89854" lon="4.81584">
        <ele>244.447</ele>
        <time>2014-01-18T08:30:08Z</time>
      </trkpt>
      <trkpt lat="44.89843" lon="4.81578">
        <ele>246.331</ele>
        <time>2014-01-18T08:30:16Z</time>
      </trkpt>
      <trkpt lat="44.89832" lon="4.81572">
        <ele>248.603</ele>
        <time>2014-01-18T08:30:24Z</time>
      </trkpt>
      <trkpt lat="44.89824" lon="4.81568">
        <ele>250.198</ele>
        <time>2014-01-18T08:30:32Z</time>
      </trkpt>
      <trkpt lat="44.89817" lon="4.81585">
        <ele>251.433</ele>
        <time>2014-01-18T08:30:38Z</time>
      </trkpt>
      <trkpt lat="44.89816" lon="4.81601">
        <ele>253.617</ele>
        <time>2014-01-18T08:30:47Z</time>
      </trkpt>
      <trkpt lat="44.89816" lon="4.81613">
        <ele>255.463</ele>
        <time>2014-01-18T08:30:55Z</time>
      </trkpt>
      <trkpt lat="44.89815" lon="4.8163">
        <ele>257.645</ele>
        <time>2014-01-18T08:31:05Z</time>
      </trkpt>
      <trkpt lat="44.89814" lon="4.81642">
        <ele>259.597</ele>
        <time>2014-01-18T08:31:12Z</time>
      </trkpt>
      <trkpt lat="44.89813" lon="4.81651">
        <ele>260.228</ele>
        <time>2014-01-18T08:31:17Z</time>
      </trkpt>
      <trkpt lat="44.8981" lon="4.81664">
        <ele>260.343</ele>
        <time>2014-01-18T08:31:24Z</time>
      </trkpt>
      <trkpt lat="44.89801" lon="4.8168">
        <ele>263.28</ele>
        <time>2014-01-18T08:31:34Z</time>
      </trkpt>
      <trkpt lat="44.89792" lon="4.81694">
        <ele>263.403</ele>
        <time>2014-01-18T08:31:43Z</time>
      </trkpt>
      <trkpt lat="44.89785" lon="4.81707">
        <ele>263.383</ele>
        <time>2014-01-18T08:31:50Z</time>
      </trkpt>
      <trkpt lat="44.89777" lon="4.81726">
        <ele>263.685</ele>
        <time>2014-01-18T08:31:59Z</time>
      </trkpt>
      <trkpt lat="44.89769" lon="4.81741">
        <ele>263.505</ele>
        <time>2014-01-18T08:32:06Z</time>
      </trkpt>
      <trkpt lat="44.8976" lon="4.81761">
        <ele>264.166</ele>
        <time>2014-01-18T08:32:14Z</time>
      </trkpt>
      <trkpt lat="44.89751" lon="4.81785">
        <ele>264.883</ele>
        <time>2014-01-18T08:32:23Z</time>
      </trkpt>
      <trkpt lat="44.8974" lon="4.81793">
        <ele>264.603</ele>
        <time>2014-01-18T08:32:29Z</time>
      </trkpt>
      <trkpt lat="44.89729" lon="4.81798">
        <ele>266.515</ele>
        <time>2014-01-18T08:32:36Z</time>
      </trkpt>
      <trkpt lat="44.89723" lon="4.818">
        <ele>265.845</ele>
        <time>2014-01-18T08:32:43Z</time>
      </trkpt>
      <trkpt lat="44.89722" lon="4.818">
        <ele>267.186</ele>
        <time>2014-01-18T08:32:47Z</time>
      </trkpt>
      <trkpt lat="44.89698" lon="4.81806">
        <ele>268.319</ele>
        <time>2014-01-18T08:32:57Z</time>
      </trkpt>
      <trkpt lat="44.89681" lon="4.81814">
        <ele>269.696</ele>
        <time>2014-01-18T08:33:06Z</time>
      </trkpt>
      <trkpt lat="44.89667" lon="4.81822">
        <ele>269.161</ele>
        <time>2014-01-18T08:33:12Z</time>
      </trkpt>
      <trkpt lat="44.89655" lon="4.81824">
        <ele>270.506</ele>
        <time>2014-01-18T08:33:17Z</time>
      </trkpt>
      <trkpt lat="44.89643" lon="4.81825">
        <ele>270.239</ele>
        <time>2014-01-18T08:33:24Z</time>
      </trkpt>
      <trkpt lat="44.8963" lon="4.81819">
        <ele>270.759</ele>
        <time>2014-01-18T08:33:30Z</time>
      </trkpt>
      <trkpt lat="44.89618" lon="4.81808">
        <ele>272.002</ele>
        <time>2014-01-18T08:33:37Z</time>
      </trkpt>
      <trkpt lat="44.8961" lon="4.81801">
        <ele>273.458</ele>
        <time>2014-01-18T08:33:44Z</time>
      </trkpt>
      <trkpt lat="44.89602" lon="4.81785">
        <ele>274.613</ele>
        <time>2014-01-18T08:33:50Z</time>
      </trkpt>
      <trkpt lat="44.89603" lon="4.81778">
        <ele>277.283</ele>
        <time>2014-01-18T08:33:57Z</time>
      </trkpt>
      <trkpt lat="44.89597" lon="4.81761">
        <ele>280.142</ele>
        <time>2014-01-18T08:34:04Z</time>
      </trkpt>
      <trkpt lat="44.89595" lon="4.81746">
        <ele>280.145</ele>
        <time>2014-01-18T08:34:11Z</time>
      </trkpt>
      <trkpt lat="44.89591" lon="4.81742">
        <ele>281.569</ele>
        <time>2014-01-18T08:34:13Z</time>
      </trkpt>
      <trkpt lat="44.89596" lon="4.81736">
        <ele>281.352</ele>
        <time>2014-01-18T08:34:17Z</time>
      </trkpt>
      <trkpt lat="44.89596" lon="4.81728">
        <ele>281.303</ele>
        <time>2014-01-18T08:34:21Z</time>
      </trkpt>
      <trkpt lat="44.89597" lon="4.81725">
        <ele>282.134</ele>
        <time>2014-01-18T08:34:30Z</time>
      </trkpt>
      <trkpt lat="44.89589" lon="4.81703">
        <ele>283.779</ele>
        <time>2014-01-18T08:34:38Z</time>
      </trkpt>
      <trkpt lat="44.89586" lon="4.81702">
        <ele>285.256</ele>
        <time>2014-01-18T08:34:41Z</time>
      </trkpt>
      <trkpt lat="44.8959" lon="4.81672">
        <ele>285.738</ele>
        <time>2014-01-18T08:34:49Z</time>
      </trkpt>
      <trkpt lat="44.89604" lon="4.81665">
        <ele>288.414</ele>
        <time>2014-01-18T08:34:58Z</time>
      </trkpt>
      <trkpt lat="44.89619" lon="4.81664">
        <ele>291.032</ele>
        <time>2014-01-18T08:35:07Z</time>
      </trkpt>
      <trkpt lat="44.89629" lon="4.81659">
        <ele>291.85</ele>
        <time>2014-01-18T08:35:13Z</time>
      </trkpt>
      <trkpt lat="44.89641" lon="4.81638">
        <ele>293.166</ele>
        <time>2014-01-18T08:35:23Z</time>
      </trkpt>
      <trkpt lat="44.89653" lon="4.81618">
        <ele>293.816</ele>
        <time>2014-01-18T08:35:32Z</time>
      </trkpt>
      <trkpt lat="44.89661" lon="4.81606">
        <ele>293.562</ele>
        <time>2014-01-18T08:35:40Z</time>
      </trkpt>
      <trkpt lat="44.89663" lon="4.81604">
        <ele>293.99</ele>
        <time>2014-01-18T08:35:47Z</time>
      </trkpt>
      <trkpt lat="44.89663" lon="4.81603">
        <ele>293.887</ele>
        <time>2014-01-18T08:36:42Z</time>
      </trkpt>
      <trkpt lat="44.89664" lon="4.81601">
        <ele>293.189</ele>
        <time>2014-01-18T08:39:36Z</time>
      </trkpt>
      <trkpt lat="44.89666" lon="4.8159">
        <ele>293.996</ele>
        <time>2014-01-18T08:39:43Z</time>
      </trkpt>
      <trkpt lat="44.89665" lon="4.81583">
        <ele>294.143</ele>
        <time>2014-01-18T08:39:46Z</time>
      </trkpt>
      <trkpt lat="44.89664" lon="4.81572">
        <ele>295.959</ele>
        <time>2014-01-18T08:39:50Z</time>
      </trkpt>
      <trkpt lat="44.89664" lon="4.81553">
        <ele>298.824</ele>
        <time>2014-01-18T08:39:58Z</time>
      </trkpt>
      <trkpt lat="44.89664" lon="4.81544">
        <ele>301.154</ele>
        <time>2014-01-18T08:40:02Z</time>
      </trkpt>
      <trkpt lat="44.8966" lon="4.81534">
        <ele>302.884</ele>
        <time>2014-01-18T08:40:08Z</time>
      </trkpt>
      <trkpt lat="44.89657" lon="4.81522">
        <ele>305.344</ele>
        <time>2014-01-18T08:40:14Z</time>
      </trkpt>
      <trkpt lat="44.89656" lon="4.81518">
        <ele>306.482</ele>
        <time>2014-01-18T08:40:16Z</time>
      </trkpt>
      <trkpt lat="44.89654" lon="4.81508">
        <ele>307.212</ele>
        <time>2014-01-18T08:40:21Z</time>
      </trkpt>
      <trkpt lat="44.89649" lon="4.81489">
        <ele>308.182</ele>
        <time>2014-01-18T08:40:30Z</time>
      </trkpt>
      <trkpt lat="44.89642" lon="4.81474">
        <ele>310.096</ele>
        <time>2014-01-18T08:40:38Z</time>
      </trkpt>
      <trkpt lat="44.8964" lon="4.8147">
        <ele>311.157</ele>
        <time>2014-01-18T08:40:40Z</time>
      </trkpt>
      <trkpt lat="44.89638" lon="4.81464">
        <ele>311.75</ele>
        <time>2014-01-18T08:40:46Z</time>
      </trkpt>
      <trkpt lat="44.89636" lon="4.8146">
        <ele>311.94</ele>
        <time>2014-01-18T08:40:52Z</time>
      </trkpt>
      <trkpt lat="44.89631" lon="4.81452">
        <ele>313.403</ele>
        <time>2014-01-18T08:41:00Z</time>
      </trkpt>
      <trkpt lat="44.89628" lon="4.81447">
        <ele>314.299</ele>
        <time>2014-01-18T08:41:07Z</time>
      </trkpt>
      <trkpt lat="44.89627" lon="4.81443">
        <ele>315.057</ele>
        <time>2014-01-18T08:41:15Z</time>
      </trkpt>
      <trkpt lat="44.89623" lon="4.81436">
        <ele>317.521</ele>
        <time>2014-01-18T08:41:36Z</time>
      </trkpt>
      <trkpt lat="44.89618" lon="4.8143">
        <ele>317.908</ele>
        <time>2014-01-18T08:41:43Z</time>
      </trkpt>
      <trkpt lat="44.89612" lon="4.81425">
        <ele>320.922</ele>
        <time>2014-01-18T08:41:51Z</time>
      </trkpt>
      <trkpt lat="44.89609" lon="4.81424">
        <ele>322.558</ele>
        <time>2014-01-18T08:41:54Z</time>
      </trkpt>
      <trkpt lat="44.89607" lon="4.81423">
        <ele>322.936</ele>
        <time>2014-01-18T08:41:59Z</time>
      </trkpt>
      <trkpt lat="44.89606" lon="4.81422">
        <ele>322.975</ele>
        <time>2014-01-18T08:42:08Z</time>
      </trkpt>
      <trkpt lat="44.89597" lon="4.81414">
        <ele>324.947</ele>
        <time>2014-01-18T08:42:16Z</time>
      </trkpt>
      <trkpt lat="44.8959" lon="4.8141">
        <ele>325.252</ele>
        <time>2014-01-18T08:42:22Z</time>
      </trkpt>
      <trkpt lat="44.89582" lon="4.81407">
        <ele>326.634</ele>
        <time>2014-01-18T08:42:28Z</time>
      </trkpt>
      <trkpt lat="44.89573" lon="4.81403">
        <ele>328.761</ele>
        <time>2014-01-18T08:42:35Z</time>
      </trkpt>
      <trkpt lat="44.89566" lon="4.81397">
        <ele>330.973</ele>
        <time>2014-01-18T08:42:41Z</time>
      </trkpt>
      <trkpt lat="44.89559" lon="4.8139">
        <ele>332.658</ele>
        <time>2014-01-18T08:42:47Z</time>
      </trkpt>
      <trkpt lat="44.89554" lon="4.81387">
        <ele>333.769</ele>
        <time>2014-01-18T08:42:50Z</time>
      </trkpt>
      <trkpt lat="44.89544" lon="4.81382">
        <ele>333.759</ele>
        <time>2014-01-18T08:42:57Z</time>
      </trkpt>
      <trkpt lat="44.89534" lon="4.81378">
        <ele>334.967</ele>
        <time>2014-01-18T08:43:04Z</time>
      </trkpt>
      <trkpt lat="44.89528" lon="4.81372">
        <ele>335.639</ele>
        <time>2014-01-18T08:43:10Z</time>
      </trkpt>
      <trkpt lat="44.89521" lon="4.8136">
        <ele>337.827</ele>
        <time>2014-01-18T08:43:18Z</time>
      </trkpt>
      <trkpt lat="44.89514" lon="4.81346">
        <ele>337.104</ele>
        <time>2014-01-18T08:43:27Z</time>
      </trkpt>
      <trkpt lat="44.89512" lon="4.81343">
        <ele>338.775</ele>
        <time>2014-01-18T08:43:29Z</time>
      </trkpt>
      <trkpt lat="44.89509" lon="4.81337">
        <ele>340.1</ele>
        <time>2014-01-18T08:44:11Z</time>
      </trkpt>
      <trkpt lat="44.89505" lon="4.81328">
        <ele>341.831</ele>
        <time>2014-01-18T08:44:17Z</time>
      </trkpt>
      <trkpt lat="44.89501" lon="4.81318">
        <ele>342.978</ele>
        <time>2014-01-18T08:44:22Z</time>
      </trkpt>
      <trkpt lat="44.89496" lon="4.81308">
        <ele>343.829</ele>
        <time>2014-01-18T08:44:29Z</time>
      </trkpt>
      <trkpt lat="44.89491" lon="4.81298">
        <ele>345.473</ele>
        <time>2014-01-18T08:44:36Z</time>
      </trkpt>
      <trkpt lat="44.89486" lon="4.81294">
        <ele>345.97</ele>
        <time>2014-01-18T08:44:40Z</time>
      </trkpt>
      <trkpt lat="44.89485" lon="4.81291">
        <ele>347.13</ele>
        <time>2014-01-18T08:44:44Z</time>
      </trkpt>
      <trkpt lat="44.89482" lon="4.81285">
        <ele>348.962</ele>
        <time>2014-01-18T08:44:51Z</time>
      </trkpt>
      <trkpt lat="44.8948" lon="4.81277">
        <ele>350.283</ele>
        <time>2014-01-18T08:45:04Z</time>
      </trkpt>
      <trkpt lat="44.89479" lon="4.81272">
        <ele>353.014</ele>
        <time>2014-01-18T08:45:10Z</time>
      </trkpt>
      <trkpt lat="44.89475" lon="4.81255">
        <ele>354.363</ele>
        <time>2014-01-18T08:45:19Z</time>
      </trkpt>
      <trkpt lat="44.89474" lon="4.81253">
        <ele>354.787</ele>
        <time>2014-01-18T08:45:26Z</time>
      </trkpt>
      <trkpt lat="44.89471" lon="4.81246">
        <ele>355.341</ele>
        <time>2014-01-18T08:45:31Z</time>
      </trkpt>
      <trkpt lat="44.8947" lon="4.81243">
        <ele>355.371</ele>
        <time>2014-01-18T08:45:34Z</time>
      </trkpt>
      <trkpt lat="44.89468" lon="4.8123">
        <ele>353.903</ele>
        <time>2014-01-18T08:45:40Z</time>
      </trkpt>
      <trkpt lat="44.89467" lon="4.81228">
        <ele>353.9</ele>
        <time>2014-01-18T08:45:41Z</time>
      </trkpt>
      <trkpt lat="44.89466" lon="4.81212">
        <ele>354.157</ele>
        <time>2014-01-18T08:45:45Z</time>
      </trkpt>
      <trkpt lat="44.89461" lon="4.81186">
        <ele>352.69</ele>
        <time>2014-01-18T08:45:51Z</time>
      </trkpt>
      <trkpt lat="44.89449" lon="4.81163">
        <ele>354.383</ele>
        <time>2014-01-18T08:45:58Z</time>
      </trkpt>
      <trkpt lat="44.89443" lon="4.81142">
        <ele>355.982</ele>
        <time>2014-01-18T08:46:04Z</time>
      </trkpt>
      <trkpt lat="44.89439" lon="4.8113">
        <ele>355.377</ele>
        <time>2014-01-18T08:46:08Z</time>
      </trkpt>
      <trkpt lat="44.89425" lon="4.81105">
        <ele>355.044</ele>
        <time>2014-01-18T08:46:15Z</time>
      </trkpt>
      <trkpt lat="44.89408" lon="4.81086">
        <ele>355.184</ele>
        <time>2014-01-18T08:46:23Z</time>
      </trkpt>
      <trkpt lat="44.89402" lon="4.81073">
        <ele>354.639</ele>
        <time>2014-01-18T08:46:28Z</time>
      </trkpt>
      <trkpt lat="44.89395" lon="4.81058">
        <ele>355.854</ele>
        <time>2014-01-18T08:46:34Z</time>
      </trkpt>
      <trkpt lat="44.89388" lon="4.8104">
        <ele>358.089</ele>
        <time>2014-01-18T08:46:41Z</time>
      </trkpt>
      <trkpt lat="44.89377" lon="4.8102">
        <ele>359.099</ele>
        <time>2014-01-18T08:46:49Z</time>
      </trkpt>
      <trkpt lat="44.89371" lon="4.81005">
        <ele>359.973</ele>
        <time>2014-01-18T08:46:55Z</time>
      </trkpt>
      <trkpt lat="44.8937" lon="4.81003">
        <ele>360.191</ele>
        <time>2014-01-18T08:46:57Z</time>
      </trkpt>
      <trkpt lat="44.89365" lon="4.8099">
        <ele>359.419</ele>
        <time>2014-01-18T08:47:02Z</time>
      </trkpt>
      <trkpt lat="44.8937" lon="4.80965">
        <ele>359.916</ele>
        <time>2014-01-18T08:47:09Z</time>
      </trkpt>
      <trkpt lat="44.89366" lon="4.80944">
        <ele>360.943</ele>
        <time>2014-01-18T08:47:16Z</time>
      </trkpt>
      <trkpt lat="44.89362" lon="4.80923">
        <ele>361.1</ele>
        <time>2014-01-18T08:47:23Z</time>
      </trkpt>
      <trkpt lat="44.89358" lon="4.80903">
        <ele>362.231</ele>
        <time>2014-01-18T08:47:30Z</time>
      </trkpt>
      <trkpt lat="44.89355" lon="4.80888">
        <ele>363.684</ele>
        <time>2014-01-18T08:47:36Z</time>
      </trkpt>
      <trkpt lat="44.89352" lon="4.80873">
        <ele>365.026</ele>
        <time>2014-01-18T08:47:43Z</time>
      </trkpt>
      <trkpt lat="44.8935" lon="4.80861">
        <ele>365.522</ele>
        <time>2014-01-18T08:47:49Z</time>
      </trkpt>
      <trkpt lat="44.89346" lon="4.80847">
        <ele>366.99</ele>
        <time>2014-01-18T08:47:58Z</time>
      </trkpt>
      <trkpt lat="44.89345" lon="4.80844">
        <ele>367.367</ele>
        <time>2014-01-18T08:48:00Z</time>
      </trkpt>
      <trkpt lat="44.89343" lon="4.80839">
        <ele>367.877</ele>
        <time>2014-01-18T08:48:04Z</time>
      </trkpt>
      <trkpt lat="44.8934" lon="4.8083">
        <ele>369.579</ele>
        <time>2014-01-18T08:48:12Z</time>
      </trkpt>
      <trkpt lat="44.89336" lon="4.80821">
        <ele>369.172</ele>
        <time>2014-01-18T08:48:20Z</time>
      </trkpt>
      <trkpt lat="44.89335" lon="4.80816">
        <ele>369.715</ele>
        <time>2014-01-18T08:48:26Z</time>
      </trkpt>
      <trkpt lat="44.89333" lon="4.80811">
        <ele>370.561</ele>
        <time>2014-01-18T08:48:40Z</time>
      </trkpt>
      <trkpt lat="44.8933" lon="4.80805">
        <ele>371.476</ele>
        <time>2014-01-18T08:49:03Z</time>
      </trkpt>
      <trkpt lat="44.89328" lon="4.808">
        <ele>370.864</ele>
        <time>2014-01-18T08:49:07Z</time>
      </trkpt>
      <trkpt lat="44.89324" lon="4.80792">
        <ele>372.743</ele>
        <time>2014-01-18T08:49:13Z</time>
      </trkpt>
      <trkpt lat="44.89323" lon="4.8079">
        <ele>373.461</ele>
        <time>2014-01-18T08:49:14Z</time>
      </trkpt>
      <trkpt lat="44.89322" lon="4.80789">
        <ele>373.661</ele>
        <time>2014-01-18T08:49:22Z</time>
      </trkpt>
      <trkpt lat="44.89314" lon="4.80779">
        <ele>374.566</ele>
        <time>2014-01-18T08:49:57Z</time>
      </trkpt>
      <trkpt lat="44.8931" lon="4.80772">
        <ele>375.754</ele>
        <time>2014-01-18T08:50:06Z</time>
      </trkpt>
      <trkpt lat="44.89308" lon="4.80767">
        <ele>376.915</ele>
        <time>2014-01-18T08:50:12Z</time>
      </trkpt>
      <trkpt lat="44.89305" lon="4.80761">
        <ele>376.132</ele>
        <time>2014-01-18T08:50:20Z</time>
      </trkpt>
      <trkpt lat="44.89298" lon="4.80748">
        <ele>377.537</ele>
        <time>2014-01-18T08:50:29Z</time>
      </trkpt>
      <trkpt lat="44.8929" lon="4.80731">
        <ele>377.957</ele>
        <time>2014-01-18T08:50:37Z</time>
      </trkpt>
      <trkpt lat="44.89278" lon="4.80713">
        <ele>378.243</ele>
        <time>2014-01-18T08:50:45Z</time>
      </trkpt>
      <trkpt lat="44.89271" lon="4.80698">
        <ele>379.629</ele>
        <time>2014-01-18T08:50:52Z</time>
      </trkpt>
      <trkpt lat="44.89263" lon="4.80681">
        <ele>380.849</ele>
        <time>2014-01-18T08:50:59Z</time>
      </trkpt>
      <trkpt lat="44.89256" lon="4.80661">
        <ele>380.538</ele>
        <time>2014-01-18T08:51:06Z</time>
      </trkpt>
      <trkpt lat="44.89253" lon="4.80641">
        <ele>380.813</ele>
        <time>2014-01-18T08:51:12Z</time>
      </trkpt>
      <trkpt lat="44.89247" lon="4.80616">
        <ele>381.998</ele>
        <time>2014-01-18T08:51:20Z</time>
      </trkpt>
      <trkpt lat="44.89246" lon="4.80593">
        <ele>384.152</ele>
        <time>2014-01-18T08:51:28Z</time>
      </trkpt>
      <trkpt lat="44.89248" lon="4.80566">
        <ele>383.193</ele>
        <time>2014-01-18T08:51:35Z</time>
      </trkpt>
      <trkpt lat="44.89247" lon="4.80542">
        <ele>382.379</ele>
        <time>2014-01-18T08:51:41Z</time>
      </trkpt>
      <trkpt lat="44.89237" lon="4.8051">
        <ele>380.959</ele>
        <time>2014-01-18T08:51:48Z</time>
      </trkpt>
      <trkpt lat="44.89223" lon="4.80478">
        <ele>381.537</ele>
        <time>2014-01-18T08:51:55Z</time>
      </trkpt>
      <trkpt lat="44.89218" lon="4.80465">
        <ele>381.356</ele>
        <time>2014-01-18T08:51:58Z</time>
      </trkpt>
      <trkpt lat="44.89215" lon="4.80448">
        <ele>381.937</ele>
        <time>2014-01-18T08:52:04Z</time>
      </trkpt>
      <trkpt lat="44.89218" lon="4.80424">
        <ele>382.196</ele>
        <time>2014-01-18T08:52:10Z</time>
      </trkpt>
      <trkpt lat="44.89219" lon="4.80417">
        <ele>382.979</ele>
        <time>2014-01-18T08:52:12Z</time>
      </trkpt>
      <trkpt lat="44.89217" lon="4.80398">
        <ele>383.398</ele>
        <time>2014-01-18T08:52:17Z</time>
      </trkpt>
      <trkpt lat="44.8921" lon="4.80374">
        <ele>385.036</ele>
        <time>2014-01-18T08:52:22Z</time>
      </trkpt>
      <trkpt lat="44.89199" lon="4.80352">
        <ele>384.36</ele>
        <time>2014-01-18T08:52:29Z</time>
      </trkpt>
      <trkpt lat="44.89191" lon="4.80328">
        <ele>382.842</ele>
        <time>2014-01-18T08:52:36Z</time>
      </trkpt>
      <trkpt lat="44.89178" lon="4.80305">
        <ele>381.083</ele>
        <time>2014-01-18T08:52:41Z</time>
      </trkpt>
      <trkpt lat="44.89153" lon="4.80283">
        <ele>381.643</ele>
        <time>2014-01-18T08:52:48Z</time>
      </trkpt>
      <trkpt lat="44.89137" lon="4.80273">
        <ele>383.223</ele>
        <time>2014-01-18T08:52:53Z</time>
      </trkpt>
      <trkpt lat="44.89129" lon="4.80268">
        <ele>384.204</ele>
        <time>2014-01-18T08:52:59Z</time>
      </trkpt>
      <trkpt lat="44.89117" lon="4.80264">
        <ele>385.691</ele>
        <time>2014-01-18T08:53:05Z</time>
      </trkpt>
      <trkpt lat="44.89116" lon="4.80263">
        <ele>385.851</ele>
        <time>2014-01-18T08:53:09Z</time>
      </trkpt>
      <trkpt lat="44.89112" lon="4.80262">
        <ele>386.13</ele>
        <time>2014-01-18T08:53:14Z</time>
      </trkpt>
      <trkpt lat="44.8911" lon="4.80261">
        <ele>386.013</ele>
        <time>2014-01-18T08:53:16Z</time>
      </trkpt>
      <trkpt lat="44.89109" lon="4.80259">
        <ele>386.145</ele>
        <time>2014-01-18T08:53:21Z</time>
      </trkpt>
      <trkpt lat="44.89103" lon="4.80251">
        <ele>387.697</ele>
        <time>2014-01-18T08:53:28Z</time>
      </trkpt>
      <trkpt lat="44.891" lon="4.80237">
        <ele>389.193</ele>
        <time>2014-01-18T08:53:39Z</time>
      </trkpt>
      <trkpt lat="44.89098" lon="4.80219">
        <ele>390.162</ele>
        <time>2014-01-18T08:53:46Z</time>
      </trkpt>
      <trkpt lat="44.89092" lon="4.80187">
        <ele>390.544</ele>
        <time>2014-01-18T08:53:55Z</time>
      </trkpt>
      <trkpt lat="44.89085" lon="4.80163">
        <ele>391.153</ele>
        <time>2014-01-18T08:54:01Z</time>
      </trkpt>
      <trkpt lat="44.89085" lon="4.80163">
        <ele>391.304</ele>
        <time>2014-01-18T08:54:02Z</time>
      </trkpt>
      <trkpt lat="44.89087" lon="4.80144">
        <ele>391.389</ele>
        <time>2014-01-18T08:54:08Z</time>
      </trkpt>
      <trkpt lat="44.89092" lon="4.80121">
        <ele>392.554</ele>
        <time>2014-01-18T08:54:15Z</time>
      </trkpt>
      <trkpt lat="44.89097" lon="4.80097">
        <ele>392.388</ele>
        <time>2014-01-18T08:54:22Z</time>
      </trkpt>
      <trkpt lat="44.89099" lon="4.80071">
        <ele>392.228</ele>
        <time>2014-01-18T08:54:28Z</time>
      </trkpt>
      <trkpt lat="44.89102" lon="4.80045">
        <ele>392.484</ele>
        <time>2014-01-18T08:54:34Z</time>
      </trkpt>
      <trkpt lat="44.89109" lon="4.80016">
        <ele>391.69</ele>
        <time>2014-01-18T08:54:40Z</time>
      </trkpt>
      <trkpt lat="44.89112" lon="4.79997">
        <ele>391.485</ele>
        <time>2014-01-18T08:54:43Z</time>
      </trkpt>
      <trkpt lat="44.89115" lon="4.79955">
        <ele>389.763</ele>
        <time>2014-01-18T08:54:49Z</time>
      </trkpt>
      <trkpt lat="44.89116" lon="4.79948">
        <ele>388.987</ele>
        <time>2014-01-18T08:54:50Z</time>
      </trkpt>
      <trkpt lat="44.89117" lon="4.79918">
        <ele>388.992</ele>
        <time>2014-01-18T08:54:55Z</time>
      </trkpt>
      <trkpt lat="44.89119" lon="4.79908">
        <ele>389.43</ele>
        <time>2014-01-18T08:55:00Z</time>
      </trkpt>
      <trkpt lat="44.89121" lon="4.79893">
        <ele>388.767</ele>
        <time>2014-01-18T09:00:51Z</time>
      </trkpt>
      <trkpt lat="44.89125" lon="4.79879">
        <ele>387.528</ele>
        <time>2014-01-18T09:00:55Z</time>
      </trkpt>
      <trkpt lat="44.89129" lon="4.79863">
        <ele>386.287</ele>
        <time>2014-01-18T09:00:58Z</time>
      </trkpt>
      <trkpt lat="44.89132" lon="4.79852">
        <ele>385.863</ele>
        <time>2014-01-18T09:01:00Z</time>
      </trkpt>
      <trkpt lat="44.89138" lon="4.79827">
        <ele>385.093</ele>
        <time>2014-01-18T09:01:04Z</time>
      </trkpt>
      <trkpt lat="44.89153" lon="4.7983">
        <ele>384.116</ele>
        <time>2014-01-18T09:01:06Z</time>
      </trkpt>
      <trkpt lat="44.89162" lon="4.79837">
        <ele>380.636</ele>
        <time>2014-01-18T09:01:10Z</time>
      </trkpt>
      <trkpt lat="44.89173" lon="4.79837">
        <ele>379.762</ele>
        <time>2014-01-18T09:01:16Z</time>
      </trkpt>
      <trkpt lat="44.89176" lon="4.79829">
        <ele>379.829</ele>
        <time>2014-01-18T09:01:20Z</time>
      </trkpt>
      <trkpt lat="44.89177" lon="4.79828">
        <ele>379.858</ele>
        <time>2014-01-18T09:01:21Z</time>
      </trkpt>
      <trkpt lat="44.89163" lon="4.79812">
        <ele>383.497</ele>
        <time>2014-01-18T09:01:28Z</time>
      </trkpt>
      <trkpt lat="44.89152" lon="4.79804">
        <ele>384.516</ele>
        <time>2014-01-18T09:01:36Z</time>
      </trkpt>
      <trkpt lat="44.89146" lon="4.79789">
        <ele>385.405</ele>
        <time>2014-01-18T09:01:42Z</time>
      </trkpt>
      <trkpt lat="44.89139" lon="4.7977">
        <ele>385.502</ele>
        <time>2014-01-18T09:01:49Z</time>
      </trkpt>
      <trkpt lat="44.89133" lon="4.79742">
        <ele>385.703</ele>
        <time>2014-01-18T09:01:58Z</time>
      </trkpt>
      <trkpt lat="44.8913" lon="4.79721">
        <ele>386.326</ele>
        <time>2014-01-18T09:02:06Z</time>
      </trkpt>
      <trkpt lat="44.89123" lon="4.79699">
        <ele>384.864</ele>
        <time>2014-01-18T09:02:13Z</time>
      </trkpt>
      <trkpt lat="44.89116" lon="4.7967">
        <ele>382.05</ele>
        <time>2014-01-18T09:02:19Z</time>
      </trkpt>
      <trkpt lat="44.89113" lon="4.79659">
        <ele>384.446</ele>
        <time>2014-01-18T09:02:21Z</time>
      </trkpt>
      <trkpt lat="44.89109" lon="4.79643">
        <ele>383.552</ele>
        <time>2014-01-18T09:02:24Z</time>
      </trkpt>
      <trkpt lat="44.89102" lon="4.7961">
        <ele>385.456</ele>
        <time>2014-01-18T09:02:29Z</time>
      </trkpt>
      <trkpt lat="44.89099" lon="4.79598">
        <ele>385.67</ele>
        <time>2014-01-18T09:02:31Z</time>
      </trkpt>
      <trkpt lat="44.89085" lon="4.7955">
        <ele>386.115</ele>
        <time>2014-01-18T09:02:39Z</time>
      </trkpt>
      <trkpt lat="44.89074" lon="4.79529">
        <ele>386.563</ele>
        <time>2014-01-18T09:02:43Z</time>
      </trkpt>
      <trkpt lat="44.89057" lon="4.79495">
        <ele>387.228</ele>
        <time>2014-01-18T09:02:50Z</time>
      </trkpt>
      <trkpt lat="44.89042" lon="4.79458">
        <ele>387.916</ele>
        <time>2014-01-18T09:02:58Z</time>
      </trkpt>
      <trkpt lat="44.89032" lon="4.79424">
        <ele>387.458</ele>
        <time>2014-01-18T09:03:05Z</time>
      </trkpt>
      <trkpt lat="44.89017" lon="4.79397">
        <ele>389.283</ele>
        <time>2014-01-18T09:03:12Z</time>
      </trkpt>
      <trkpt lat="44.89005" lon="4.79375">
        <ele>388.471</ele>
        <time>2014-01-18T09:03:18Z</time>
      </trkpt>
      <trkpt lat="44.89001" lon="4.79355">
        <ele>389.83</ele>
        <time>2014-01-18T09:03:24Z</time>
      </trkpt>
      <trkpt lat="44.88996" lon="4.79332">
        <ele>389.325</ele>
        <time>2014-01-18T09:03:29Z</time>
      </trkpt>
      <trkpt lat="44.88984" lon="4.79301">
        <ele>390.586</ele>
        <time>2014-01-18T09:03:37Z</time>
      </trkpt>
      <trkpt lat="44.8898" lon="4.79295">
        <ele>391.442</ele>
        <time>2014-01-18T09:03:39Z</time>
      </trkpt>
      <trkpt lat="44.88966" lon="4.79271">
        <ele>392.046</ele>
        <time>2014-01-18T09:03:47Z</time>
      </trkpt>
      <trkpt lat="44.88953" lon="4.79249">
        <ele>393.403</ele>
        <time>2014-01-18T09:03:54Z</time>
      </trkpt>
      <trkpt lat="44.8894" lon="4.79224">
        <ele>393.905</ele>
        <time>2014-01-18T09:04:01Z</time>
      </trkpt>
      <trkpt lat="44.8893" lon="4.79204">
        <ele>394.489</ele>
        <time>2014-01-18T09:04:07Z</time>
      </trkpt>
      <trkpt lat="44.8892" lon="4.79183">
        <ele>394.349</ele>
        <time>2014-01-18T09:04:13Z</time>
      </trkpt>
      <trkpt lat="44.88911" lon="4.79158">
        <ele>395.019</ele>
        <time>2014-01-18T09:04:20Z</time>
      </trkpt>
      <trkpt lat="44.88911" lon="4.79138">
        <ele>394.291</ele>
        <time>2014-01-18T09:04:25Z</time>
      </trkpt>
      <trkpt lat="44.8892" lon="4.7911">
        <ele>393.763</ele>
        <time>2014-01-18T09:04:31Z</time>
      </trkpt>
      <trkpt lat="44.88923" lon="4.79104">
        <ele>394.323</ele>
        <time>2014-01-18T09:04:32Z</time>
      </trkpt>
      <trkpt lat="44.88932" lon="4.79082">
        <ele>394.179</ele>
        <time>2014-01-18T09:04:36Z</time>
      </trkpt>
      <trkpt lat="44.88943" lon="4.79042">
        <ele>393.292</ele>
        <time>2014-01-18T09:04:42Z</time>
      </trkpt>
      <trkpt lat="44.88942" lon="4.79033">
        <ele>392.602</ele>
        <time>2014-01-18T09:04:43Z</time>
      </trkpt>
      <trkpt lat="44.88942" lon="4.7899">
        <ele>391.212</ele>
        <time>2014-01-18T09:04:50Z</time>
      </trkpt>
      <trkpt lat="44.88943" lon="4.78984">
        <ele>391.496</ele>
        <time>2014-01-18T09:04:51Z</time>
      </trkpt>
      <trkpt lat="44.88945" lon="4.78972">
        <ele>391.471</ele>
        <time>2014-01-18T09:04:53Z</time>
      </trkpt>
      <trkpt lat="44.88957" lon="4.78935">
        <ele>390.492</ele>
        <time>2014-01-18T09:04:59Z</time>
      </trkpt>
      <trkpt lat="44.88961" lon="4.78921">
        <ele>389.883</ele>
        <time>2014-01-18T09:05:01Z</time>
      </trkpt>
      <trkpt lat="44.88972" lon="4.78882">
        <ele>389.785</ele>
        <time>2014-01-18T09:05:07Z</time>
      </trkpt>
      <trkpt lat="44.88978" lon="4.7886">
        <ele>390.701</ele>
        <time>2014-01-18T09:05:11Z</time>
      </trkpt>
      <trkpt lat="44.88989" lon="4.78829">
        <ele>391.851</ele>
        <time>2014-01-18T09:05:19Z</time>
      </trkpt>
      <trkpt lat="44.88992" lon="4.78805">
        <ele>391.237</ele>
        <time>2014-01-18T09:05:25Z</time>
      </trkpt>
      <trkpt lat="44.88994" lon="4.78766">
        <ele>392.86</ele>
        <time>2014-01-18T09:05:34Z</time>
      </trkpt>
      <trkpt lat="44.88999" lon="4.78735">
        <ele>394.191</ele>
        <time>2014-01-18T09:05:42Z</time>
      </trkpt>
      <trkpt lat="44.89003" lon="4.78706">
        <ele>394.956</ele>
        <time>2014-01-18T09:05:49Z</time>
      </trkpt>
      <trkpt lat="44.89005" lon="4.78683">
        <ele>396.178</ele>
        <time>2014-01-18T09:05:55Z</time>
      </trkpt>
      <trkpt lat="44.89006" lon="4.78666">
        <ele>397.458</ele>
        <time>2014-01-18T09:06:01Z</time>
      </trkpt>
      <trkpt lat="44.89007" lon="4.78653">
        <ele>400.062</ele>
        <time>2014-01-18T09:06:08Z</time>
      </trkpt>
      <trkpt lat="44.89008" lon="4.78644">
        <ele>400.308</ele>
        <time>2014-01-18T09:06:15Z</time>
      </trkpt>
      <trkpt lat="44.88998" lon="4.786">
        <ele>394.398</ele>
        <time>2014-01-18T09:06:21Z</time>
      </trkpt>
      <trkpt lat="44.88995" lon="4.78588">
        <ele>393.216</ele>
        <time>2014-01-18T09:06:23Z</time>
      </trkpt>
      <trkpt lat="44.88991" lon="4.78573">
        <ele>391.715</ele>
        <time>2014-01-18T09:06:25Z</time>
      </trkpt>
      <trkpt lat="44.88982" lon="4.78552">
        <ele>387.291</ele>
        <time>2014-01-18T09:06:29Z</time>
      </trkpt>
      <trkpt lat="44.88982" lon="4.78551">
        <ele>387.164</ele>
        <time>2014-01-18T09:06:33Z</time>
      </trkpt>
      <trkpt lat="44.88982" lon="4.78534">
        <ele>389.862</ele>
        <time>2014-01-18T09:08:54Z</time>
      </trkpt>
      <trkpt lat="44.88982" lon="4.78526">
        <ele>392.273</ele>
        <time>2014-01-18T09:08:59Z</time>
      </trkpt>
      <trkpt lat="44.88985" lon="4.78524">
        <ele>392.206</ele>
        <time>2014-01-18T09:09:03Z</time>
      </trkpt>
      <trkpt lat="44.88988" lon="4.78526">
        <ele>393.182</ele>
        <time>2014-01-18T09:09:10Z</time>
      </trkpt>
      <trkpt lat="44.88991" lon="4.78525">
        <ele>394.649</ele>
        <time>2014-01-18T09:09:15Z</time>
      </trkpt>
      <trkpt lat="44.88995" lon="4.78525">
        <ele>396.092</ele>
        <time>2014-01-18T09:09:21Z</time>
      </trkpt>
      <trkpt lat="44.89" lon="4.78526">
        <ele>398.443</ele>
        <time>2014-01-18T09:09:30Z</time>
      </trkpt>
      <trkpt lat="44.89001" lon="4.78526">
        <ele>398.529</ele>
        <time>2014-01-18T09:09:31Z</time>
      </trkpt>
      <trkpt lat="44.88982" lon="4.78525">
        <ele>399.198</ele>
        <time>2014-01-18T09:09:38Z</time>
      </trkpt>
      <trkpt lat="44.88982" lon="4.78526">
        <ele>401.213</ele>
        <time>2014-01-18T09:09:48Z</time>
      </trkpt>
      <trkpt lat="44.88982" lon="4.78536">
        <ele>402.076</ele>
        <time>2014-01-18T09:09:55Z</time>
      </trkpt>
      <trkpt lat="44.8904" lon="4.78568">
        <ele>407.127</ele>
        <time>2014-01-18T09:10:19Z</time>
      </trkpt>
      <trkpt lat="44.89045" lon="4.78525">
        <ele>408.367</ele>
        <time>2014-01-18T09:10:29Z</time>
      </trkpt>
      <trkpt lat="44.89044" lon="4.7851">
        <ele>409.322</ele>
        <time>2014-01-18T09:10:31Z</time>
      </trkpt>
      <trkpt lat="44.89044" lon="4.78513">
        <ele>411.532</ele>
        <time>2014-01-18T09:16:24Z</time>
      </trkpt>
      <trkpt lat="44.89042" lon="4.78504">
        <ele>412.191</ele>
        <time>2014-01-18T09:16:29Z</time>
      </trkpt>
      <trkpt lat="44.89039" lon="4.78497">
        <ele>412.37</ele>
        <time>2014-01-18T09:16:34Z</time>
      </trkpt>
      <trkpt lat="44.8905" lon="4.7848">
        <ele>414.705</ele>
        <time>2014-01-18T09:16:44Z</time>
      </trkpt>
      <trkpt lat="44.89055" lon="4.78469">
        <ele>415.379</ele>
        <time>2014-01-18T09:16:51Z</time>
      </trkpt>
      <trkpt lat="44.8903" lon="4.78469">
        <ele>416.804</ele>
        <time>2014-01-18T09:16:58Z</time>
      </trkpt>
      <trkpt lat="44.89027" lon="4.78461">
        <ele>417.031</ele>
        <time>2014-01-18T09:17:06Z</time>
      </trkpt>
      <trkpt lat="44.89026" lon="4.78458">
        <ele>417.665</ele>
        <time>2014-01-18T09:17:31Z</time>
      </trkpt>
      <trkpt lat="44.89025" lon="4.78454">
        <ele>418.893</ele>
        <time>2014-01-18T09:17:42Z</time>
      </trkpt>
      <trkpt lat="44.8902" lon="4.78431">
        <ele>420.577</ele>
        <time>2014-01-18T09:18:56Z</time>
      </trkpt>
      <trkpt lat="44.89032" lon="4.78421">
        <ele>422.449</ele>
        <time>2014-01-18T09:19:03Z</time>
      </trkpt>
      <trkpt lat="44.89034" lon="4.78416">
        <ele>423.945</ele>
        <time>2014-01-18T09:19:06Z</time>
      </trkpt>
      <trkpt lat="44.89038" lon="4.78406">
        <ele>425.476</ele>
        <time>2014-01-18T09:19:12Z</time>
      </trkpt>
      <trkpt lat="44.8904" lon="4.78403">
        <ele>426.476</ele>
        <time>2014-01-18T09:19:14Z</time>
      </trkpt>
      <trkpt lat="44.89046" lon="4.78388">
        <ele>426.896</ele>
        <time>2014-01-18T09:19:22Z</time>
      </trkpt>
      <trkpt lat="44.89048" lon="4.78382">
        <ele>427.782</ele>
        <time>2014-01-18T09:19:28Z</time>
      </trkpt>
      <trkpt lat="44.89053" lon="4.7837">
        <ele>429.812</ele>
        <time>2014-01-18T09:19:43Z</time>
      </trkpt>
      <trkpt lat="44.89056" lon="4.78364">
        <ele>431.533</ele>
        <time>2014-01-18T09:19:50Z</time>
      </trkpt>
      <trkpt lat="44.89061" lon="4.78352">
        <ele>432.421</ele>
        <time>2014-01-18T09:20:00Z</time>
      </trkpt>
      <trkpt lat="44.89063" lon="4.78347">
        <ele>433.062</ele>
        <time>2014-01-18T09:20:03Z</time>
      </trkpt>
      <trkpt lat="44.89068" lon="4.78335">
        <ele>434.262</ele>
        <time>2014-01-18T09:20:10Z</time>
      </trkpt>
      <trkpt lat="44.8907" lon="4.78332">
        <ele>434.237</ele>
        <time>2014-01-18T09:20:13Z</time>
      </trkpt>
      <trkpt lat="44.89076" lon="4.78319">
        <ele>435.564</ele>
        <time>2014-01-18T09:20:20Z</time>
      </trkpt>
      <trkpt lat="44.89076" lon="4.78317">
        <ele>435.012</ele>
        <time>2014-01-18T09:20:21Z</time>
      </trkpt>
      <trkpt lat="44.89081" lon="4.78305">
        <ele>435.29</ele>
        <time>2014-01-18T09:20:28Z</time>
      </trkpt>
      <trkpt lat="44.89086" lon="4.78294">
        <ele>436.633</ele>
        <time>2014-01-18T09:20:34Z</time>
      </trkpt>
      <trkpt lat="44.89089" lon="4.78288">
        <ele>436.714</ele>
        <time>2014-01-18T09:20:38Z</time>
      </trkpt>
      <trkpt lat="44.89092" lon="4.7828">
        <ele>437.528</ele>
        <time>2014-01-18T09:20:43Z</time>
      </trkpt>
      <trkpt lat="44.89095" lon="4.78274">
        <ele>438.341</ele>
        <time>2014-01-18T09:20:50Z</time>
      </trkpt>
      <trkpt lat="44.89097" lon="4.78269">
        <ele>438.811</ele>
        <time>2014-01-18T09:20:53Z</time>
      </trkpt>
      <trkpt lat="44.891" lon="4.78262">
        <ele>440.091</ele>
        <time>2014-01-18T09:21:01Z</time>
      </trkpt>
      <trkpt lat="44.89104" lon="4.78252">
        <ele>440.227</ele>
        <time>2014-01-18T09:21:10Z</time>
      </trkpt>
      <trkpt lat="44.89111" lon="4.78237">
        <ele>440.61</ele>
        <time>2014-01-18T09:21:19Z</time>
      </trkpt>
      <trkpt lat="44.89113" lon="4.78232">
        <ele>441.349</ele>
        <time>2014-01-18T09:21:22Z</time>
      </trkpt>
      <trkpt lat="44.89115" lon="4.78225">
        <ele>443.234</ele>
        <time>2014-01-18T09:21:26Z</time>
      </trkpt>
      <trkpt lat="44.8912" lon="4.78216">
        <ele>443.869</ele>
        <time>2014-01-18T09:21:31Z</time>
      </trkpt>
      <trkpt lat="44.89123" lon="4.78208">
        <ele>443.717</ele>
        <time>2014-01-18T09:21:36Z</time>
      </trkpt>
      <trkpt lat="44.8913" lon="4.78192">
        <ele>444.695</ele>
        <time>2014-01-18T09:21:44Z</time>
      </trkpt>
      <trkpt lat="44.89135" lon="4.78179">
        <ele>444.984</ele>
        <time>2014-01-18T09:21:52Z</time>
      </trkpt>
      <trkpt lat="44.89136" lon="4.78177">
        <ele>445.745</ele>
        <time>2014-01-18T09:21:53Z</time>
      </trkpt>
      <trkpt lat="44.8914" lon="4.78168">
        <ele>447.039</ele>
        <time>2014-01-18T09:22:00Z</time>
      </trkpt>
      <trkpt lat="44.89142" lon="4.78164">
        <ele>447.116</ele>
        <time>2014-01-18T09:22:03Z</time>
      </trkpt>
      <trkpt lat="44.89145" lon="4.78157">
        <ele>448.041</ele>
        <time>2014-01-18T09:22:08Z</time>
      </trkpt>
      <trkpt lat="44.8915" lon="4.78144">
        <ele>450.366</ele>
        <time>2014-01-18T09:22:16Z</time>
      </trkpt>
      <trkpt lat="44.89156" lon="4.78131">
        <ele>451.284</ele>
        <time>2014-01-18T09:22:22Z</time>
      </trkpt>
      <trkpt lat="44.89161" lon="4.78119">
        <ele>452.594</ele>
        <time>2014-01-18T09:22:28Z</time>
      </trkpt>
      <trkpt lat="44.8918" lon="4.78136">
        <ele>453.464</ele>
        <time>2014-01-18T09:22:33Z</time>
      </trkpt>
      <trkpt lat="44.89159" lon="4.7811">
        <ele>454.038</ele>
        <time>2014-01-18T09:22:37Z</time>
      </trkpt>
      <trkpt lat="44.89163" lon="4.78102">
        <ele>454.653</ele>
        <time>2014-01-18T09:22:42Z</time>
      </trkpt>
      <trkpt lat="44.89164" lon="4.78101">
        <ele>455.12</ele>
        <time>2014-01-18T09:22:43Z</time>
      </trkpt>
      <trkpt lat="44.89171" lon="4.78086">
        <ele>455.888</ele>
        <time>2014-01-18T09:22:51Z</time>
      </trkpt>
      <trkpt lat="44.89176" lon="4.78077">
        <ele>455.785</ele>
        <time>2014-01-18T09:22:57Z</time>
      </trkpt>
      <trkpt lat="44.89179" lon="4.7807">
        <ele>456.33</ele>
        <time>2014-01-18T09:23:02Z</time>
      </trkpt>
      <trkpt lat="44.89182" lon="4.78063">
        <ele>456.374</ele>
        <time>2014-01-18T09:23:08Z</time>
      </trkpt>
      <trkpt lat="44.89188" lon="4.78052">
        <ele>456.951</ele>
        <time>2014-01-18T09:23:16Z</time>
      </trkpt>
      <trkpt lat="44.89192" lon="4.78044">
        <ele>457.742</ele>
        <time>2014-01-18T09:23:22Z</time>
      </trkpt>
      <trkpt lat="44.89193" lon="4.78041">
        <ele>458.414</ele>
        <time>2014-01-18T09:23:29Z</time>
      </trkpt>
      <trkpt lat="44.89203" lon="4.78018">
        <ele>457.081</ele>
        <time>2014-01-18T09:27:45Z</time>
      </trkpt>
      <trkpt lat="44.8921" lon="4.78">
        <ele>458.222</ele>
        <time>2014-01-18T09:27:52Z</time>
      </trkpt>
      <trkpt lat="44.89218" lon="4.77977">
        <ele>459.116</ele>
        <time>2014-01-18T09:28:01Z</time>
      </trkpt>
      <trkpt lat="44.89225" lon="4.7796">
        <ele>459.946</ele>
        <time>2014-01-18T09:28:08Z</time>
      </trkpt>
      <trkpt lat="44.8923" lon="4.77942">
        <ele>460.64</ele>
        <time>2014-01-18T09:28:16Z</time>
      </trkpt>
      <trkpt lat="44.89231" lon="4.77934">
        <ele>461.467</ele>
        <time>2014-01-18T09:28:19Z</time>
      </trkpt>
      <trkpt lat="44.89233" lon="4.7792">
        <ele>461.609</ele>
        <time>2014-01-18T09:28:24Z</time>
      </trkpt>
      <trkpt lat="44.89236" lon="4.77902">
        <ele>463.541</ele>
        <time>2014-01-18T09:28:31Z</time>
      </trkpt>
      <trkpt lat="44.89241" lon="4.77887">
        <ele>464.701</ele>
        <time>2014-01-18T09:28:37Z</time>
      </trkpt>
      <trkpt lat="44.89247" lon="4.77869">
        <ele>465.891</ele>
        <time>2014-01-18T09:28:45Z</time>
      </trkpt>
      <trkpt lat="44.89252" lon="4.77855">
        <ele>465.113</ele>
        <time>2014-01-18T09:28:52Z</time>
      </trkpt>
      <trkpt lat="44.89261" lon="4.77835">
        <ele>468.204</ele>
        <time>2014-01-18T09:29:01Z</time>
      </trkpt>
      <trkpt lat="44.8927" lon="4.77813">
        <ele>469.249</ele>
        <time>2014-01-18T09:29:10Z</time>
      </trkpt>
      <trkpt lat="44.89276" lon="4.77789">
        <ele>470.87</ele>
        <time>2014-01-18T09:29:19Z</time>
      </trkpt>
      <trkpt lat="44.89281" lon="4.77772">
        <ele>472.071</ele>
        <time>2014-01-18T09:29:26Z</time>
      </trkpt>
      <trkpt lat="44.89291" lon="4.77746">
        <ele>471.876</ele>
        <time>2014-01-18T09:29:35Z</time>
      </trkpt>
      <trkpt lat="44.89306" lon="4.77718">
        <ele>473.775</ele>
        <time>2014-01-18T09:29:46Z</time>
      </trkpt>
      <trkpt lat="44.89319" lon="4.77697">
        <ele>474.843</ele>
        <time>2014-01-18T09:29:55Z</time>
      </trkpt>
      <trkpt lat="44.8933" lon="4.77673">
        <ele>476.255</ele>
        <time>2014-01-18T09:30:04Z</time>
      </trkpt>
      <trkpt lat="44.89338" lon="4.77648">
        <ele>477.272</ele>
        <time>2014-01-18T09:30:13Z</time>
      </trkpt>
      <trkpt lat="44.89346" lon="4.77624">
        <ele>478.771</ele>
        <time>2014-01-18T09:30:22Z</time>
      </trkpt>
      <trkpt lat="44.89359" lon="4.77598">
        <ele>481.564</ele>
        <time>2014-01-18T09:30:33Z</time>
      </trkpt>
      <trkpt lat="44.8936" lon="4.77595">
        <ele>481.708</ele>
        <time>2014-01-18T09:30:34Z</time>
      </trkpt>
      <trkpt lat="44.89372" lon="4.77573">
        <ele>483.58</ele>
        <time>2014-01-18T09:30:43Z</time>
      </trkpt>
      <trkpt lat="44.89386" lon="4.77547">
        <ele>486.225</ele>
        <time>2014-01-18T09:30:53Z</time>
      </trkpt>
      <trkpt lat="44.89398" lon="4.77528">
        <ele>487.309</ele>
        <time>2014-01-18T09:31:02Z</time>
      </trkpt>
      <trkpt lat="44.89405" lon="4.77516">
        <ele>489.143</ele>
        <time>2014-01-18T09:31:09Z</time>
      </trkpt>
      <trkpt lat="44.8941" lon="4.77511">
        <ele>489.056</ele>
        <time>2014-01-18T09:31:16Z</time>
      </trkpt>
      <trkpt lat="44.89415" lon="4.77507">
        <ele>489.656</ele>
        <time>2014-01-18T09:31:23Z</time>
      </trkpt>
      <trkpt lat="44.89418" lon="4.77503">
        <ele>489.092</ele>
        <time>2014-01-18T09:31:26Z</time>
      </trkpt>
      <trkpt lat="44.89424" lon="4.77497">
        <ele>491.324</ele>
        <time>2014-01-18T09:31:30Z</time>
      </trkpt>
      <trkpt lat="44.89434" lon="4.77484">
        <ele>491.57</ele>
        <time>2014-01-18T09:31:38Z</time>
      </trkpt>
      <trkpt lat="44.89441" lon="4.77474">
        <ele>495.005</ele>
        <time>2014-01-18T09:31:44Z</time>
      </trkpt>
      <trkpt lat="44.89443" lon="4.77471">
        <ele>493.379</ele>
        <time>2014-01-18T09:31:46Z</time>
      </trkpt>
      <trkpt lat="44.89451" lon="4.77462">
        <ele>493.721</ele>
        <time>2014-01-18T09:31:52Z</time>
      </trkpt>
      <trkpt lat="44.89446" lon="4.77437">
        <ele>494.071</ele>
        <time>2014-01-18T09:31:56Z</time>
      </trkpt>
      <trkpt lat="44.89452" lon="4.77416">
        <ele>495.583</ele>
        <time>2014-01-18T09:32:03Z</time>
      </trkpt>
      <trkpt lat="44.89456" lon="4.774">
        <ele>496.872</ele>
        <time>2014-01-18T09:32:08Z</time>
      </trkpt>
      <trkpt lat="44.89463" lon="4.77374">
        <ele>496.845</ele>
        <time>2014-01-18T09:32:16Z</time>
      </trkpt>
      <trkpt lat="44.89471" lon="4.77339">
        <ele>496.418</ele>
        <time>2014-01-18T09:32:26Z</time>
      </trkpt>
      <trkpt lat="44.89479" lon="4.77308">
        <ele>497.71</ele>
        <time>2014-01-18T09:32:35Z</time>
      </trkpt>
      <trkpt lat="44.89485" lon="4.77277">
        <ele>499.188</ele>
        <time>2014-01-18T09:32:44Z</time>
      </trkpt>
      <trkpt lat="44.8949" lon="4.7725">
        <ele>501.037</ele>
        <time>2014-01-18T09:32:52Z</time>
      </trkpt>
      <trkpt lat="44.89498" lon="4.77214">
        <ele>502.117</ele>
        <time>2014-01-18T09:33:02Z</time>
      </trkpt>
      <trkpt lat="44.89511" lon="4.77173">
        <ele>502.645</ele>
        <time>2014-01-18T09:33:14Z</time>
      </trkpt>
      <trkpt lat="44.89523" lon="4.77144">
        <ele>504.732</ele>
        <time>2014-01-18T09:33:24Z</time>
      </trkpt>
      <trkpt lat="44.8954" lon="4.77115">
        <ele>506.727</ele>
        <time>2014-01-18T09:33:36Z</time>
      </trkpt>
      <trkpt lat="44.89555" lon="4.77086">
        <ele>509.349</ele>
        <time>2014-01-18T09:33:47Z</time>
      </trkpt>
      <trkpt lat="44.89565" lon="4.77063">
        <ele>509.955</ele>
        <time>2014-01-18T09:33:56Z</time>
      </trkpt>
      <trkpt lat="44.89579" lon="4.77033">
        <ele>512.984</ele>
        <time>2014-01-18T09:34:07Z</time>
      </trkpt>
      <trkpt lat="44.89585" lon="4.7702">
        <ele>514.547</ele>
        <time>2014-01-18T09:34:12Z</time>
      </trkpt>
      <trkpt lat="44.89596" lon="4.76995">
        <ele>515.717</ele>
        <time>2014-01-18T09:34:21Z</time>
      </trkpt>
      <trkpt lat="44.89608" lon="4.76963">
        <ele>517.573</ele>
        <time>2014-01-18T09:34:32Z</time>
      </trkpt>
      <trkpt lat="44.89616" lon="4.76947">
        <ele>520.066</ele>
        <time>2014-01-18T09:34:38Z</time>
      </trkpt>
      <trkpt lat="44.89628" lon="4.76921">
        <ele>521.663</ele>
        <time>2014-01-18T09:34:47Z</time>
      </trkpt>
      <trkpt lat="44.89638" lon="4.76897">
        <ele>522.677</ele>
        <time>2014-01-18T09:34:56Z</time>
      </trkpt>
      <trkpt lat="44.89648" lon="4.76876">
        <ele>523.657</ele>
        <time>2014-01-18T09:35:03Z</time>
      </trkpt>
      <trkpt lat="44.89654" lon="4.76847">
        <ele>522.495</ele>
        <time>2014-01-18T09:35:10Z</time>
      </trkpt>
      <trkpt lat="44.89664" lon="4.76837">
        <ele>521.739</ele>
        <time>2014-01-18T09:35:14Z</time>
      </trkpt>
      <trkpt lat="44.89699" lon="4.76842">
        <ele>520.317</ele>
        <time>2014-01-18T09:35:22Z</time>
      </trkpt>
      <trkpt lat="44.89709" lon="4.76842">
        <ele>519.656</ele>
        <time>2014-01-18T09:35:24Z</time>
      </trkpt>
      <trkpt lat="44.89724" lon="4.76841">
        <ele>518.17</ele>
        <time>2014-01-18T09:35:27Z</time>
      </trkpt>
      <trkpt lat="44.89734" lon="4.76839">
        <ele>518.01</ele>
        <time>2014-01-18T09:35:29Z</time>
      </trkpt>
      <trkpt lat="44.89759" lon="4.76839">
        <ele>516.335</ele>
        <time>2014-01-18T09:35:34Z</time>
      </trkpt>
      <trkpt lat="44.89764" lon="4.76841">
        <ele>516.803</ele>
        <time>2014-01-18T09:35:35Z</time>
      </trkpt>
      <trkpt lat="44.89786" lon="4.76847">
        <ele>514.908</ele>
        <time>2014-01-18T09:35:39Z</time>
      </trkpt>
      <trkpt lat="44.8979" lon="4.76853">
        <ele>514.761</ele>
        <time>2014-01-18T09:35:40Z</time>
      </trkpt>
      <trkpt lat="44.89795" lon="4.7687">
        <ele>513.056</ele>
        <time>2014-01-18T09:35:42Z</time>
      </trkpt>
      <trkpt lat="44.89798" lon="4.76877">
        <ele>512.596</ele>
        <time>2014-01-18T09:35:43Z</time>
      </trkpt>
      <trkpt lat="44.89801" lon="4.76923">
        <ele>510.524</ele>
        <time>2014-01-18T09:35:48Z</time>
      </trkpt>
      <trkpt lat="44.89799" lon="4.76963">
        <ele>507.984</ele>
        <time>2014-01-18T09:35:53Z</time>
      </trkpt>
      <trkpt lat="44.89806" lon="4.77005">
        <ele>507.118</ele>
        <time>2014-01-18T09:35:58Z</time>
      </trkpt>
      <trkpt lat="44.89816" lon="4.77034">
        <ele>506.693</ele>
        <time>2014-01-18T09:36:02Z</time>
      </trkpt>
      <trkpt lat="44.89826" lon="4.7704">
        <ele>507.263</ele>
        <time>2014-01-18T09:36:04Z</time>
      </trkpt>
      <trkpt lat="44.89855" lon="4.77049">
        <ele>507.365</ele>
        <time>2014-01-18T09:36:10Z</time>
      </trkpt>
      <trkpt lat="44.89873" lon="4.77055">
        <ele>507.063</ele>
        <time>2014-01-18T09:36:15Z</time>
      </trkpt>
      <trkpt lat="44.89889" lon="4.77075">
        <ele>507.108</ele>
        <time>2014-01-18T09:36:19Z</time>
      </trkpt>
      <trkpt lat="44.8989" lon="4.77081">
        <ele>506.256</ele>
        <time>2014-01-18T09:36:20Z</time>
      </trkpt>
      <trkpt lat="44.89898" lon="4.77152">
        <ele>507.342</ele>
        <time>2014-01-18T09:36:30Z</time>
      </trkpt>
      <trkpt lat="44.89901" lon="4.77179">
        <ele>508.626</ele>
        <time>2014-01-18T09:36:35Z</time>
      </trkpt>
      <trkpt lat="44.89904" lon="4.77193">
        <ele>507.279</ele>
        <time>2014-01-18T09:36:38Z</time>
      </trkpt>
      <trkpt lat="44.8991" lon="4.77203">
        <ele>509.911</ele>
        <time>2014-01-18T09:36:43Z</time>
      </trkpt>
      <trkpt lat="44.89912" lon="4.77205">
        <ele>508.973</ele>
        <time>2014-01-18T09:36:44Z</time>
      </trkpt>
      <trkpt lat="44.89914" lon="4.77207">
        <ele>509.819</ele>
        <time>2014-01-18T09:36:47Z</time>
      </trkpt>
      <trkpt lat="44.89918" lon="4.77209">
        <ele>510.323</ele>
        <time>2014-01-18T09:36:53Z</time>
      </trkpt>
      <trkpt lat="44.89921" lon="4.77208">
        <ele>511.36</ele>
        <time>2014-01-18T09:37:27Z</time>
      </trkpt>
      <trkpt lat="44.89912" lon="4.77228">
        <ele>510.914</ele>
        <time>2014-01-18T09:37:32Z</time>
      </trkpt>
      <trkpt lat="44.89911" lon="4.77231">
        <ele>510.316</ele>
        <time>2014-01-18T09:37:34Z</time>
      </trkpt>
      <trkpt lat="44.89908" lon="4.77252">
        <ele>510.107</ele>
        <time>2014-01-18T09:37:41Z</time>
      </trkpt>
      <trkpt lat="44.89906" lon="4.77275">
        <ele>510.034</ele>
        <time>2014-01-18T09:37:46Z</time>
      </trkpt>
      <trkpt lat="44.89906" lon="4.77293">
        <ele>507.872</ele>
        <time>2014-01-18T09:37:49Z</time>
      </trkpt>
      <trkpt lat="44.89902" lon="4.77321">
        <ele>508.932</ele>
        <time>2014-01-18T09:37:55Z</time>
      </trkpt>
      <trkpt lat="44.89902" lon="4.77352">
        <ele>510.397</ele>
        <time>2014-01-18T09:38:02Z</time>
      </trkpt>
      <trkpt lat="44.89904" lon="4.77372">
        <ele>509.145</ele>
        <time>2014-01-18T09:38:08Z</time>
      </trkpt>
      <trkpt lat="44.89905" lon="4.77377">
        <ele>509.176</ele>
        <time>2014-01-18T09:38:09Z</time>
      </trkpt>
      <trkpt lat="44.89906" lon="4.77381">
        <ele>508.729</ele>
        <time>2014-01-18T09:38:10Z</time>
      </trkpt>
      <trkpt lat="44.89904" lon="4.77425">
        <ele>509.163</ele>
        <time>2014-01-18T09:38:16Z</time>
      </trkpt>
      <trkpt lat="44.89902" lon="4.77454">
        <ele>508.452</ele>
        <time>2014-01-18T09:38:21Z</time>
      </trkpt>
      <trkpt lat="44.89902" lon="4.77463">
        <ele>506.936</ele>
        <time>2014-01-18T09:38:24Z</time>
      </trkpt>
      <trkpt lat="44.89901" lon="4.77481">
        <ele>505.981</ele>
        <time>2014-01-18T09:38:29Z</time>
      </trkpt>
      <trkpt lat="44.89899" lon="4.77492">
        <ele>506.554</ele>
        <time>2014-01-18T09:38:31Z</time>
      </trkpt>
      <trkpt lat="44.89898" lon="4.77503">
        <ele>504.923</ele>
        <time>2014-01-18T09:38:33Z</time>
      </trkpt>
      <trkpt lat="44.89893" lon="4.7752">
        <ele>503.3</ele>
        <time>2014-01-18T09:38:36Z</time>
      </trkpt>
      <trkpt lat="44.89891" lon="4.77528">
        <ele>501.849</ele>
        <time>2014-01-18T09:38:40Z</time>
      </trkpt>
      <trkpt lat="44.89899" lon="4.77577">
        <ele>499.514</ele>
        <time>2014-01-18T09:38:45Z</time>
      </trkpt>
      <trkpt lat="44.89903" lon="4.77582">
        <ele>498.829</ele>
        <time>2014-01-18T09:38:46Z</time>
      </trkpt>
      <trkpt lat="44.8991" lon="4.77595">
        <ele>499.758</ele>
        <time>2014-01-18T09:38:48Z</time>
      </trkpt>
      <trkpt lat="44.89932" lon="4.77616">
        <ele>495.446</ele>
        <time>2014-01-18T09:38:53Z</time>
      </trkpt>
      <trkpt lat="44.89942" lon="4.77626">
        <ele>495.506</ele>
        <time>2014-01-18T09:38:55Z</time>
      </trkpt>
      <trkpt lat="44.89954" lon="4.77632">
        <ele>493.67</ele>
        <time>2014-01-18T09:38:57Z</time>
      </trkpt>
      <trkpt lat="44.89973" lon="4.77635">
        <ele>492.476</ele>
        <time>2014-01-18T09:39:00Z</time>
      </trkpt>
      <trkpt lat="44.8999" lon="4.7764">
        <ele>490.561</ele>
        <time>2014-01-18T09:39:03Z</time>
      </trkpt>
      <trkpt lat="44.89996" lon="4.77644">
        <ele>490.415</ele>
        <time>2014-01-18T09:39:04Z</time>
      </trkpt>
      <trkpt lat="44.90013" lon="4.77657">
        <ele>488.012</ele>
        <time>2014-01-18T09:39:07Z</time>
      </trkpt>
      <trkpt lat="44.9003" lon="4.77682">
        <ele>486.243</ele>
        <time>2014-01-18T09:39:11Z</time>
      </trkpt>
      <trkpt lat="44.90053" lon="4.77709">
        <ele>483.804</ele>
        <time>2014-01-18T09:39:16Z</time>
      </trkpt>
      <trkpt lat="44.90068" lon="4.7774">
        <ele>480.065</ele>
        <time>2014-01-18T09:39:21Z</time>
      </trkpt>
      <trkpt lat="44.90072" lon="4.77796">
        <ele>478.141</ele>
        <time>2014-01-18T09:39:27Z</time>
      </trkpt>
      <trkpt lat="44.90078" lon="4.77874">
        <ele>474.612</ele>
        <time>2014-01-18T09:39:34Z</time>
      </trkpt>
      <trkpt lat="44.90081" lon="4.77896">
        <ele>474.247</ele>
        <time>2014-01-18T09:39:36Z</time>
      </trkpt>
      <trkpt lat="44.90085" lon="4.77918">
        <ele>473.355</ele>
        <time>2014-01-18T09:39:38Z</time>
      </trkpt>
      <trkpt lat="44.90085" lon="4.77974">
        <ele>471.252</ele>
        <time>2014-01-18T09:39:43Z</time>
      </trkpt>
      <trkpt lat="44.90085" lon="4.7803">
        <ele>466.598</ele>
        <time>2014-01-18T09:39:49Z</time>
      </trkpt>
      <trkpt lat="44.90085" lon="4.78056">
        <ele>465.998</ele>
        <time>2014-01-18T09:39:55Z</time>
      </trkpt>
      <trkpt lat="44.90085" lon="4.78062">
        <ele>465.853</ele>
        <time>2014-01-18T09:40:00Z</time>
      </trkpt>
      <trkpt lat="44.90053" lon="4.78126">
        <ele>461.68</ele>
        <time>2014-01-18T09:42:32Z</time>
      </trkpt>
      <trkpt lat="44.90041" lon="4.78146">
        <ele>459.033</ele>
        <time>2014-01-18T09:42:36Z</time>
      </trkpt>
      <trkpt lat="44.90036" lon="4.78159">
        <ele>456.55</ele>
        <time>2014-01-18T09:42:39Z</time>
      </trkpt>
      <trkpt lat="44.90026" lon="4.78171">
        <ele>453.698</ele>
        <time>2014-01-18T09:42:43Z</time>
      </trkpt>
      <trkpt lat="44.90025" lon="4.78174">
        <ele>452.963</ele>
        <time>2014-01-18T09:42:44Z</time>
      </trkpt>
      <trkpt lat="44.90026" lon="4.78193">
        <ele>450.327</ele>
        <time>2014-01-18T09:42:49Z</time>
      </trkpt>
      <trkpt lat="44.90024" lon="4.78196">
        <ele>450.18</ele>
        <time>2014-01-18T09:42:50Z</time>
      </trkpt>
      <trkpt lat="44.90015" lon="4.78208">
        <ele>447.389</ele>
        <time>2014-01-18T09:42:54Z</time>
      </trkpt>
      <trkpt lat="44.90007" lon="4.7821">
        <ele>446.338</ele>
        <time>2014-01-18T09:42:56Z</time>
      </trkpt>
      <trkpt lat="44.89996" lon="4.78213">
        <ele>445.366</ele>
        <time>2014-01-18T09:42:58Z</time>
      </trkpt>
      <trkpt lat="44.89984" lon="4.78215">
        <ele>442.905</ele>
        <time>2014-01-18T09:43:00Z</time>
      </trkpt>
      <trkpt lat="44.89968" lon="4.78227">
        <ele>438.482</ele>
        <time>2014-01-18T09:43:04Z</time>
      </trkpt>
      <trkpt lat="44.8996" lon="4.78242">
        <ele>436.143</ele>
        <time>2014-01-18T09:43:07Z</time>
      </trkpt>
      <trkpt lat="44.89955" lon="4.7826">
        <ele>433.566</ele>
        <time>2014-01-18T09:43:11Z</time>
      </trkpt>
      <trkpt lat="44.89955" lon="4.78266">
        <ele>432.86</ele>
        <time>2014-01-18T09:43:14Z</time>
      </trkpt>
      <trkpt lat="44.89962" lon="4.78274">
        <ele>431.259</ele>
        <time>2014-01-18T09:43:19Z</time>
      </trkpt>
      <trkpt lat="44.89965" lon="4.78276">
        <ele>431.733</ele>
        <time>2014-01-18T09:43:24Z</time>
      </trkpt>
      <trkpt lat="44.89971" lon="4.78276">
        <ele>430.836</ele>
        <time>2014-01-18T09:43:56Z</time>
      </trkpt>
      <trkpt lat="44.89973" lon="4.78282">
        <ele>429.998</ele>
        <time>2014-01-18T09:44:00Z</time>
      </trkpt>
      <trkpt lat="44.89973" lon="4.78294">
        <ele>427.944</ele>
        <time>2014-01-18T09:44:04Z</time>
      </trkpt>
      <trkpt lat="44.89968" lon="4.78302">
        <ele>427.232</ele>
        <time>2014-01-18T09:44:06Z</time>
      </trkpt>
      <trkpt lat="44.89952" lon="4.78321">
        <ele>424.659</ele>
        <time>2014-01-18T09:44:10Z</time>
      </trkpt>
      <trkpt lat="44.8994" lon="4.78336">
        <ele>421.551</ele>
        <time>2014-01-18T09:44:13Z</time>
      </trkpt>
      <trkpt lat="44.89927" lon="4.78348">
        <ele>419.882</ele>
        <time>2014-01-18T09:44:16Z</time>
      </trkpt>
      <trkpt lat="44.8992" lon="4.78352">
        <ele>419.713</ele>
        <time>2014-01-18T09:44:18Z</time>
      </trkpt>
      <trkpt lat="44.89902" lon="4.78342">
        <ele>416.297</ele>
        <time>2014-01-18T09:44:23Z</time>
      </trkpt>
      <trkpt lat="44.89896" lon="4.7833">
        <ele>411.547</ele>
        <time>2014-01-18T09:44:27Z</time>
      </trkpt>
      <trkpt lat="44.89888" lon="4.78345">
        <ele>408.197</ele>
        <time>2014-01-18T09:44:31Z</time>
      </trkpt>
      <trkpt lat="44.89885" lon="4.78388">
        <ele>402.514</ele>
        <time>2014-01-18T09:44:37Z</time>
      </trkpt>
      <trkpt lat="44.899" lon="4.78411">
        <ele>398.882</ele>
        <time>2014-01-18T09:44:41Z</time>
      </trkpt>
      <trkpt lat="44.8991" lon="4.78414">
        <ele>398.209</ele>
        <time>2014-01-18T09:44:43Z</time>
      </trkpt>
      <trkpt lat="44.89916" lon="4.78415">
        <ele>397.7</ele>
        <time>2014-01-18T09:44:45Z</time>
      </trkpt>
      <trkpt lat="44.89923" lon="4.78419">
        <ele>396.632</ele>
        <time>2014-01-18T09:44:47Z</time>
      </trkpt>
      <trkpt lat="44.89949" lon="4.78423">
        <ele>393.213</ele>
        <time>2014-01-18T09:44:53Z</time>
      </trkpt>
      <trkpt lat="44.8997" lon="4.78429">
        <ele>389.289</ele>
        <time>2014-01-18T09:44:58Z</time>
      </trkpt>
      <trkpt lat="44.89982" lon="4.78424">
        <ele>388.162</ele>
        <time>2014-01-18T09:45:02Z</time>
      </trkpt>
      <trkpt lat="44.89988" lon="4.78424">
        <ele>387.846</ele>
        <time>2014-01-18T09:45:09Z</time>
      </trkpt>
      <trkpt lat="44.89993" lon="4.78424">
        <ele>388.555</ele>
        <time>2014-01-18T09:45:13Z</time>
      </trkpt>
      <trkpt lat="44.90006" lon="4.78429">
        <ele>386.653</ele>
        <time>2014-01-18T09:45:18Z</time>
      </trkpt>
      <trkpt lat="44.90008" lon="4.78431">
        <ele>386.874</ele>
        <time>2014-01-18T09:45:19Z</time>
      </trkpt>
      <trkpt lat="44.90016" lon="4.78442">
        <ele>386.316</ele>
        <time>2014-01-18T09:45:23Z</time>
      </trkpt>
      <trkpt lat="44.90028" lon="4.78457">
        <ele>385.882</ele>
        <time>2014-01-18T09:45:28Z</time>
      </trkpt>
      <trkpt lat="44.90038" lon="4.78471">
        <ele>382.673</ele>
        <time>2014-01-18T09:45:35Z</time>
      </trkpt>
      <trkpt lat="44.90044" lon="4.78476">
        <ele>383.148</ele>
        <time>2014-01-18T09:45:56Z</time>
      </trkpt>
      <trkpt lat="44.90045" lon="4.78477">
        <ele>383.071</ele>
        <time>2014-01-18T09:45:57Z</time>
      </trkpt>
      <trkpt lat="44.90046" lon="4.78479">
        <ele>382.295</ele>
        <time>2014-01-18T09:45:59Z</time>
      </trkpt>
      <trkpt lat="44.90045" lon="4.78481">
        <ele>382.106</ele>
        <time>2014-01-18T09:46:06Z</time>
      </trkpt>
      <trkpt lat="44.9004" lon="4.78485">
        <ele>382.727</ele>
        <time>2014-01-18T09:57:40Z</time>
      </trkpt>
      <trkpt lat="44.9004" lon="4.78489">
        <ele>380.427</ele>
        <time>2014-01-18T09:57:44Z</time>
      </trkpt>
      <trkpt lat="44.90041" lon="4.7849">
        <ele>380.125</ele>
        <time>2014-01-18T09:57:45Z</time>
      </trkpt>
      <trkpt lat="44.90035" lon="4.7849">
        <ele>379.808</ele>
        <time>2014-01-18T09:57:51Z</time>
      </trkpt>
      <trkpt lat="44.90033" lon="4.78489">
        <ele>379.943</ele>
        <time>2014-01-18T09:57:52Z</time>
      </trkpt>
      <trkpt lat="44.90034" lon="4.78498">
        <ele>379.286</ele>
        <time>2014-01-18T09:57:56Z</time>
      </trkpt>
      <trkpt lat="44.90044" lon="4.78507">
        <ele>377.747</ele>
        <time>2014-01-18T09:58:00Z</time>
      </trkpt>
      <trkpt lat="44.90043" lon="4.78509">
        <ele>376.395</ele>
        <time>2014-01-18T09:58:02Z</time>
      </trkpt>
      <trkpt lat="44.90038" lon="4.78515">
        <ele>374.607</ele>
        <time>2014-01-18T09:58:05Z</time>
      </trkpt>
      <trkpt lat="44.90045" lon="4.78525">
        <ele>373.015</ele>
        <time>2014-01-18T09:58:08Z</time>
      </trkpt>
      <trkpt lat="44.90048" lon="4.7853">
        <ele>370.584</ele>
        <time>2014-01-18T09:58:11Z</time>
      </trkpt>
      <trkpt lat="44.90036" lon="4.78537">
        <ele>369.804</ele>
        <time>2014-01-18T09:58:16Z</time>
      </trkpt>
      <trkpt lat="44.90033" lon="4.78545">
        <ele>368.506</ele>
        <time>2014-01-18T09:58:20Z</time>
      </trkpt>
      <trkpt lat="44.90039" lon="4.78553">
        <ele>366.539</ele>
        <time>2014-01-18T09:58:23Z</time>
      </trkpt>
      <trkpt lat="44.9005" lon="4.78561">
        <ele>363.241</ele>
        <time>2014-01-18T09:58:30Z</time>
      </trkpt>
      <trkpt lat="44.90048" lon="4.78565">
        <ele>362.922</ele>
        <time>2014-01-18T09:58:31Z</time>
      </trkpt>
      <trkpt lat="44.90038" lon="4.78577">
        <ele>362.138</ele>
        <time>2014-01-18T09:58:34Z</time>
      </trkpt>
      <trkpt lat="44.90018" lon="4.78577">
        <ele>358.723</ele>
        <time>2014-01-18T09:58:39Z</time>
      </trkpt>
      <trkpt lat="44.90015" lon="4.78573">
        <ele>358.514</ele>
        <time>2014-01-18T09:58:40Z</time>
      </trkpt>
      <trkpt lat="44.90011" lon="4.78565">
        <ele>357.481</ele>
        <time>2014-01-18T09:58:41Z</time>
      </trkpt>
      <trkpt lat="44.90006" lon="4.78554">
        <ele>356.961</ele>
        <time>2014-01-18T09:58:43Z</time>
      </trkpt>
      <trkpt lat="44.90005" lon="4.78558">
        <ele>355.376</ele>
        <time>2014-01-18T09:58:47Z</time>
      </trkpt>
      <trkpt lat="44.90007" lon="4.78567">
        <ele>355.683</ele>
        <time>2014-01-18T09:58:49Z</time>
      </trkpt>
      <trkpt lat="44.90012" lon="4.78585">
        <ele>355.968</ele>
        <time>2014-01-18T09:58:54Z</time>
      </trkpt>
      <trkpt lat="44.90016" lon="4.78614">
        <ele>355.396</ele>
        <time>2014-01-18T09:59:00Z</time>
      </trkpt>
      <trkpt lat="44.90018" lon="4.78639">
        <ele>352.929</ele>
        <time>2014-01-18T09:59:04Z</time>
      </trkpt>
      <trkpt lat="44.90026" lon="4.78658">
        <ele>350.517</ele>
        <time>2014-01-18T09:59:08Z</time>
      </trkpt>
      <trkpt lat="44.90057" lon="4.78729">
        <ele>348.787</ele>
        <time>2014-01-18T09:59:10Z</time>
      </trkpt>
      <trkpt lat="44.90096" lon="4.78701">
        <ele>338.893</ele>
        <time>2014-01-18T09:59:20Z</time>
      </trkpt>
      <trkpt lat="44.90105" lon="4.78681">
        <ele>337.268</ele>
        <time>2014-01-18T09:59:22Z</time>
      </trkpt>
      <trkpt lat="44.90107" lon="4.78672">
        <ele>336.548</ele>
        <time>2014-01-18T09:59:24Z</time>
      </trkpt>
      <trkpt lat="44.90108" lon="4.78666">
        <ele>336.272</ele>
        <time>2014-01-18T09:59:26Z</time>
      </trkpt>
      <trkpt lat="44.90109" lon="4.78664">
        <ele>335</ele>
        <time>2014-01-18T09:59:29Z</time>
      </trkpt>
      <trkpt lat="44.90107" lon="4.78669">
        <ele>334.213</ele>
        <time>2014-01-18T09:59:31Z</time>
      </trkpt>
      <trkpt lat="44.90105" lon="4.78678">
        <ele>331.489</ele>
        <time>2014-01-18T09:59:35Z</time>
      </trkpt>
      <trkpt lat="44.90104" lon="4.78683">
        <ele>330.87</ele>
        <time>2014-01-18T09:59:39Z</time>
      </trkpt>
      <trkpt lat="44.90106" lon="4.78673">
        <ele>330.943</ele>
        <time>2014-01-18T10:02:11Z</time>
      </trkpt>
      <trkpt lat="44.90111" lon="4.78659">
        <ele>330.585</ele>
        <time>2014-01-18T10:02:13Z</time>
      </trkpt>
      <trkpt lat="44.9012" lon="4.78636">
        <ele>330.227</ele>
        <time>2014-01-18T10:02:18Z</time>
      </trkpt>
      <trkpt lat="44.90129" lon="4.78614">
        <ele>328.458</ele>
        <time>2014-01-18T10:02:22Z</time>
      </trkpt>
      <trkpt lat="44.90146" lon="4.78583">
        <ele>325.233</ele>
        <time>2014-01-18T10:02:27Z</time>
      </trkpt>
      <trkpt lat="44.90159" lon="4.78561">
        <ele>323.475</ele>
        <time>2014-01-18T10:02:30Z</time>
      </trkpt>
      <trkpt lat="44.90169" lon="4.7854">
        <ele>321.443</ele>
        <time>2014-01-18T10:02:33Z</time>
      </trkpt>
      <trkpt lat="44.90175" lon="4.78528">
        <ele>319.927</ele>
        <time>2014-01-18T10:02:35Z</time>
      </trkpt>
      <trkpt lat="44.90182" lon="4.78516">
        <ele>318.938</ele>
        <time>2014-01-18T10:02:37Z</time>
      </trkpt>
      <trkpt lat="44.9019" lon="4.78506">
        <ele>318.448</ele>
        <time>2014-01-18T10:02:39Z</time>
      </trkpt>
      <trkpt lat="44.90211" lon="4.78488">
        <ele>317.88</ele>
        <time>2014-01-18T10:02:44Z</time>
      </trkpt>
      <trkpt lat="44.90227" lon="4.78478">
        <ele>316.833</ele>
        <time>2014-01-18T10:02:48Z</time>
      </trkpt>
      <trkpt lat="44.9025" lon="4.78456">
        <ele>315.98</ele>
        <time>2014-01-18T10:02:54Z</time>
      </trkpt>
      <trkpt lat="44.90253" lon="4.78452">
        <ele>316.289</ele>
        <time>2014-01-18T10:02:55Z</time>
      </trkpt>
      <trkpt lat="44.90274" lon="4.78424">
        <ele>318.096</ele>
        <time>2014-01-18T10:03:00Z</time>
      </trkpt>
      <trkpt lat="44.90292" lon="4.78407">
        <ele>317.712</ele>
        <time>2014-01-18T10:03:04Z</time>
      </trkpt>
      <trkpt lat="44.90302" lon="4.78402">
        <ele>315.833</ele>
        <time>2014-01-18T10:03:06Z</time>
      </trkpt>
      <trkpt lat="44.90341" lon="4.78402">
        <ele>308.405</ele>
        <time>2014-01-18T10:03:12Z</time>
      </trkpt>
      <trkpt lat="44.90348" lon="4.78404">
        <ele>307.556</ele>
        <time>2014-01-18T10:03:13Z</time>
      </trkpt>
      <trkpt lat="44.90377" lon="4.78418">
        <ele>299.658</ele>
        <time>2014-01-18T10:03:18Z</time>
      </trkpt>
      <trkpt lat="44.90385" lon="4.78423">
        <ele>299.504</ele>
        <time>2014-01-18T10:03:19Z</time>
      </trkpt>
      <trkpt lat="44.90403" lon="4.7844">
        <ele>295.844</ele>
        <time>2014-01-18T10:03:22Z</time>
      </trkpt>
      <trkpt lat="44.90414" lon="4.78452">
        <ele>293.801</ele>
        <time>2014-01-18T10:03:24Z</time>
      </trkpt>
      <trkpt lat="44.90434" lon="4.78465">
        <ele>289.046</ele>
        <time>2014-01-18T10:03:27Z</time>
      </trkpt>
      <trkpt lat="44.90446" lon="4.78453">
        <ele>287.465</ele>
        <time>2014-01-18T10:03:29Z</time>
      </trkpt>
      <trkpt lat="44.90453" lon="4.78406">
        <ele>280.303</ele>
        <time>2014-01-18T10:03:35Z</time>
      </trkpt>
      <trkpt lat="44.90453" lon="4.78391">
        <ele>277.611</ele>
        <time>2014-01-18T10:03:37Z</time>
      </trkpt>
      <trkpt lat="44.90451" lon="4.78363">
        <ele>274.776</ele>
        <time>2014-01-18T10:03:41Z</time>
      </trkpt>
      <trkpt lat="44.90454" lon="4.7834">
        <ele>271.176</ele>
        <time>2014-01-18T10:03:44Z</time>
      </trkpt>
      <trkpt lat="44.9046" lon="4.78296">
        <ele>267.976</ele>
        <time>2014-01-18T10:03:49Z</time>
      </trkpt>
      <trkpt lat="44.90466" lon="4.78276">
        <ele>266.497</ele>
        <time>2014-01-18T10:03:51Z</time>
      </trkpt>
      <trkpt lat="44.90481" lon="4.78243">
        <ele>264.33</ele>
        <time>2014-01-18T10:03:55Z</time>
      </trkpt>
      <trkpt lat="44.90492" lon="4.78231">
        <ele>262.52</ele>
        <time>2014-01-18T10:03:57Z</time>
      </trkpt>
      <trkpt lat="44.90512" lon="4.78216">
        <ele>259.221</ele>
        <time>2014-01-18T10:04:00Z</time>
      </trkpt>
      <trkpt lat="44.90527" lon="4.78207">
        <ele>258.109</ele>
        <time>2014-01-18T10:04:02Z</time>
      </trkpt>
      <trkpt lat="44.90545" lon="4.78204">
        <ele>255.448</ele>
        <time>2014-01-18T10:04:05Z</time>
      </trkpt>
      <trkpt lat="44.90557" lon="4.78207">
        <ele>254.752</ele>
        <time>2014-01-18T10:04:09Z</time>
      </trkpt>
      <trkpt lat="44.9056" lon="4.78209">
        <ele>253.892</ele>
        <time>2014-01-18T10:04:17Z</time>
      </trkpt>
      <trkpt lat="44.90577" lon="4.78222">
        <ele>253.006</ele>
        <time>2014-01-18T10:04:22Z</time>
      </trkpt>
      <trkpt lat="44.90579" lon="4.78223">
        <ele>254.258</ele>
        <time>2014-01-18T10:04:27Z</time>
      </trkpt>
      <trkpt lat="44.90587" lon="4.78222">
        <ele>255.991</ele>
        <time>2014-01-18T10:07:06Z</time>
      </trkpt>
      <trkpt lat="44.90598" lon="4.78216">
        <ele>256.42</ele>
        <time>2014-01-18T10:07:13Z</time>
      </trkpt>
      <trkpt lat="44.90608" lon="4.78204">
        <ele>257.494</ele>
        <time>2014-01-18T10:07:20Z</time>
      </trkpt>
      <trkpt lat="44.90613" lon="4.78196">
        <ele>258.513</ele>
        <time>2014-01-18T10:07:27Z</time>
      </trkpt>
      <trkpt lat="44.9062" lon="4.78186">
        <ele>260.003</ele>
        <time>2014-01-18T10:07:35Z</time>
      </trkpt>
      <trkpt lat="44.90626" lon="4.78179">
        <ele>261.81</ele>
        <time>2014-01-18T10:07:42Z</time>
      </trkpt>
      <trkpt lat="44.90629" lon="4.78174">
        <ele>262.33</ele>
        <time>2014-01-18T10:07:48Z</time>
      </trkpt>
      <trkpt lat="44.90634" lon="4.78166">
        <ele>262.925</ele>
        <time>2014-01-18T10:07:52Z</time>
      </trkpt>
      <trkpt lat="44.9064" lon="4.78159">
        <ele>263.069</ele>
        <time>2014-01-18T10:07:59Z</time>
      </trkpt>
      <trkpt lat="44.90644" lon="4.78149">
        <ele>264.205</ele>
        <time>2014-01-18T10:08:05Z</time>
      </trkpt>
      <trkpt lat="44.90646" lon="4.78145">
        <ele>264.529</ele>
        <time>2014-01-18T10:08:13Z</time>
      </trkpt>
      <trkpt lat="44.90653" lon="4.78128">
        <ele>265.569</ele>
        <time>2014-01-18T10:08:22Z</time>
      </trkpt>
      <trkpt lat="44.90656" lon="4.78118">
        <ele>266.916</ele>
        <time>2014-01-18T10:08:30Z</time>
      </trkpt>
      <trkpt lat="44.9066" lon="4.78107">
        <ele>268.437</ele>
        <time>2014-01-18T10:08:38Z</time>
      </trkpt>
      <trkpt lat="44.90663" lon="4.78099">
        <ele>269.9</ele>
        <time>2014-01-18T10:08:44Z</time>
      </trkpt>
      <trkpt lat="44.90663" lon="4.78098">
        <ele>270.181</ele>
        <time>2014-01-18T10:08:45Z</time>
      </trkpt>
      <trkpt lat="44.90671" lon="4.78086">
        <ele>272.602</ele>
        <time>2014-01-18T10:08:53Z</time>
      </trkpt>
      <trkpt lat="44.90679" lon="4.78088">
        <ele>274.193</ele>
        <time>2014-01-18T10:08:59Z</time>
      </trkpt>
      <trkpt lat="44.9068" lon="4.78102">
        <ele>275.012</ele>
        <time>2014-01-18T10:09:06Z</time>
      </trkpt>
      <trkpt lat="44.90677" lon="4.78116">
        <ele>277.315</ele>
        <time>2014-01-18T10:09:13Z</time>
      </trkpt>
      <trkpt lat="44.90679" lon="4.78129">
        <ele>277.73</ele>
        <time>2014-01-18T10:09:19Z</time>
      </trkpt>
      <trkpt lat="44.90679" lon="4.78149">
        <ele>279.263</ele>
        <time>2014-01-18T10:09:28Z</time>
      </trkpt>
      <trkpt lat="44.90679" lon="4.78166">
        <ele>280.107</ele>
        <time>2014-01-18T10:09:35Z</time>
      </trkpt>
      <trkpt lat="44.90678" lon="4.78175">
        <ele>281.654</ele>
        <time>2014-01-18T10:09:39Z</time>
      </trkpt>
      <trkpt lat="44.90676" lon="4.78199">
        <ele>283.558</ele>
        <time>2014-01-18T10:09:49Z</time>
      </trkpt>
      <trkpt lat="44.90673" lon="4.78218">
        <ele>284.662</ele>
        <time>2014-01-18T10:09:57Z</time>
      </trkpt>
      <trkpt lat="44.90669" lon="4.78236">
        <ele>285.43</ele>
        <time>2014-01-18T10:10:04Z</time>
      </trkpt>
      <trkpt lat="44.90664" lon="4.78252">
        <ele>286.774</ele>
        <time>2014-01-18T10:10:11Z</time>
      </trkpt>
      <trkpt lat="44.9066" lon="4.78271">
        <ele>288.187</ele>
        <time>2014-01-18T10:10:19Z</time>
      </trkpt>
      <trkpt lat="44.90656" lon="4.78283">
        <ele>289.589</ele>
        <time>2014-01-18T10:10:24Z</time>
      </trkpt>
      <trkpt lat="44.90656" lon="4.78288">
        <ele>290.552</ele>
        <time>2014-01-18T10:10:31Z</time>
      </trkpt>
      <trkpt lat="44.90655" lon="4.78294">
        <ele>291.016</ele>
        <time>2014-01-18T10:10:37Z</time>
      </trkpt>
      <trkpt lat="44.90672" lon="4.78282">
        <ele>291.24</ele>
        <time>2014-01-18T10:11:56Z</time>
      </trkpt>
      <trkpt lat="44.90678" lon="4.78271">
        <ele>292.524</ele>
        <time>2014-01-18T10:12:01Z</time>
      </trkpt>
      <trkpt lat="44.90682" lon="4.78262">
        <ele>294.427</ele>
        <time>2014-01-18T10:12:05Z</time>
      </trkpt>
      <trkpt lat="44.90686" lon="4.78249">
        <ele>295.196</ele>
        <time>2014-01-18T10:12:12Z</time>
      </trkpt>
      <trkpt lat="44.90691" lon="4.78241">
        <ele>296.077</ele>
        <time>2014-01-18T10:12:18Z</time>
      </trkpt>
      <trkpt lat="44.90696" lon="4.78231">
        <ele>297.496</ele>
        <time>2014-01-18T10:12:26Z</time>
      </trkpt>
      <trkpt lat="44.90699" lon="4.7822">
        <ele>298.494</ele>
        <time>2014-01-18T10:12:34Z</time>
      </trkpt>
      <trkpt lat="44.90703" lon="4.78208">
        <ele>299.926</ele>
        <time>2014-01-18T10:12:43Z</time>
      </trkpt>
      <trkpt lat="44.90708" lon="4.78192">
        <ele>301.586</ele>
        <time>2014-01-18T10:12:57Z</time>
      </trkpt>
      <trkpt lat="44.90712" lon="4.7818">
        <ele>302.193</ele>
        <time>2014-01-18T10:13:06Z</time>
      </trkpt>
      <trkpt lat="44.90715" lon="4.7817">
        <ele>303.814</ele>
        <time>2014-01-18T10:13:12Z</time>
      </trkpt>
      <trkpt lat="44.90717" lon="4.78163">
        <ele>304.243</ele>
        <time>2014-01-18T10:13:19Z</time>
      </trkpt>
      <trkpt lat="44.9072" lon="4.78148">
        <ele>305.489</ele>
        <time>2014-01-18T10:13:25Z</time>
      </trkpt>
      <trkpt lat="44.90725" lon="4.78132">
        <ele>306.73</ele>
        <time>2014-01-18T10:13:34Z</time>
      </trkpt>
      <trkpt lat="44.90729" lon="4.78119">
        <ele>306.795</ele>
        <time>2014-01-18T10:13:43Z</time>
      </trkpt>
      <trkpt lat="44.90732" lon="4.78105">
        <ele>307.619</ele>
        <time>2014-01-18T10:13:53Z</time>
      </trkpt>
      <trkpt lat="44.90735" lon="4.78092">
        <ele>309.113</ele>
        <time>2014-01-18T10:14:00Z</time>
      </trkpt>
      <trkpt lat="44.90737" lon="4.78084">
        <ele>310.323</ele>
        <time>2014-01-18T10:14:07Z</time>
      </trkpt>
      <trkpt lat="44.90737" lon="4.78079">
        <ele>311.044</ele>
        <time>2014-01-18T10:14:17Z</time>
      </trkpt>
      <trkpt lat="44.90737" lon="4.78067">
        <ele>311.55</ele>
        <time>2014-01-18T10:14:20Z</time>
      </trkpt>
      <trkpt lat="44.90735" lon="4.78056">
        <ele>312.6</ele>
        <time>2014-01-18T10:14:26Z</time>
      </trkpt>
      <trkpt lat="44.90735" lon="4.78049">
        <ele>313.551</ele>
        <time>2014-01-18T10:14:31Z</time>
      </trkpt>
      <trkpt lat="44.90737" lon="4.78029">
        <ele>315.576</ele>
        <time>2014-01-18T10:14:42Z</time>
      </trkpt>
      <trkpt lat="44.90745" lon="4.78018">
        <ele>315.899</ele>
        <time>2014-01-18T10:14:49Z</time>
      </trkpt>
      <trkpt lat="44.90754" lon="4.78009">
        <ele>317.146</ele>
        <time>2014-01-18T10:14:56Z</time>
      </trkpt>
      <trkpt lat="44.90764" lon="4.78003">
        <ele>317.266</ele>
        <time>2014-01-18T10:15:04Z</time>
      </trkpt>
      <trkpt lat="44.9077" lon="4.78001">
        <ele>318.535</ele>
        <time>2014-01-18T10:15:08Z</time>
      </trkpt>
      <trkpt lat="44.90772" lon="4.78">
        <ele>319.292</ele>
        <time>2014-01-18T10:15:17Z</time>
      </trkpt>
      <trkpt lat="44.90781" lon="4.77989">
        <ele>319.631</ele>
        <time>2014-01-18T10:15:22Z</time>
      </trkpt>
      <trkpt lat="44.90785" lon="4.77968">
        <ele>320.998</ele>
        <time>2014-01-18T10:15:31Z</time>
      </trkpt>
      <trkpt lat="44.90792" lon="4.77951">
        <ele>323.119</ele>
        <time>2014-01-18T10:15:39Z</time>
      </trkpt>
      <trkpt lat="44.90801" lon="4.77932">
        <ele>324.279</ele>
        <time>2014-01-18T10:15:46Z</time>
      </trkpt>
      <trkpt lat="44.90807" lon="4.77921">
        <ele>325.831</ele>
        <time>2014-01-18T10:15:51Z</time>
      </trkpt>
      <trkpt lat="44.90812" lon="4.77913">
        <ele>326.642</ele>
        <time>2014-01-18T10:15:55Z</time>
      </trkpt>
      <trkpt lat="44.90824" lon="4.77896">
        <ele>328.442</ele>
        <time>2014-01-18T10:16:04Z</time>
      </trkpt>
      <trkpt lat="44.90835" lon="4.77883">
        <ele>329.655</ele>
        <time>2014-01-18T10:16:12Z</time>
      </trkpt>
      <trkpt lat="44.90845" lon="4.77879">
        <ele>330.717</ele>
        <time>2014-01-18T10:16:18Z</time>
      </trkpt>
      <trkpt lat="44.90859" lon="4.77874">
        <ele>332.634</ele>
        <time>2014-01-18T10:16:26Z</time>
      </trkpt>
      <trkpt lat="44.9087" lon="4.77866">
        <ele>333.888</ele>
        <time>2014-01-18T10:16:34Z</time>
      </trkpt>
      <trkpt lat="44.90871" lon="4.77865">
        <ele>334.178</ele>
        <time>2014-01-18T10:16:35Z</time>
      </trkpt>
      <trkpt lat="44.90873" lon="4.77864">
        <ele>333.965</ele>
        <time>2014-01-18T10:16:37Z</time>
      </trkpt>
      <trkpt lat="44.9088" lon="4.77858">
        <ele>334.647</ele>
        <time>2014-01-18T10:16:42Z</time>
      </trkpt>
      <trkpt lat="44.90884" lon="4.77855">
        <ele>334.837</ele>
        <time>2014-01-18T10:16:45Z</time>
      </trkpt>
      <trkpt lat="44.90894" lon="4.77847">
        <ele>335.66</ele>
        <time>2014-01-18T10:16:52Z</time>
      </trkpt>
      <trkpt lat="44.90904" lon="4.77842">
        <ele>335.708</ele>
        <time>2014-01-18T10:16:58Z</time>
      </trkpt>
      <trkpt lat="44.90907" lon="4.77823">
        <ele>336.909</ele>
        <time>2014-01-18T10:17:05Z</time>
      </trkpt>
      <trkpt lat="44.90924" lon="4.77809">
        <ele>341.934</ele>
        <time>2014-01-18T10:18:44Z</time>
      </trkpt>
      <trkpt lat="44.90928" lon="4.77815">
        <ele>343.101</ele>
        <time>2014-01-18T10:18:50Z</time>
      </trkpt>
      <trkpt lat="44.9093" lon="4.77823">
        <ele>343.865</ele>
        <time>2014-01-18T10:18:55Z</time>
      </trkpt>
      <trkpt lat="44.90927" lon="4.77837">
        <ele>345.366</ele>
        <time>2014-01-18T10:19:01Z</time>
      </trkpt>
      <trkpt lat="44.90922" lon="4.77852">
        <ele>347.278</ele>
        <time>2014-01-18T10:19:07Z</time>
      </trkpt>
      <trkpt lat="44.9092" lon="4.77855">
        <ele>347.212</ele>
        <time>2014-01-18T10:19:09Z</time>
      </trkpt>
      <trkpt lat="44.90916" lon="4.77863">
        <ele>347.852</ele>
        <time>2014-01-18T10:19:14Z</time>
      </trkpt>
      <trkpt lat="44.90909" lon="4.77874">
        <ele>350.558</ele>
        <time>2014-01-18T10:19:21Z</time>
      </trkpt>
      <trkpt lat="44.90902" lon="4.77884">
        <ele>352.094</ele>
        <time>2014-01-18T10:19:27Z</time>
      </trkpt>
      <trkpt lat="44.90898" lon="4.77889">
        <ele>353.04</ele>
        <time>2014-01-18T10:19:30Z</time>
      </trkpt>
      <trkpt lat="44.90892" lon="4.77901">
        <ele>352.066</ele>
        <time>2014-01-18T10:19:36Z</time>
      </trkpt>
      <trkpt lat="44.90889" lon="4.77907">
        <ele>352.026</ele>
        <time>2014-01-18T10:19:38Z</time>
      </trkpt>
      <trkpt lat="44.90883" lon="4.77925">
        <ele>354.317</ele>
        <time>2014-01-18T10:19:46Z</time>
      </trkpt>
      <trkpt lat="44.90881" lon="4.77935">
        <ele>355.825</ele>
        <time>2014-01-18T10:19:52Z</time>
      </trkpt>
      <trkpt lat="44.90879" lon="4.77946">
        <ele>357.357</ele>
        <time>2014-01-18T10:19:58Z</time>
      </trkpt>
      <trkpt lat="44.90877" lon="4.77958">
        <ele>358.475</ele>
        <time>2014-01-18T10:20:04Z</time>
      </trkpt>
      <trkpt lat="44.90875" lon="4.77974">
        <ele>360.462</ele>
        <time>2014-01-18T10:20:12Z</time>
      </trkpt>
      <trkpt lat="44.90874" lon="4.7799">
        <ele>361.065</ele>
        <time>2014-01-18T10:20:20Z</time>
      </trkpt>
      <trkpt lat="44.90874" lon="4.78009">
        <ele>362.241</ele>
        <time>2014-01-18T10:20:28Z</time>
      </trkpt>
      <trkpt lat="44.90874" lon="4.78024">
        <ele>364.873</ele>
        <time>2014-01-18T10:20:35Z</time>
      </trkpt>
      <trkpt lat="44.90874" lon="4.78037">
        <ele>365.247</ele>
        <time>2014-01-18T10:20:42Z</time>
      </trkpt>
      <trkpt lat="44.90874" lon="4.78053">
        <ele>366.869</ele>
        <time>2014-01-18T10:20:50Z</time>
      </trkpt>
      <trkpt lat="44.90874" lon="4.7806">
        <ele>367.556</ele>
        <time>2014-01-18T10:20:55Z</time>
      </trkpt>
      <trkpt lat="44.90874" lon="4.7808">
        <ele>368.56</ele>
        <time>2014-01-18T10:21:10Z</time>
      </trkpt>
      <trkpt lat="44.90874" lon="4.78088">
        <ele>370.419</ele>
        <time>2014-01-18T10:21:14Z</time>
      </trkpt>
      <trkpt lat="44.90876" lon="4.78099">
        <ele>372.509</ele>
        <time>2014-01-18T10:21:21Z</time>
      </trkpt>
      <trkpt lat="44.90877" lon="4.78104">
        <ele>373.788</ele>
        <time>2014-01-18T10:21:25Z</time>
      </trkpt>
      <trkpt lat="44.90878" lon="4.78109">
        <ele>374.15</ele>
        <time>2014-01-18T10:21:30Z</time>
      </trkpt>
      <trkpt lat="44.90873" lon="4.78133">
        <ele>376.022</ele>
        <time>2014-01-18T10:21:39Z</time>
      </trkpt>
      <trkpt lat="44.90877" lon="4.78147">
        <ele>376.862</ele>
        <time>2014-01-18T10:21:48Z</time>
      </trkpt>
      <trkpt lat="44.90879" lon="4.78156">
        <ele>377.598</ele>
        <time>2014-01-18T10:21:54Z</time>
      </trkpt>
      <trkpt lat="44.90879" lon="4.78172">
        <ele>379.906</ele>
        <time>2014-01-18T10:22:03Z</time>
      </trkpt>
      <trkpt lat="44.90878" lon="4.78186">
        <ele>380.135</ele>
        <time>2014-01-18T10:22:12Z</time>
      </trkpt>
      <trkpt lat="44.9088" lon="4.782">
        <ele>381.002</ele>
        <time>2014-01-18T10:22:20Z</time>
      </trkpt>
      <trkpt lat="44.9088" lon="4.78202">
        <ele>381.153</ele>
        <time>2014-01-18T10:22:21Z</time>
      </trkpt>
      <trkpt lat="44.90882" lon="4.78217">
        <ele>380.183</ele>
        <time>2014-01-18T10:22:29Z</time>
      </trkpt>
      <trkpt lat="44.90884" lon="4.78235">
        <ele>380.748</ele>
        <time>2014-01-18T10:22:37Z</time>
      </trkpt>
      <trkpt lat="44.90887" lon="4.78256">
        <ele>382.514</ele>
        <time>2014-01-18T10:22:45Z</time>
      </trkpt>
      <trkpt lat="44.9089" lon="4.78273">
        <ele>383.722</ele>
        <time>2014-01-18T10:22:52Z</time>
      </trkpt>
      <trkpt lat="44.90897" lon="4.78288">
        <ele>386.063</ele>
        <time>2014-01-18T10:23:00Z</time>
      </trkpt>
      <trkpt lat="44.90906" lon="4.78296">
        <ele>388.434</ele>
        <time>2014-01-18T10:23:07Z</time>
      </trkpt>
      <trkpt lat="44.90915" lon="4.78297">
        <ele>390.51</ele>
        <time>2014-01-18T10:23:14Z</time>
      </trkpt>
      <trkpt lat="44.90916" lon="4.78297">
        <ele>390.401</ele>
        <time>2014-01-18T10:23:16Z</time>
      </trkpt>
      <trkpt lat="44.90928" lon="4.78294">
        <ele>390.935</ele>
        <time>2014-01-18T10:23:25Z</time>
      </trkpt>
      <trkpt lat="44.90937" lon="4.7829">
        <ele>392.166</ele>
        <time>2014-01-18T10:23:32Z</time>
      </trkpt>
      <trkpt lat="44.90947" lon="4.78287">
        <ele>393.104</ele>
        <time>2014-01-18T10:23:39Z</time>
      </trkpt>
      <trkpt lat="44.90961" lon="4.78282">
        <ele>393.424</ele>
        <time>2014-01-18T10:23:48Z</time>
      </trkpt>
      <trkpt lat="44.90973" lon="4.78278">
        <ele>394.476</ele>
        <time>2014-01-18T10:23:56Z</time>
      </trkpt>
      <trkpt lat="44.90984" lon="4.78275">
        <ele>397.037</ele>
        <time>2014-01-18T10:24:03Z</time>
      </trkpt>
      <trkpt lat="44.90994" lon="4.78273">
        <ele>397.728</ele>
        <time>2014-01-18T10:24:09Z</time>
      </trkpt>
      <trkpt lat="44.91006" lon="4.78276">
        <ele>398.234</ele>
        <time>2014-01-18T10:24:16Z</time>
      </trkpt>
      <trkpt lat="44.91022" lon="4.78285">
        <ele>397.934</ele>
        <time>2014-01-18T10:24:25Z</time>
      </trkpt>
      <trkpt lat="44.91037" lon="4.78295">
        <ele>398.542</ele>
        <time>2014-01-18T10:24:33Z</time>
      </trkpt>
      <trkpt lat="44.91051" lon="4.78302">
        <ele>400.993</ele>
        <time>2014-01-18T10:24:41Z</time>
      </trkpt>
      <trkpt lat="44.91064" lon="4.78312">
        <ele>402.422</ele>
        <time>2014-01-18T10:24:48Z</time>
      </trkpt>
      <trkpt lat="44.91063" lon="4.78333">
        <ele>403.737</ele>
        <time>2014-01-18T10:24:54Z</time>
      </trkpt>
      <trkpt lat="44.91055" lon="4.78357">
        <ele>404.932</ele>
        <time>2014-01-18T10:25:03Z</time>
      </trkpt>
      <trkpt lat="44.91046" lon="4.7838">
        <ele>406.555</ele>
        <time>2014-01-18T10:25:12Z</time>
      </trkpt>
      <trkpt lat="44.91034" lon="4.78405">
        <ele>408.753</ele>
        <time>2014-01-18T10:25:23Z</time>
      </trkpt>
      <trkpt lat="44.91029" lon="4.78424">
        <ele>411.05</ele>
        <time>2014-01-18T10:25:31Z</time>
      </trkpt>
      <trkpt lat="44.91025" lon="4.78446">
        <ele>412.578</ele>
        <time>2014-01-18T10:25:40Z</time>
      </trkpt>
      <trkpt lat="44.91021" lon="4.78472">
        <ele>413.379</ele>
        <time>2014-01-18T10:25:50Z</time>
      </trkpt>
      <trkpt lat="44.91018" lon="4.78492">
        <ele>414.514</ele>
        <time>2014-01-18T10:25:58Z</time>
      </trkpt>
      <trkpt lat="44.91018" lon="4.78513">
        <ele>416.498</ele>
        <time>2014-01-18T10:26:07Z</time>
      </trkpt>
      <trkpt lat="44.91018" lon="4.7854">
        <ele>419.478</ele>
        <time>2014-01-18T10:26:18Z</time>
      </trkpt>
      <trkpt lat="44.9102" lon="4.78551">
        <ele>422.682</ele>
        <time>2014-01-18T10:26:23Z</time>
      </trkpt>
      <trkpt lat="44.91021" lon="4.78556">
        <ele>424.042</ele>
        <time>2014-01-18T10:26:27Z</time>
      </trkpt>
      <trkpt lat="44.91023" lon="4.78566">
        <ele>423.328</ele>
        <time>2014-01-18T10:26:35Z</time>
      </trkpt>
      <trkpt lat="44.91024" lon="4.7857">
        <ele>423.678</ele>
        <time>2014-01-18T10:26:43Z</time>
      </trkpt>
      <trkpt lat="44.91025" lon="4.78575">
        <ele>424.104</ele>
        <time>2014-01-18T10:31:57Z</time>
      </trkpt>
      <trkpt lat="44.91027" lon="4.78587">
        <ele>425.163</ele>
        <time>2014-01-18T10:32:04Z</time>
      </trkpt>
      <trkpt lat="44.91032" lon="4.78597">
        <ele>426.75</ele>
        <time>2014-01-18T10:32:10Z</time>
      </trkpt>
      <trkpt lat="44.9104" lon="4.78609">
        <ele>430.368</ele>
        <time>2014-01-18T10:32:16Z</time>
      </trkpt>
      <trkpt lat="44.91052" lon="4.78611">
        <ele>432.05</ele>
        <time>2014-01-18T10:32:23Z</time>
      </trkpt>
      <trkpt lat="44.91055" lon="4.78613">
        <ele>430.46</ele>
        <time>2014-01-18T10:32:25Z</time>
      </trkpt>
      <trkpt lat="44.91063" lon="4.78616">
        <ele>433.359</ele>
        <time>2014-01-18T10:32:30Z</time>
      </trkpt>
      <trkpt lat="44.91073" lon="4.78622">
        <ele>432.732</ele>
        <time>2014-01-18T10:32:37Z</time>
      </trkpt>
      <trkpt lat="44.9107" lon="4.78643">
        <ele>432.506</ele>
        <time>2014-01-18T10:32:43Z</time>
      </trkpt>
      <trkpt lat="44.91066" lon="4.78656">
        <ele>430.857</ele>
        <time>2014-01-18T10:32:46Z</time>
      </trkpt>
      <trkpt lat="44.91058" lon="4.78679">
        <ele>431.441</ele>
        <time>2014-01-18T10:32:51Z</time>
      </trkpt>
      <trkpt lat="44.91049" lon="4.78708">
        <ele>432.014</ele>
        <time>2014-01-18T10:32:57Z</time>
      </trkpt>
      <trkpt lat="44.91037" lon="4.78743">
        <ele>433.788</ele>
        <time>2014-01-18T10:33:05Z</time>
      </trkpt>
      <trkpt lat="44.91034" lon="4.7875">
        <ele>432.013</ele>
        <time>2014-01-18T10:33:07Z</time>
      </trkpt>
      <trkpt lat="44.9102" lon="4.78783">
        <ele>435.8</ele>
        <time>2014-01-18T10:33:16Z</time>
      </trkpt>
      <trkpt lat="44.91007" lon="4.78807">
        <ele>435.557</ele>
        <time>2014-01-18T10:33:23Z</time>
      </trkpt>
      <trkpt lat="44.90994" lon="4.78831">
        <ele>435.181</ele>
        <time>2014-01-18T10:33:31Z</time>
      </trkpt>
      <trkpt lat="44.90982" lon="4.78849">
        <ele>435.931</ele>
        <time>2014-01-18T10:33:38Z</time>
      </trkpt>
      <trkpt lat="44.90968" lon="4.7887">
        <ele>436.846</ele>
        <time>2014-01-18T10:33:46Z</time>
      </trkpt>
      <trkpt lat="44.90962" lon="4.78886">
        <ele>436.526</ele>
        <time>2014-01-18T10:33:53Z</time>
      </trkpt>
      <trkpt lat="44.90966" lon="4.7889">
        <ele>438.041</ele>
        <time>2014-01-18T10:33:58Z</time>
      </trkpt>
      <trkpt lat="44.90976" lon="4.78897">
        <ele>440.202</ele>
        <time>2014-01-18T10:34:04Z</time>
      </trkpt>
      <trkpt lat="44.90986" lon="4.78904">
        <ele>440.624</ele>
        <time>2014-01-18T10:34:10Z</time>
      </trkpt>
      <trkpt lat="44.90992" lon="4.78908">
        <ele>442.273</ele>
        <time>2014-01-18T10:34:13Z</time>
      </trkpt>
      <trkpt lat="44.91005" lon="4.78918">
        <ele>443.039</ele>
        <time>2014-01-18T10:34:20Z</time>
      </trkpt>
      <trkpt lat="44.91009" lon="4.78921">
        <ele>444.572</ele>
        <time>2014-01-18T10:34:22Z</time>
      </trkpt>
      <trkpt lat="44.91013" lon="4.78924">
        <ele>442.816</ele>
        <time>2014-01-18T10:34:24Z</time>
      </trkpt>
      <trkpt lat="44.91025" lon="4.78936">
        <ele>443.65</ele>
        <time>2014-01-18T10:34:31Z</time>
      </trkpt>
      <trkpt lat="44.91032" lon="4.78946">
        <ele>443.699</ele>
        <time>2014-01-18T10:34:36Z</time>
      </trkpt>
      <trkpt lat="44.91044" lon="4.78965">
        <ele>443.147</ele>
        <time>2014-01-18T10:34:43Z</time>
      </trkpt>
      <trkpt lat="44.9106" lon="4.78998">
        <ele>444.736</ele>
        <time>2014-01-18T10:34:53Z</time>
      </trkpt>
      <trkpt lat="44.91066" lon="4.79028">
        <ele>444.313</ele>
        <time>2014-01-18T10:35:00Z</time>
      </trkpt>
      <trkpt lat="44.91068" lon="4.79043">
        <ele>444.403</ele>
        <time>2014-01-18T10:35:03Z</time>
      </trkpt>
      <trkpt lat="44.91069" lon="4.79068">
        <ele>443.938</ele>
        <time>2014-01-18T10:35:08Z</time>
      </trkpt>
      <trkpt lat="44.91069" lon="4.79087">
        <ele>442.917</ele>
        <time>2014-01-18T10:35:13Z</time>
      </trkpt>
      <trkpt lat="44.91069" lon="4.79098">
        <ele>443.176</ele>
        <time>2014-01-18T10:35:19Z</time>
      </trkpt>
      <trkpt lat="44.91075" lon="4.79104">
        <ele>442.057</ele>
        <time>2014-01-18T10:35:39Z</time>
      </trkpt>
      <trkpt lat="44.9109" lon="4.79117">
        <ele>440.207</ele>
        <time>2014-01-18T10:35:44Z</time>
      </trkpt>
      <trkpt lat="44.91091" lon="4.79119">
        <ele>440.237</ele>
        <time>2014-01-18T10:35:49Z</time>
      </trkpt>
      <trkpt lat="44.91093" lon="4.79125">
        <ele>436.98</ele>
        <time>2014-01-18T10:36:30Z</time>
      </trkpt>
      <trkpt lat="44.91082" lon="4.79128">
        <ele>438.627</ele>
        <time>2014-01-18T10:36:34Z</time>
      </trkpt>
      <trkpt lat="44.91068" lon="4.7913">
        <ele>438.332</ele>
        <time>2014-01-18T10:36:38Z</time>
      </trkpt>
      <trkpt lat="44.91052" lon="4.79135">
        <ele>436.508</ele>
        <time>2014-01-18T10:36:42Z</time>
      </trkpt>
      <trkpt lat="44.91041" lon="4.79159">
        <ele>432.814</ele>
        <time>2014-01-18T10:36:45Z</time>
      </trkpt>
      <trkpt lat="44.91037" lon="4.79168">
        <ele>432.678</ele>
        <time>2014-01-18T10:36:46Z</time>
      </trkpt>
      <trkpt lat="44.91024" lon="4.79194">
        <ele>429.105</ele>
        <time>2014-01-18T10:36:49Z</time>
      </trkpt>
      <trkpt lat="44.90994" lon="4.79219">
        <ele>425.629</ele>
        <time>2014-01-18T10:36:53Z</time>
      </trkpt>
      <trkpt lat="44.90983" lon="4.79234">
        <ele>424.979</ele>
        <time>2014-01-18T10:36:55Z</time>
      </trkpt>
      <trkpt lat="44.90969" lon="4.79274">
        <ele>421.439</ele>
        <time>2014-01-18T10:36:59Z</time>
      </trkpt>
      <trkpt lat="44.90939" lon="4.79316">
        <ele>420.295</ele>
        <time>2014-01-18T10:37:05Z</time>
      </trkpt>
      <trkpt lat="44.90922" lon="4.79343">
        <ele>420.467</ele>
        <time>2014-01-18T10:37:09Z</time>
      </trkpt>
      <trkpt lat="44.9092" lon="4.79351">
        <ele>419.876</ele>
        <time>2014-01-18T10:37:10Z</time>
      </trkpt>
      <trkpt lat="44.90918" lon="4.79374">
        <ele>422.583</ele>
        <time>2014-01-18T10:37:15Z</time>
      </trkpt>
      <trkpt lat="44.90913" lon="4.79389">
        <ele>424.783</ele>
        <time>2014-01-18T10:37:21Z</time>
      </trkpt>
      <trkpt lat="44.90908" lon="4.79402">
        <ele>426.538</ele>
        <time>2014-01-18T10:37:26Z</time>
      </trkpt>
      <trkpt lat="44.90903" lon="4.79417">
        <ele>427.758</ele>
        <time>2014-01-18T10:37:32Z</time>
      </trkpt>
      <trkpt lat="44.90897" lon="4.7943">
        <ele>429.039</ele>
        <time>2014-01-18T10:37:38Z</time>
      </trkpt>
      <trkpt lat="44.90888" lon="4.79442">
        <ele>430.093</ele>
        <time>2014-01-18T10:37:45Z</time>
      </trkpt>
      <trkpt lat="44.90878" lon="4.79454">
        <ele>432.275</ele>
        <time>2014-01-18T10:37:54Z</time>
      </trkpt>
      <trkpt lat="44.90872" lon="4.79461">
        <ele>433.709</ele>
        <time>2014-01-18T10:37:59Z</time>
      </trkpt>
      <trkpt lat="44.90865" lon="4.7947">
        <ele>435.71</ele>
        <time>2014-01-18T10:38:06Z</time>
      </trkpt>
      <trkpt lat="44.90865" lon="4.79487">
        <ele>437.23</ele>
        <time>2014-01-18T10:38:13Z</time>
      </trkpt>
      <trkpt lat="44.9087" lon="4.79505">
        <ele>438.918</ele>
        <time>2014-01-18T10:38:22Z</time>
      </trkpt>
      <trkpt lat="44.90877" lon="4.7952">
        <ele>439.429</ele>
        <time>2014-01-18T10:38:29Z</time>
      </trkpt>
      <trkpt lat="44.90885" lon="4.79534">
        <ele>438.999</ele>
        <time>2014-01-18T10:38:35Z</time>
      </trkpt>
      <trkpt lat="44.90893" lon="4.79546">
        <ele>438.444</ele>
        <time>2014-01-18T10:38:38Z</time>
      </trkpt>
      <trkpt lat="44.90905" lon="4.79565">
        <ele>437.2</ele>
        <time>2014-01-18T10:38:42Z</time>
      </trkpt>
      <trkpt lat="44.90923" lon="4.79587">
        <ele>432.594</ele>
        <time>2014-01-18T10:38:46Z</time>
      </trkpt>
      <trkpt lat="44.90941" lon="4.79616">
        <ele>426.732</ele>
        <time>2014-01-18T10:38:50Z</time>
      </trkpt>
      <trkpt lat="44.90932" lon="4.79641">
        <ele>423.018</ele>
        <time>2014-01-18T10:38:53Z</time>
      </trkpt>
      <trkpt lat="44.9092" lon="4.79654">
        <ele>422.887</ele>
        <time>2014-01-18T10:38:55Z</time>
      </trkpt>
      <trkpt lat="44.90897" lon="4.79662">
        <ele>418.836</ele>
        <time>2014-01-18T10:38:59Z</time>
      </trkpt>
      <trkpt lat="44.90892" lon="4.79664">
        <ele>419.087</ele>
        <time>2014-01-18T10:39:03Z</time>
      </trkpt>
      <trkpt lat="44.90886" lon="4.79667">
        <ele>417.019</ele>
        <time>2014-01-18T10:40:21Z</time>
      </trkpt>
      <trkpt lat="44.9087" lon="4.79684">
        <ele>415.522</ele>
        <time>2014-01-18T10:40:27Z</time>
      </trkpt>
      <trkpt lat="44.90866" lon="4.79691">
        <ele>413.739</ele>
        <time>2014-01-18T10:40:29Z</time>
      </trkpt>
      <trkpt lat="44.90858" lon="4.79705">
        <ele>411.354</ele>
        <time>2014-01-18T10:40:32Z</time>
      </trkpt>
      <trkpt lat="44.90856" lon="4.79715">
        <ele>410.596</ele>
        <time>2014-01-18T10:40:33Z</time>
      </trkpt>
      <trkpt lat="44.90853" lon="4.79729">
        <ele>406.229</ele>
        <time>2014-01-18T10:40:36Z</time>
      </trkpt>
      <trkpt lat="44.90849" lon="4.79756">
        <ele>400.96</ele>
        <time>2014-01-18T10:40:40Z</time>
      </trkpt>
      <trkpt lat="44.90845" lon="4.79781">
        <ele>397.621</ele>
        <time>2014-01-18T10:40:44Z</time>
      </trkpt>
      <trkpt lat="44.90842" lon="4.79807">
        <ele>392.181</ele>
        <time>2014-01-18T10:40:48Z</time>
      </trkpt>
      <trkpt lat="44.90916" lon="4.79837">
        <ele>388.009</ele>
        <time>2014-01-18T10:40:52Z</time>
      </trkpt>
      <trkpt lat="44.90927" lon="4.79846">
        <ele>384.59</ele>
        <time>2014-01-18T10:40:55Z</time>
      </trkpt>
      <trkpt lat="44.90934" lon="4.79852">
        <ele>381.74</ele>
        <time>2014-01-18T10:40:57Z</time>
      </trkpt>
      <trkpt lat="44.90941" lon="4.79862">
        <ele>379.448</ele>
        <time>2014-01-18T10:40:59Z</time>
      </trkpt>
      <trkpt lat="44.90951" lon="4.79869">
        <ele>378.642</ele>
        <time>2014-01-18T10:41:01Z</time>
      </trkpt>
      <trkpt lat="44.90967" lon="4.79877">
        <ele>375.85</ele>
        <time>2014-01-18T10:41:04Z</time>
      </trkpt>
      <trkpt lat="44.90992" lon="4.79896">
        <ele>372.207</ele>
        <time>2014-01-18T10:41:11Z</time>
      </trkpt>
      <trkpt lat="44.9101" lon="4.7991">
        <ele>370.825</ele>
        <time>2014-01-18T10:41:16Z</time>
      </trkpt>
      <trkpt lat="44.91022" lon="4.7992">
        <ele>368.628</ele>
        <time>2014-01-18T10:41:19Z</time>
      </trkpt>
      <trkpt lat="44.91037" lon="4.79938">
        <ele>368.028</ele>
        <time>2014-01-18T10:41:22Z</time>
      </trkpt>
      <trkpt lat="44.9105" lon="4.79962">
        <ele>364.719</ele>
        <time>2014-01-18T10:41:26Z</time>
      </trkpt>
      <trkpt lat="44.91062" lon="4.79976">
        <ele>362.904</ele>
        <time>2014-01-18T10:41:29Z</time>
      </trkpt>
      <trkpt lat="44.91076" lon="4.79971">
        <ele>361.557</ele>
        <time>2014-01-18T10:41:31Z</time>
      </trkpt>
      <trkpt lat="44.91084" lon="4.79968">
        <ele>360.313</ele>
        <time>2014-01-18T10:41:32Z</time>
      </trkpt>
      <trkpt lat="44.91125" lon="4.79945">
        <ele>356.212</ele>
        <time>2014-01-18T10:41:38Z</time>
      </trkpt>
      <trkpt lat="44.91143" lon="4.79935">
        <ele>352.47</ele>
        <time>2014-01-18T10:41:41Z</time>
      </trkpt>
      <trkpt lat="44.91174" lon="4.79936">
        <ele>349.512</ele>
        <time>2014-01-18T10:41:46Z</time>
      </trkpt>
      <trkpt lat="44.9122" lon="4.79961">
        <ele>346.665</ele>
        <time>2014-01-18T10:41:53Z</time>
      </trkpt>
      <trkpt lat="44.91236" lon="4.79972">
        <ele>346.663</ele>
        <time>2014-01-18T10:41:55Z</time>
      </trkpt>
      <trkpt lat="44.9125" lon="4.79985">
        <ele>345.067</ele>
        <time>2014-01-18T10:41:57Z</time>
      </trkpt>
      <trkpt lat="44.91277" lon="4.80014">
        <ele>337.978</ele>
        <time>2014-01-18T10:42:02Z</time>
      </trkpt>
      <trkpt lat="44.91294" lon="4.80045">
        <ele>331.791</ele>
        <time>2014-01-18T10:42:06Z</time>
      </trkpt>
      <trkpt lat="44.91299" lon="4.80073">
        <ele>326.614</ele>
        <time>2014-01-18T10:42:09Z</time>
      </trkpt>
      <trkpt lat="44.91323" lon="4.80095">
        <ele>321.4</ele>
        <time>2014-01-18T10:42:13Z</time>
      </trkpt>
      <trkpt lat="44.91346" lon="4.80106">
        <ele>318.209</ele>
        <time>2014-01-18T10:42:16Z</time>
      </trkpt>
      <trkpt lat="44.91377" lon="4.8011">
        <ele>312.527</ele>
        <time>2014-01-18T10:42:20Z</time>
      </trkpt>
      <trkpt lat="44.914" lon="4.80118">
        <ele>306.446</ele>
        <time>2014-01-18T10:42:24Z</time>
      </trkpt>
      <trkpt lat="44.91408" lon="4.80138">
        <ele>303.348</ele>
        <time>2014-01-18T10:42:27Z</time>
      </trkpt>
      <trkpt lat="44.91414" lon="4.80176">
        <ele>299.81</ele>
        <time>2014-01-18T10:42:31Z</time>
      </trkpt>
      <trkpt lat="44.91413" lon="4.80195">
        <ele>298.808</ele>
        <time>2014-01-18T10:42:33Z</time>
      </trkpt>
      <trkpt lat="44.91404" lon="4.80216">
        <ele>295.465</ele>
        <time>2014-01-18T10:42:36Z</time>
      </trkpt>
      <trkpt lat="44.91392" lon="4.8024">
        <ele>292.985</ele>
        <time>2014-01-18T10:42:39Z</time>
      </trkpt>
      <trkpt lat="44.91386" lon="4.80258">
        <ele>292.549</ele>
        <time>2014-01-18T10:42:41Z</time>
      </trkpt>
      <trkpt lat="44.91386" lon="4.80274">
        <ele>291.324</ele>
        <time>2014-01-18T10:42:43Z</time>
      </trkpt>
      <trkpt lat="44.91396" lon="4.80283">
        <ele>289.837</ele>
        <time>2014-01-18T10:42:45Z</time>
      </trkpt>
      <trkpt lat="44.91405" lon="4.80295">
        <ele>289.304</ele>
        <time>2014-01-18T10:42:47Z</time>
      </trkpt>
      <trkpt lat="44.91411" lon="4.80323">
        <ele>288.337</ele>
        <time>2014-01-18T10:42:51Z</time>
      </trkpt>
      <trkpt lat="44.914" lon="4.80335">
        <ele>288.166</ele>
        <time>2014-01-18T10:42:54Z</time>
      </trkpt>
      <trkpt lat="44.91382" lon="4.80349">
        <ele>284.97</ele>
        <time>2014-01-18T10:42:58Z</time>
      </trkpt>
      <trkpt lat="44.91374" lon="4.80356">
        <ele>283.2</ele>
        <time>2014-01-18T10:43:00Z</time>
      </trkpt>
      <trkpt lat="44.91376" lon="4.80391">
        <ele>279.333</ele>
        <time>2014-01-18T10:43:04Z</time>
      </trkpt>
      <trkpt lat="44.91381" lon="4.80398">
        <ele>279.204</ele>
        <time>2014-01-18T10:43:05Z</time>
      </trkpt>
      <trkpt lat="44.91392" lon="4.80426">
        <ele>274.92</ele>
        <time>2014-01-18T10:43:09Z</time>
      </trkpt>
      <trkpt lat="44.91394" lon="4.8044">
        <ele>272.896</ele>
        <time>2014-01-18T10:43:11Z</time>
      </trkpt>
      <trkpt lat="44.91385" lon="4.80474">
        <ele>266.593</ele>
        <time>2014-01-18T10:43:18Z</time>
      </trkpt>
      <trkpt lat="44.91392" lon="4.80477">
        <ele>264.807</ele>
        <time>2014-01-18T10:43:21Z</time>
      </trkpt>
      <trkpt lat="44.914" lon="4.80473">
        <ele>263.461</ele>
        <time>2014-01-18T10:43:23Z</time>
      </trkpt>
      <trkpt lat="44.91408" lon="4.80467">
        <ele>263.757</ele>
        <time>2014-01-18T10:43:25Z</time>
      </trkpt>
      <trkpt lat="44.91421" lon="4.80456">
        <ele>263.138</ele>
        <time>2014-01-18T10:43:28Z</time>
      </trkpt>
      <trkpt lat="44.91427" lon="4.80447">
        <ele>261.814</ele>
        <time>2014-01-18T10:43:30Z</time>
      </trkpt>
      <trkpt lat="44.91439" lon="4.80443">
        <ele>259.672</ele>
        <time>2014-01-18T10:43:34Z</time>
      </trkpt>
      <trkpt lat="44.91451" lon="4.80442">
        <ele>256.715</ele>
        <time>2014-01-18T10:43:37Z</time>
      </trkpt>
      <trkpt lat="44.91463" lon="4.80443">
        <ele>254.167</ele>
        <time>2014-01-18T10:43:41Z</time>
      </trkpt>
      <trkpt lat="44.91471" lon="4.80447">
        <ele>252.496</ele>
        <time>2014-01-18T10:43:43Z</time>
      </trkpt>
      <trkpt lat="44.91483" lon="4.80461">
        <ele>247.591</ele>
        <time>2014-01-18T10:43:49Z</time>
      </trkpt>
      <trkpt lat="44.91492" lon="4.80465">
        <ele>246.251</ele>
        <time>2014-01-18T10:43:53Z</time>
      </trkpt>
      <trkpt lat="44.91496" lon="4.80469">
        <ele>245.794</ele>
        <time>2014-01-18T10:43:55Z</time>
      </trkpt>
      <trkpt lat="44.915" lon="4.80472">
        <ele>244.072</ele>
        <time>2014-01-18T10:43:58Z</time>
      </trkpt>
      <trkpt lat="44.91504" lon="4.80477">
        <ele>242.792</ele>
        <time>2014-01-18T10:44:02Z</time>
      </trkpt>
      <trkpt lat="44.91505" lon="4.80478">
        <ele>241.926</ele>
        <time>2014-01-18T10:44:03Z</time>
      </trkpt>
      <trkpt lat="44.9151" lon="4.80487">
        <ele>240.35</ele>
        <time>2014-01-18T10:44:06Z</time>
      </trkpt>
      <trkpt lat="44.91519" lon="4.80502">
        <ele>238.113</ele>
        <time>2014-01-18T10:44:09Z</time>
      </trkpt>
      <trkpt lat="44.91523" lon="4.80512">
        <ele>236.654</ele>
        <time>2014-01-18T10:44:11Z</time>
      </trkpt>
      <trkpt lat="44.91526" lon="4.80533">
        <ele>235.705</ele>
        <time>2014-01-18T10:44:15Z</time>
      </trkpt>
      <trkpt lat="44.91528" lon="4.80543">
        <ele>234.819</ele>
        <time>2014-01-18T10:44:17Z</time>
      </trkpt>
      <trkpt lat="44.9153" lon="4.80549">
        <ele>234.595</ele>
        <time>2014-01-18T10:44:18Z</time>
      </trkpt>
      <trkpt lat="44.91534" lon="4.80564">
        <ele>234.002</ele>
        <time>2014-01-18T10:44:21Z</time>
      </trkpt>
      <trkpt lat="44.91531" lon="4.80576">
        <ele>235.605</ele>
        <time>2014-01-18T10:44:26Z</time>
      </trkpt>
      <trkpt lat="44.91531" lon="4.80578">
        <ele>235.756</ele>
        <time>2014-01-18T10:44:27Z</time>
      </trkpt>
      <trkpt lat="44.91534" lon="4.80588">
        <ele>236.532</ele>
        <time>2014-01-18T10:44:31Z</time>
      </trkpt>
      <trkpt lat="44.91536" lon="4.80589">
        <ele>236.819</ele>
        <time>2014-01-18T10:44:32Z</time>
      </trkpt>
      <trkpt lat="44.91546" lon="4.80601">
        <ele>237.85</ele>
        <time>2014-01-18T10:44:38Z</time>
      </trkpt>
      <trkpt lat="44.91549" lon="4.80602">
        <ele>237.594</ele>
        <time>2014-01-18T10:44:39Z</time>
      </trkpt>
      <trkpt lat="44.91554" lon="4.80604">
        <ele>237.436</ele>
        <time>2014-01-18T10:44:41Z</time>
      </trkpt>
      <trkpt lat="44.91561" lon="4.80619">
        <ele>238.935</ele>
        <time>2014-01-18T10:44:46Z</time>
      </trkpt>
      <trkpt lat="44.91561" lon="4.80639">
        <ele>240.347</ele>
        <time>2014-01-18T10:44:52Z</time>
      </trkpt>
      <trkpt lat="44.91563" lon="4.80655">
        <ele>239.38</ele>
        <time>2014-01-18T10:44:55Z</time>
      </trkpt>
      <trkpt lat="44.91563" lon="4.80667">
        <ele>237.702</ele>
        <time>2014-01-18T10:44:57Z</time>
      </trkpt>
      <trkpt lat="44.91563" lon="4.80681">
        <ele>236.136</ele>
        <time>2014-01-18T10:44:59Z</time>
      </trkpt>
      <trkpt lat="44.9156" lon="4.80712">
        <ele>233.285</ele>
        <time>2014-01-18T10:45:03Z</time>
      </trkpt>
      <trkpt lat="44.91563" lon="4.80746">
        <ele>231.48</ele>
        <time>2014-01-18T10:45:07Z</time>
      </trkpt>
      <trkpt lat="44.91562" lon="4.80776">
        <ele>230.102</ele>
        <time>2014-01-18T10:45:12Z</time>
      </trkpt>
      <trkpt lat="44.91568" lon="4.80787">
        <ele>229.068</ele>
        <time>2014-01-18T10:45:14Z</time>
      </trkpt>
      <trkpt lat="44.91586" lon="4.80819">
        <ele>225.761</ele>
        <time>2014-01-18T10:45:19Z</time>
      </trkpt>
      <trkpt lat="44.91595" lon="4.80838">
        <ele>226.059</ele>
        <time>2014-01-18T10:45:22Z</time>
      </trkpt>
      <trkpt lat="44.91615" lon="4.80866">
        <ele>222.862</ele>
        <time>2014-01-18T10:45:27Z</time>
      </trkpt>
      <trkpt lat="44.9162" lon="4.80874">
        <ele>221.441</ele>
        <time>2014-01-18T10:45:29Z</time>
      </trkpt>
      <trkpt lat="44.91623" lon="4.80875">
        <ele>220.493</ele>
        <time>2014-01-18T10:45:30Z</time>
      </trkpt>
      <trkpt lat="44.9163" lon="4.80873">
        <ele>219.197</ele>
        <time>2014-01-18T10:45:32Z</time>
      </trkpt>
      <trkpt lat="44.91645" lon="4.80869">
        <ele>214.792</ele>
        <time>2014-01-18T10:45:36Z</time>
      </trkpt>
      <trkpt lat="44.91657" lon="4.80871">
        <ele>210.835</ele>
        <time>2014-01-18T10:45:39Z</time>
      </trkpt>
      <trkpt lat="44.91669" lon="4.80863">
        <ele>206.5</ele>
        <time>2014-01-18T10:45:44Z</time>
      </trkpt>
      <trkpt lat="44.91676" lon="4.80854">
        <ele>202.797</ele>
        <time>2014-01-18T10:45:48Z</time>
      </trkpt>
      <trkpt lat="44.91697" lon="4.80838">
        <ele>195.681</ele>
        <time>2014-01-18T10:45:54Z</time>
      </trkpt>
      <trkpt lat="44.91706" lon="4.80827">
        <ele>194.231</ele>
        <time>2014-01-18T10:45:58Z</time>
      </trkpt>
      <trkpt lat="44.9171" lon="4.80826">
        <ele>195.066</ele>
        <time>2014-01-18T10:46:08Z</time>
      </trkpt>
      <trkpt lat="44.91712" lon="4.80825">
        <ele>193.712</ele>
        <time>2014-01-18T10:46:13Z</time>
      </trkpt>
      <trkpt lat="44.91712" lon="4.80825">
        <ele>193.579</ele>
        <time>2014-01-18T10:46:14Z</time>
      </trkpt>
      <trkpt lat="44.91718" lon="4.80824">
        <ele>194.779</ele>
        <time>2014-01-18T10:46:20Z</time>
      </trkpt>
      <trkpt lat="44.91719" lon="4.80826">
        <ele>195.012</ele>
        <time>2014-01-18T10:46:27Z</time>
      </trkpt>
      <trkpt lat="44.91718" lon="4.80825">
        <ele>194.692</ele>
        <time>2014-01-18T10:46:36Z</time>
      </trkpt>
      <trkpt lat="44.9172" lon="4.80827">
        <ele>195.708</ele>
        <time>2014-01-18T10:53:46Z</time>
      </trkpt>
      <trkpt lat="44.91721" lon="4.80833">
        <ele>195.376</ele>
        <time>2014-01-18T10:53:50Z</time>
      </trkpt>
      <trkpt lat="44.91728" lon="4.80856">
        <ele>193.197</ele>
        <time>2014-01-18T10:53:55Z</time>
      </trkpt>
      <trkpt lat="44.91746" lon="4.80887">
        <ele>190.41</ele>
        <time>2014-01-18T10:54:00Z</time>
      </trkpt>
      <trkpt lat="44.9176" lon="4.80907">
        <ele>187.534</ele>
        <time>2014-01-18T10:54:05Z</time>
      </trkpt>
      <trkpt lat="44.91766" lon="4.80923">
        <ele>186.265</ele>
        <time>2014-01-18T10:54:08Z</time>
      </trkpt>
      <trkpt lat="44.91775" lon="4.80943">
        <ele>184.623</ele>
        <time>2014-01-18T10:54:11Z</time>
      </trkpt>
      <trkpt lat="44.91787" lon="4.8098">
        <ele>182.119</ele>
        <time>2014-01-18T10:54:16Z</time>
      </trkpt>
      <trkpt lat="44.91791" lon="4.81014">
        <ele>181.989</ele>
        <time>2014-01-18T10:54:20Z</time>
      </trkpt>
      <trkpt lat="44.91804" lon="4.81052">
        <ele>180.294</ele>
        <time>2014-01-18T10:54:25Z</time>
      </trkpt>
      <trkpt lat="44.9181" lon="4.81067">
        <ele>180.039</ele>
        <time>2014-01-18T10:54:27Z</time>
      </trkpt>
      <trkpt lat="44.91822" lon="4.81118">
        <ele>178.82</ele>
        <time>2014-01-18T10:54:33Z</time>
      </trkpt>
      <trkpt lat="44.91825" lon="4.81144">
        <ele>178.362</ele>
        <time>2014-01-18T10:54:36Z</time>
      </trkpt>
      <trkpt lat="44.91835" lon="4.81174">
        <ele>177.654</ele>
        <time>2014-01-18T10:54:40Z</time>
      </trkpt>
      <trkpt lat="44.91858" lon="4.8122">
        <ele>177.06</ele>
        <time>2014-01-18T10:54:46Z</time>
      </trkpt>
      <trkpt lat="44.91877" lon="4.81275">
        <ele>176.169</ele>
        <time>2014-01-18T10:54:53Z</time>
      </trkpt>
      <trkpt lat="44.91883" lon="4.81289">
        <ele>175.608</ele>
        <time>2014-01-18T10:54:55Z</time>
      </trkpt>
      <trkpt lat="44.9191" lon="4.81323">
        <ele>174.071</ele>
        <time>2014-01-18T10:55:01Z</time>
      </trkpt>
      <trkpt lat="44.91916" lon="4.81329">
        <ele>174.016</ele>
        <time>2014-01-18T10:55:02Z</time>
      </trkpt>
      <trkpt lat="44.91957" lon="4.81353">
        <ele>173.398</ele>
        <time>2014-01-18T10:55:09Z</time>
      </trkpt>
      <trkpt lat="44.91976" lon="4.81367">
        <ele>171.706</ele>
        <time>2014-01-18T10:55:12Z</time>
      </trkpt>
      <trkpt lat="44.92001" lon="4.81396">
        <ele>171.78</ele>
        <time>2014-01-18T10:55:16Z</time>
      </trkpt>
      <trkpt lat="44.92027" lon="4.81419">
        <ele>169.346</ele>
        <time>2014-01-18T10:55:20Z</time>
      </trkpt>
      <trkpt lat="44.92046" lon="4.81436">
        <ele>169.146</ele>
        <time>2014-01-18T10:55:23Z</time>
      </trkpt>
      <trkpt lat="44.92066" lon="4.81474">
        <ele>169.052</ele>
        <time>2014-01-18T10:55:28Z</time>
      </trkpt>
      <trkpt lat="44.92068" lon="4.81483">
        <ele>169.081</ele>
        <time>2014-01-18T10:55:29Z</time>
      </trkpt>
      <trkpt lat="44.92071" lon="4.81501">
        <ele>169.151</ele>
        <time>2014-01-18T10:55:31Z</time>
      </trkpt>
      <trkpt lat="44.92084" lon="4.81531">
        <ele>167.549</ele>
        <time>2014-01-18T10:55:35Z</time>
      </trkpt>
      <trkpt lat="44.92095" lon="4.81534">
        <ele>166.454</ele>
        <time>2014-01-18T10:55:37Z</time>
      </trkpt>
      <trkpt lat="44.92101" lon="4.81531">
        <ele>166.459</ele>
        <time>2014-01-18T10:55:38Z</time>
      </trkpt>
      <trkpt lat="44.9212" lon="4.81516">
        <ele>165.672</ele>
        <time>2014-01-18T10:55:41Z</time>
      </trkpt>
      <trkpt lat="44.92147" lon="4.81505">
        <ele>164.863</ele>
        <time>2014-01-18T10:55:45Z</time>
      </trkpt>
      <trkpt lat="44.92176" lon="4.81503">
        <ele>166.653</ele>
        <time>2014-01-18T10:55:50Z</time>
      </trkpt>
      <trkpt lat="44.9218" lon="4.81502">
        <ele>166.582</ele>
        <time>2014-01-18T10:55:51Z</time>
      </trkpt>
      <trkpt lat="44.92211" lon="4.81504">
        <ele>165.378</ele>
        <time>2014-01-18T10:55:57Z</time>
      </trkpt>
      <trkpt lat="44.92233" lon="4.81505">
        <ele>165.073</ele>
        <time>2014-01-18T10:56:01Z</time>
      </trkpt>
      <trkpt lat="44.9226" lon="4.81512">
        <ele>164.363</ele>
        <time>2014-01-18T10:56:06Z</time>
      </trkpt>
      <trkpt lat="44.92278" lon="4.81528">
        <ele>163.657</ele>
        <time>2014-01-18T10:56:10Z</time>
      </trkpt>
      <trkpt lat="44.92282" lon="4.81535">
        <ele>164.035</ele>
        <time>2014-01-18T10:56:11Z</time>
      </trkpt>
      <trkpt lat="44.92287" lon="4.81552">
        <ele>162.911</ele>
        <time>2014-01-18T10:56:13Z</time>
      </trkpt>
      <trkpt lat="44.92306" lon="4.81586">
        <ele>160.498</ele>
        <time>2014-01-18T10:56:18Z</time>
      </trkpt>
      <trkpt lat="44.92311" lon="4.81592">
        <ele>160.145</ele>
        <time>2014-01-18T10:56:19Z</time>
      </trkpt>
      <trkpt lat="44.92363" lon="4.81627">
        <ele>160.362</ele>
        <time>2014-01-18T10:56:28Z</time>
      </trkpt>
      <trkpt lat="44.92384" lon="4.81639">
        <ele>160.213</ele>
        <time>2014-01-18T10:56:32Z</time>
      </trkpt>
      <trkpt lat="44.92401" lon="4.81656">
        <ele>160.96</ele>
        <time>2014-01-18T10:56:36Z</time>
      </trkpt>
      <trkpt lat="44.92403" lon="4.81662">
        <ele>160.25</ele>
        <time>2014-01-18T10:56:37Z</time>
      </trkpt>
      <trkpt lat="44.92415" lon="4.8172">
        <ele>160.127</ele>
        <time>2014-01-18T10:56:45Z</time>
      </trkpt>
      <trkpt lat="44.92421" lon="4.81771">
        <ele>161.653</ele>
        <time>2014-01-18T10:56:52Z</time>
      </trkpt>
      <trkpt lat="44.92416" lon="4.8182">
        <ele>161.316</ele>
        <time>2014-01-18T10:56:59Z</time>
      </trkpt>
      <trkpt lat="44.92414" lon="4.81828">
        <ele>160.121</ele>
        <time>2014-01-18T10:57:00Z</time>
      </trkpt>
      <trkpt lat="44.92415" lon="4.81867">
        <ele>159.524</ele>
        <time>2014-01-18T10:57:04Z</time>
      </trkpt>
      <trkpt lat="44.92413" lon="4.81916">
        <ele>159.701</ele>
        <time>2014-01-18T10:57:09Z</time>
      </trkpt>
      <trkpt lat="44.92407" lon="4.81932">
        <ele>159.165</ele>
        <time>2014-01-18T10:57:11Z</time>
      </trkpt>
      <trkpt lat="44.92401" lon="4.81947">
        <ele>158.154</ele>
        <time>2014-01-18T10:57:13Z</time>
      </trkpt>
      <trkpt lat="44.92393" lon="4.8198">
        <ele>158.144</ele>
        <time>2014-01-18T10:57:17Z</time>
      </trkpt>
      <trkpt lat="44.92404" lon="4.81999">
        <ele>157.762</ele>
        <time>2014-01-18T10:57:20Z</time>
      </trkpt>
      <trkpt lat="44.92407" lon="4.82005">
        <ele>157.804</ele>
        <time>2014-01-18T10:57:21Z</time>
      </trkpt>
      <trkpt lat="44.92428" lon="4.82036">
        <ele>157.707</ele>
        <time>2014-01-18T10:57:26Z</time>
      </trkpt>
      <trkpt lat="44.92448" lon="4.82084">
        <ele>157.209</ele>
        <time>2014-01-18T10:57:32Z</time>
      </trkpt>
      <trkpt lat="44.9246" lon="4.82138">
        <ele>157.101</ele>
        <time>2014-01-18T10:57:38Z</time>
      </trkpt>
      <trkpt lat="44.92461" lon="4.82174">
        <ele>156.911</ele>
        <time>2014-01-18T10:57:42Z</time>
      </trkpt>
      <trkpt lat="44.92445" lon="4.8229">
        <ele>156.973</ele>
        <time>2014-01-18T10:57:55Z</time>
      </trkpt>
      <trkpt lat="44.92444" lon="4.82338">
        <ele>156.597</ele>
        <time>2014-01-18T10:58:01Z</time>
      </trkpt>
      <trkpt lat="44.92446" lon="4.82345">
        <ele>156.526</ele>
        <time>2014-01-18T10:58:02Z</time>
      </trkpt>
      <trkpt lat="44.92466" lon="4.82404">
        <ele>156.317</ele>
        <time>2014-01-18T10:58:10Z</time>
      </trkpt>
      <trkpt lat="44.92491" lon="4.8246">
        <ele>156.642</ele>
        <time>2014-01-18T10:58:18Z</time>
      </trkpt>
      <trkpt lat="44.92498" lon="4.82472">
        <ele>156.294</ele>
        <time>2014-01-18T10:58:20Z</time>
      </trkpt>
      <trkpt lat="44.92538" lon="4.82508">
        <ele>157.712</ele>
        <time>2014-01-18T10:58:28Z</time>
      </trkpt>
      <trkpt lat="44.92582" lon="4.82548">
        <ele>157.391</ele>
        <time>2014-01-18T10:58:37Z</time>
      </trkpt>
      <trkpt lat="44.92624" lon="4.82587">
        <ele>158.42</ele>
        <time>2014-01-18T10:58:46Z</time>
      </trkpt>
      <trkpt lat="44.92664" lon="4.82623">
        <ele>158.887</ele>
        <time>2014-01-18T10:58:55Z</time>
      </trkpt>
      <trkpt lat="44.92687" lon="4.82646">
        <ele>158.272</ele>
        <time>2014-01-18T10:59:01Z</time>
      </trkpt>
      <trkpt lat="44.92709" lon="4.82665">
        <ele>158.573</ele>
        <time>2014-01-18T10:59:08Z</time>
      </trkpt>
      <trkpt lat="44.92723" lon="4.8268">
        <ele>158.325</ele>
        <time>2014-01-18T10:59:13Z</time>
      </trkpt>
      <trkpt lat="44.92739" lon="4.82698">
        <ele>157.401</ele>
        <time>2014-01-18T10:59:18Z</time>
      </trkpt>
      <trkpt lat="44.92771" lon="4.82731">
        <ele>156.968</ele>
        <time>2014-01-18T10:59:26Z</time>
      </trkpt>
      <trkpt lat="44.92801" lon="4.82762">
        <ele>156.446</ele>
        <time>2014-01-18T10:59:34Z</time>
      </trkpt>
      <trkpt lat="44.92828" lon="4.82804">
        <ele>155.043</ele>
        <time>2014-01-18T10:59:42Z</time>
      </trkpt>
      <trkpt lat="44.92838" lon="4.82822">
        <ele>154.56</ele>
        <time>2014-01-18T10:59:45Z</time>
      </trkpt>
      <trkpt lat="44.92869" lon="4.8286">
        <ele>154.872</ele>
        <time>2014-01-18T10:59:53Z</time>
      </trkpt>
      <trkpt lat="44.9288" lon="4.8287">
        <ele>153.728</ele>
        <time>2014-01-18T10:59:56Z</time>
      </trkpt>
      <trkpt lat="44.92892" lon="4.82882">
        <ele>152.921</ele>
        <time>2014-01-18T10:59:59Z</time>
      </trkpt>
      <trkpt lat="44.92904" lon="4.82901">
        <ele>153.34</ele>
        <time>2014-01-18T11:00:03Z</time>
      </trkpt>
      <trkpt lat="44.92914" lon="4.82917">
        <ele>152.158</ele>
        <time>2014-01-18T11:00:06Z</time>
      </trkpt>
      <trkpt lat="44.92919" lon="4.82941">
        <ele>151.092</ele>
        <time>2014-01-18T11:00:10Z</time>
      </trkpt>
      <trkpt lat="44.92919" lon="4.82952">
        <ele>150.311</ele>
        <time>2014-01-18T11:00:16Z</time>
      </trkpt>
      <trkpt lat="44.92923" lon="4.83014">
        <ele>148.361</ele>
        <time>2014-01-18T11:00:25Z</time>
      </trkpt>
      <trkpt lat="44.92915" lon="4.82954">
        <ele>148.77</ele>
        <time>2014-01-18T11:00:29Z</time>
      </trkpt>
      <trkpt lat="44.92917" lon="4.83017">
        <ele>148.837</ele>
        <time>2014-01-18T11:00:33Z</time>
      </trkpt>
      <trkpt lat="44.92898" lon="4.83046">
        <ele>148.796</ele>
        <time>2014-01-18T11:00:39Z</time>
      </trkpt>
      <trkpt lat="44.92885" lon="4.83098">
        <ele>147.916</ele>
        <time>2014-01-18T11:00:48Z</time>
      </trkpt>
      <trkpt lat="44.92883" lon="4.83126">
        <ele>147.818</ele>
        <time>2014-01-18T11:00:53Z</time>
      </trkpt>
      <trkpt lat="44.92887" lon="4.83135">
        <ele>147.389</ele>
        <time>2014-01-18T11:00:55Z</time>
      </trkpt>
      <trkpt lat="44.92906" lon="4.83151">
        <ele>147.448</ele>
        <time>2014-01-18T11:01:00Z</time>
      </trkpt>
      <trkpt lat="44.92945" lon="4.8317">
        <ele>146.379</ele>
        <time>2014-01-18T11:01:09Z</time>
      </trkpt>
      <trkpt lat="44.9295" lon="4.83172">
        <ele>146.887</ele>
        <time>2014-01-18T11:01:10Z</time>
      </trkpt>
      <trkpt lat="44.93001" lon="4.83171">
        <ele>146.887</ele>
        <time>2014-01-18T11:01:14Z</time>
      </trkpt>
      <trkpt lat="44.92954" lon="4.83192">
        <ele>146.771</ele>
        <time>2014-01-18T11:01:16Z</time>
      </trkpt>
      <trkpt lat="44.9294" lon="4.83242">
        <ele>146.648</ele>
        <time>2014-01-18T11:01:25Z</time>
      </trkpt>
      <trkpt lat="44.92928" lon="4.83268">
        <ele>145.951</ele>
        <time>2014-01-18T11:01:31Z</time>
      </trkpt>
      <trkpt lat="44.92926" lon="4.8328">
        <ele>145.669</ele>
        <time>2014-01-18T11:01:36Z</time>
      </trkpt>
      <trkpt lat="44.92926" lon="4.83284">
        <ele>146.219</ele>
        <time>2014-01-18T11:01:48Z</time>
      </trkpt>
      <trkpt lat="44.92926" lon="4.83288">
        <ele>145.838</ele>
        <time>2014-01-18T11:01:50Z</time>
      </trkpt>
      <trkpt lat="44.92929" lon="4.83297">
        <ele>146.176</ele>
        <time>2014-01-18T11:01:55Z</time>
      </trkpt>
      <trkpt lat="44.92936" lon="4.83326">
        <ele>145.851</ele>
        <time>2014-01-18T11:02:02Z</time>
      </trkpt>
      <trkpt lat="44.92944" lon="4.83339">
        <ele>145.601</ele>
        <time>2014-01-18T11:02:06Z</time>
      </trkpt>
      <trkpt lat="44.9297" lon="4.83351">
        <ele>144.559</ele>
        <time>2014-01-18T11:02:13Z</time>
      </trkpt>
      <trkpt lat="44.93007" lon="4.83359">
        <ele>143.952</ele>
        <time>2014-01-18T11:02:22Z</time>
      </trkpt>
      <trkpt lat="44.93024" lon="4.83362">
        <ele>143.326</ele>
        <time>2014-01-18T11:02:26Z</time>
      </trkpt>
      <trkpt lat="44.93034" lon="4.83363">
        <ele>143.132</ele>
        <time>2014-01-18T11:02:28Z</time>
      </trkpt>
      <trkpt lat="44.93065" lon="4.83363">
        <ele>143.351</ele>
        <time>2014-01-18T11:02:35Z</time>
      </trkpt>
      <trkpt lat="44.93079" lon="4.83362">
        <ele>143.447</ele>
        <time>2014-01-18T11:02:38Z</time>
      </trkpt>
      <trkpt lat="44.93099" lon="4.83364">
        <ele>143.596</ele>
        <time>2014-01-18T11:02:43Z</time>
      </trkpt>
      <trkpt lat="44.93111" lon="4.83365">
        <ele>143.873</ele>
        <time>2014-01-18T11:02:46Z</time>
      </trkpt>
      <trkpt lat="44.93124" lon="4.83367">
        <ele>143.365</ele>
        <time>2014-01-18T11:02:49Z</time>
      </trkpt>
      <trkpt lat="44.9316" lon="4.83372">
        <ele>143.552</ele>
        <time>2014-01-18T11:02:57Z</time>
      </trkpt>
      <trkpt lat="44.93174" lon="4.83362">
        <ele>143.036</ele>
        <time>2014-01-18T11:03:03Z</time>
      </trkpt>
      <trkpt lat="44.93235" lon="4.83408">
        <ele>142.168</ele>
        <time>2014-01-18T11:03:13Z</time>
      </trkpt>
      <trkpt lat="44.93258" lon="4.8343">
        <ele>141.266</ele>
        <time>2014-01-18T11:03:20Z</time>
      </trkpt>
      <trkpt lat="44.93271" lon="4.83439">
        <ele>140.37</ele>
        <time>2014-01-18T11:03:27Z</time>
      </trkpt>
      <trkpt lat="44.93288" lon="4.83469">
        <ele>140.945</ele>
        <time>2014-01-18T11:03:31Z</time>
      </trkpt>
      <trkpt lat="44.93275" lon="4.83437">
        <ele>142.359</ele>
        <time>2014-01-18T11:03:34Z</time>
      </trkpt>
      <trkpt lat="44.9329" lon="4.8348">
        <ele>142.71</ele>
        <time>2014-01-18T11:03:36Z</time>
      </trkpt>
      <trkpt lat="44.933" lon="4.83506">
        <ele>142.82</ele>
        <time>2014-01-18T11:03:44Z</time>
      </trkpt>
      <trkpt lat="44.93314" lon="4.83535">
        <ele>143.558</ele>
        <time>2014-01-18T11:03:51Z</time>
      </trkpt>
      <trkpt lat="44.93333" lon="4.83575">
        <ele>143.301</ele>
        <time>2014-01-18T11:04:00Z</time>
      </trkpt>
      <trkpt lat="44.93356" lon="4.83616">
        <ele>142.31</ele>
        <time>2014-01-18T11:04:09Z</time>
      </trkpt>
      <trkpt lat="44.93379" lon="4.83654">
        <ele>141.895</ele>
        <time>2014-01-18T11:04:17Z</time>
      </trkpt>
      <trkpt lat="44.93403" lon="4.83683">
        <ele>142.127</ele>
        <time>2014-01-18T11:04:25Z</time>
      </trkpt>
      <trkpt lat="44.93415" lon="4.83696">
        <ele>142.411</ele>
        <time>2014-01-18T11:04:29Z</time>
      </trkpt>
      <trkpt lat="44.93445" lon="4.83725">
        <ele>141.719</ele>
        <time>2014-01-18T11:04:38Z</time>
      </trkpt>
      <trkpt lat="44.93486" lon="4.83741">
        <ele>140.481</ele>
        <time>2014-01-18T11:04:47Z</time>
      </trkpt>
      <trkpt lat="44.93505" lon="4.83747">
        <ele>139.837</ele>
        <time>2014-01-18T11:04:51Z</time>
      </trkpt>
      <trkpt lat="44.93519" lon="4.83747">
        <ele>139.649</ele>
        <time>2014-01-18T11:04:54Z</time>
      </trkpt>
      <trkpt lat="44.93542" lon="4.83744">
        <ele>139.781</ele>
        <time>2014-01-18T11:04:59Z</time>
      </trkpt>
      <trkpt lat="44.93554" lon="4.83744">
        <ele>139.841</ele>
        <time>2014-01-18T11:05:02Z</time>
      </trkpt>
      <trkpt lat="44.93565" lon="4.83738">
        <ele>139.646</ele>
        <time>2014-01-18T11:05:06Z</time>
      </trkpt>
      <trkpt lat="44.93599" lon="4.83744">
        <ele>139.649</ele>
        <time>2014-01-18T11:05:13Z</time>
      </trkpt>
      <trkpt lat="44.93624" lon="4.83752">
        <ele>139.242</ele>
        <time>2014-01-18T11:05:19Z</time>
      </trkpt>
      <trkpt lat="44.93632" lon="4.83769">
        <ele>138.308</ele>
        <time>2014-01-18T11:05:23Z</time>
      </trkpt>
      <trkpt lat="44.93636" lon="4.83774">
        <ele>137.362</ele>
        <time>2014-01-18T11:05:24Z</time>
      </trkpt>
      <trkpt lat="44.93664" lon="4.8379">
        <ele>136.961</ele>
        <time>2014-01-18T11:05:30Z</time>
      </trkpt>
      <trkpt lat="44.93683" lon="4.83796">
        <ele>138.578</ele>
        <time>2014-01-18T11:05:34Z</time>
      </trkpt>
      <trkpt lat="44.9371" lon="4.83819">
        <ele>138.17</ele>
        <time>2014-01-18T11:05:42Z</time>
      </trkpt>
      <trkpt lat="44.93717" lon="4.83825">
        <ele>138.035</ele>
        <time>2014-01-18T11:05:44Z</time>
      </trkpt>
      <trkpt lat="44.93731" lon="4.83836">
        <ele>138.07</ele>
        <time>2014-01-18T11:05:48Z</time>
      </trkpt>
      <trkpt lat="44.93747" lon="4.83848">
        <ele>137.677</ele>
        <time>2014-01-18T11:05:52Z</time>
      </trkpt>
      <trkpt lat="44.93762" lon="4.83865">
        <ele>136.677</ele>
        <time>2014-01-18T11:05:56Z</time>
      </trkpt>
      <trkpt lat="44.9378" lon="4.83868">
        <ele>136.557</ele>
        <time>2014-01-18T11:06:00Z</time>
      </trkpt>
      <trkpt lat="44.93811" lon="4.83885">
        <ele>136.222</ele>
        <time>2014-01-18T11:06:07Z</time>
      </trkpt>
      <trkpt lat="44.93821" lon="4.83888">
        <ele>135.194</ele>
        <time>2014-01-18T11:06:09Z</time>
      </trkpt>
      <trkpt lat="44.93839" lon="4.83885">
        <ele>136.884</ele>
        <time>2014-01-18T11:06:13Z</time>
      </trkpt>
      <trkpt lat="44.93854" lon="4.83874">
        <ele>137.281</ele>
        <time>2014-01-18T11:06:18Z</time>
      </trkpt>
      <trkpt lat="44.93872" lon="4.8388">
        <ele>138.003</ele>
        <time>2014-01-18T11:06:23Z</time>
      </trkpt>
      <trkpt lat="44.93888" lon="4.83886">
        <ele>137.989</ele>
        <time>2014-01-18T11:06:28Z</time>
      </trkpt>
      <trkpt lat="44.93913" lon="4.839">
        <ele>137.605</ele>
        <time>2014-01-18T11:06:34Z</time>
      </trkpt>
      <trkpt lat="44.93928" lon="4.83911">
        <ele>137.652</ele>
        <time>2014-01-18T11:06:38Z</time>
      </trkpt>
      <trkpt lat="44.93945" lon="4.83944">
        <ele>136.599</ele>
        <time>2014-01-18T11:06:43Z</time>
      </trkpt>
      <trkpt lat="44.93952" lon="4.83962">
        <ele>135.805</ele>
        <time>2014-01-18T11:06:47Z</time>
      </trkpt>
      <trkpt lat="44.9396" lon="4.83971">
        <ele>136.061</ele>
        <time>2014-01-18T11:06:49Z</time>
      </trkpt>
      <trkpt lat="44.9397" lon="4.83979">
        <ele>136.208</ele>
        <time>2014-01-18T11:06:51Z</time>
      </trkpt>
      <trkpt lat="44.93989" lon="4.83988">
        <ele>136.314</ele>
        <time>2014-01-18T11:06:55Z</time>
      </trkpt>
      <trkpt lat="44.94011" lon="4.83996">
        <ele>135.632</ele>
        <time>2014-01-18T11:07:00Z</time>
      </trkpt>
      <trkpt lat="44.94023" lon="4.84001">
        <ele>135.372</ele>
        <time>2014-01-18T11:07:03Z</time>
      </trkpt>
      <trkpt lat="44.94037" lon="4.84011">
        <ele>135.661</ele>
        <time>2014-01-18T11:07:07Z</time>
      </trkpt>
      <trkpt lat="44.94044" lon="4.84034">
        <ele>134.557</ele>
        <time>2014-01-18T11:07:11Z</time>
      </trkpt>
      <trkpt lat="44.94048" lon="4.84049">
        <ele>134.477</ele>
        <time>2014-01-18T11:07:14Z</time>
      </trkpt>
      <trkpt lat="44.94051" lon="4.84052">
        <ele>134.59</ele>
        <time>2014-01-18T11:07:15Z</time>
      </trkpt>
      <trkpt lat="44.94076" lon="4.84072">
        <ele>133.76</ele>
        <time>2014-01-18T11:07:22Z</time>
      </trkpt>
      <trkpt lat="44.94083" lon="4.84074">
        <ele>133.816</ele>
        <time>2014-01-18T11:07:24Z</time>
      </trkpt>
      <trkpt lat="44.94122" lon="4.84091">
        <ele>135.379</ele>
        <time>2014-01-18T11:07:33Z</time>
      </trkpt>
      <trkpt lat="44.94151" lon="4.84112">
        <ele>134.899</ele>
        <time>2014-01-18T11:07:41Z</time>
      </trkpt>
      <trkpt lat="44.94163" lon="4.84124">
        <ele>134.042</ele>
        <time>2014-01-18T11:07:46Z</time>
      </trkpt>
      <trkpt lat="44.94179" lon="4.84145">
        <ele>134.692</ele>
        <time>2014-01-18T11:07:54Z</time>
      </trkpt>
      <trkpt lat="44.94188" lon="4.84152">
        <ele>136.314</ele>
        <time>2014-01-18T11:08:00Z</time>
      </trkpt>
      <trkpt lat="44.94188" lon="4.84154">
        <ele>136.225</ele>
        <time>2014-01-18T11:08:05Z</time>
      </trkpt>
      <trkpt lat="44.94176" lon="4.84161">
        <ele>137.215</ele>
        <time>2014-01-18T11:11:01Z</time>
      </trkpt>
      <trkpt lat="44.94173" lon="4.84169">
        <ele>136.921</ele>
        <time>2014-01-18T11:11:04Z</time>
      </trkpt>
      <trkpt lat="44.94182" lon="4.84197">
        <ele>135.677</ele>
        <time>2014-01-18T11:11:08Z</time>
      </trkpt>
      <trkpt lat="44.94189" lon="4.84197">
        <ele>134.953</ele>
        <time>2014-01-18T11:11:10Z</time>
      </trkpt>
      <trkpt lat="44.94214" lon="4.84219">
        <ele>134.658</ele>
        <time>2014-01-18T11:11:17Z</time>
      </trkpt>
      <trkpt lat="44.94239" lon="4.84247">
        <ele>134.448</ele>
        <time>2014-01-18T11:11:25Z</time>
      </trkpt>
      <trkpt lat="44.94241" lon="4.84252">
        <ele>134.404</ele>
        <time>2014-01-18T11:11:26Z</time>
      </trkpt>
      <trkpt lat="44.94258" lon="4.84279">
        <ele>134.379</ele>
        <time>2014-01-18T11:11:32Z</time>
      </trkpt>
      <trkpt lat="44.94284" lon="4.84308">
        <ele>134.409</ele>
        <time>2014-01-18T11:11:40Z</time>
      </trkpt>
      <trkpt lat="44.94315" lon="4.84343">
        <ele>134.189</ele>
        <time>2014-01-18T11:11:49Z</time>
      </trkpt>
      <trkpt lat="44.94332" lon="4.84367">
        <ele>136.668</ele>
        <time>2014-01-18T11:11:55Z</time>
      </trkpt>
      <trkpt lat="44.9435" lon="4.84389">
        <ele>136.091</ele>
        <time>2014-01-18T11:12:02Z</time>
      </trkpt>
      <trkpt lat="44.94358" lon="4.84409">
        <ele>136.462</ele>
        <time>2014-01-18T11:12:08Z</time>
      </trkpt>
      <trkpt lat="44.94364" lon="4.84413">
        <ele>135.777</ele>
        <time>2014-01-18T11:12:09Z</time>
      </trkpt>
      <trkpt lat="44.94367" lon="4.8441">
        <ele>136.023</ele>
        <time>2014-01-18T11:12:12Z</time>
      </trkpt>
      <trkpt lat="44.94363" lon="4.8442">
        <ele>135.98</ele>
        <time>2014-01-18T11:12:16Z</time>
      </trkpt>
      <trkpt lat="44.94367" lon="4.84424">
        <ele>136.297</ele>
        <time>2014-01-18T11:12:19Z</time>
      </trkpt>
      <trkpt lat="44.9437" lon="4.84431">
        <ele>135.274</ele>
        <time>2014-01-18T11:12:22Z</time>
      </trkpt>
      <trkpt lat="44.94399" lon="4.84456">
        <ele>135.077</ele>
        <time>2014-01-18T11:12:27Z</time>
      </trkpt>
      <trkpt lat="44.94402" lon="4.84459">
        <ele>135.448</ele>
        <time>2014-01-18T11:12:28Z</time>
      </trkpt>
      <trkpt lat="44.94416" lon="4.84473">
        <ele>133.471</ele>
        <time>2014-01-18T11:12:32Z</time>
      </trkpt>
      <trkpt lat="44.94442" lon="4.84502">
        <ele>132.92</ele>
        <time>2014-01-18T11:12:38Z</time>
      </trkpt>
      <trkpt lat="44.94449" lon="4.84512">
        <ele>132.546</ele>
        <time>2014-01-18T11:12:40Z</time>
      </trkpt>
      <trkpt lat="44.94463" lon="4.84536">
        <ele>132.775</ele>
        <time>2014-01-18T11:12:44Z</time>
      </trkpt>
      <trkpt lat="44.94476" lon="4.84567">
        <ele>132.177</ele>
        <time>2014-01-18T11:12:49Z</time>
      </trkpt>
      <trkpt lat="44.94489" lon="4.84592">
        <ele>132.154</ele>
        <time>2014-01-18T11:12:53Z</time>
      </trkpt>
      <trkpt lat="44.94492" lon="4.84626">
        <ele>133.591</ele>
        <time>2014-01-18T11:12:58Z</time>
      </trkpt>
      <trkpt lat="44.94492" lon="4.84643">
        <ele>134.957</ele>
        <time>2014-01-18T11:13:02Z</time>
      </trkpt>
      <trkpt lat="44.9451" lon="4.84671">
        <ele>134.279</ele>
        <time>2014-01-18T11:13:09Z</time>
      </trkpt>
      <trkpt lat="44.9452" lon="4.84688">
        <ele>134.868</ele>
        <time>2014-01-18T11:13:13Z</time>
      </trkpt>
      <trkpt lat="44.94541" lon="4.84732">
        <ele>135.178</ele>
        <time>2014-01-18T11:13:19Z</time>
      </trkpt>
      <trkpt lat="44.9455" lon="4.84742">
        <ele>135.466</ele>
        <time>2014-01-18T11:13:23Z</time>
      </trkpt>
      <trkpt lat="44.94554" lon="4.84746">
        <ele>135.245</ele>
        <time>2014-01-18T11:13:28Z</time>
      </trkpt>
      <trkpt lat="44.94569" lon="4.84778">
        <ele>134.814</ele>
        <time>2014-01-18T11:13:33Z</time>
      </trkpt>
      <trkpt lat="44.94571" lon="4.8478">
        <ele>135.59</ele>
        <time>2014-01-18T11:13:34Z</time>
      </trkpt>
      <trkpt lat="44.94607" lon="4.84762">
        <ele>134.565</ele>
        <time>2014-01-18T11:13:39Z</time>
      </trkpt>
      <trkpt lat="44.94611" lon="4.84774">
        <ele>134.881</ele>
        <time>2014-01-18T11:13:41Z</time>
      </trkpt>
      <trkpt lat="44.94633" lon="4.84841">
        <ele>133.554</ele>
        <time>2014-01-18T11:13:49Z</time>
      </trkpt>
      <trkpt lat="44.94656" lon="4.84905">
        <ele>133.391</ele>
        <time>2014-01-18T11:13:56Z</time>
      </trkpt>
      <trkpt lat="44.94689" lon="4.8502">
        <ele>132.94</ele>
        <time>2014-01-18T11:14:07Z</time>
      </trkpt>
      <trkpt lat="44.947" lon="4.85057">
        <ele>132.782</ele>
        <time>2014-01-18T11:14:11Z</time>
      </trkpt>
      <trkpt lat="44.94707" lon="4.85079">
        <ele>132.106</ele>
        <time>2014-01-18T11:14:14Z</time>
      </trkpt>
      <trkpt lat="44.94725" lon="4.85069">
        <ele>131.808</ele>
        <time>2014-01-18T11:14:16Z</time>
      </trkpt>
      <trkpt lat="44.94726" lon="4.85068">
        <ele>131.027</ele>
        <time>2014-01-18T11:14:18Z</time>
      </trkpt>
      <trkpt lat="44.94739" lon="4.8503">
        <ele>130.996</ele>
        <time>2014-01-18T11:14:21Z</time>
      </trkpt>
      <trkpt lat="44.94761" lon="4.85037">
        <ele>131.228</ele>
        <time>2014-01-18T11:14:25Z</time>
      </trkpt>
      <trkpt lat="44.94762" lon="4.85036">
        <ele>131.368</ele>
        <time>2014-01-18T11:14:29Z</time>
      </trkpt>
      <trkpt lat="44.94768" lon="4.8503">
        <ele>131.145</ele>
        <time>2014-01-18T11:15:05Z</time>
      </trkpt>
      <trkpt lat="44.94777" lon="4.85021">
        <ele>131.875</ele>
        <time>2014-01-18T11:15:15Z</time>
      </trkpt>
    </trkseg>
  </trk>
</gpx>